Provisional Data: Grays Run near Gray, PA


Please select a monitoring station.
Please select start date.
Please select start date.

Toggle Unit: C/F Toggle Unit: C/F
Sample Time Temperature (C) Temperature (F) Specific Conductivity (mS/cm) pH   Turbidity (NTU+) DO (mg/L)
4/18/2023 12:00:00 AM 9.49 49.082 0.032 6.74 1.17 10.79
4/18/2023 12:15:00 AM 9.44 48.992 0.032 6.73 1.11 10.81
4/18/2023 12:30:00 AM 9.39 48.902 0.032 6.74 1.11 10.82
4/18/2023 12:45:00 AM 9.34 48.812 0.032 6.74 1.18 10.83
4/18/2023 1:00:00 AM 9.28 48.704 0.032 6.73 1.09 10.85
4/18/2023 1:15:00 AM 9.22 48.596 0.032 6.73 1.06 10.86
4/18/2023 1:30:00 AM 9.17 48.506 0.032 6.74 1.1 10.88
4/18/2023 1:45:00 AM 9.12 48.416 0.032 6.73 1.11 10.89
4/18/2023 2:00:00 AM 9.09 48.362 0.032 6.74 1.11 10.9
4/18/2023 2:15:00 AM 9.04 48.272 0.032 6.74 1.12 10.91
4/18/2023 2:30:00 AM 9 48.2 0.032 6.73 1.1 10.92
4/18/2023 2:45:00 AM 8.94 48.092 0.032 6.72 1.09 10.93
4/18/2023 3:00:00 AM 8.9 48.02 0.032 6.73 1.13 10.95
4/18/2023 3:15:00 AM 8.87 47.966 0.032 6.71 1.11 10.96
4/18/2023 3:30:00 AM 8.83 47.894 0.032 6.73 1.1 10.97
4/18/2023 3:45:00 AM 8.78 47.804 0.032 6.73 1.21 10.98
4/18/2023 4:00:00 AM 8.73 47.714 0.032 6.73 1.17 10.99
4/18/2023 4:15:00 AM 8.69 47.642 0.032 6.72 1.1 11
4/18/2023 4:30:00 AM 8.65 47.57 0.032 6.73 1.11 11.01
4/18/2023 4:45:00 AM 8.61 47.498 0.032 6.72 1.07 11.03
4/18/2023 5:00:00 AM 8.57 47.426 0.032 6.73 1.16 11.04
4/18/2023 5:15:00 AM 8.53 47.354 0.032 6.73 1.06 11.05
4/18/2023 5:30:00 AM 8.51 47.318 0.032 6.72 1.07 11.06
4/18/2023 5:45:00 AM 8.48 47.264 0.032 6.73 1.05 11.06
4/18/2023 6:00:00 AM 8.45 47.21 0.032 6.72 1.12 11.07
4/18/2023 6:15:00 AM 8.41 47.138 0.032 6.73 1.05 11.09
4/18/2023 6:30:00 AM 8.36 47.048 0.032 6.72 1.12 11.1
4/18/2023 6:45:00 AM 8.33 46.994 0.032 6.73 1.08 11.12
4/18/2023 7:00:00 AM 8.29 46.922 0.032 6.72 1.02 11.15
4/18/2023 7:15:00 AM 8.27 46.886 0.032 6.73 1.04 11.17
4/18/2023 7:30:00 AM 8.24 46.832 0.032 6.73 1.06 11.2
4/18/2023 7:45:00 AM 8.22 46.796 0.032 6.75 1.06 11.24
4/18/2023 8:00:00 AM 8.22 46.796 0.032 6.75 1.06 11.28
4/18/2023 8:15:00 AM 8.21 46.778 0.032 6.77 0.99 11.32
4/18/2023 8:30:00 AM 8.2 46.76 0.032 6.78 1.01 11.34
4/18/2023 8:45:00 AM 8.2 46.76 0.032 6.78 0.99 11.38
4/18/2023 9:00:00 AM 8.24 46.832 0.032 6.8 0.97 11.41
4/18/2023 9:15:00 AM 8.27 46.886 0.032 6.8 1.02 11.42
4/18/2023 9:30:00 AM 8.27 46.886 0.032 6.81 0.99 11.42
4/18/2023 9:45:00 AM 8.27 46.886 0.032 6.81 1.04 11.42
4/18/2023 10:00:00 AM 8.29 46.922 0.032 6.8 0.95 11.43
4/18/2023 10:15:00 AM 8.27 46.886 0.032 6.81 1.08 11.4
4/18/2023 10:30:00 AM 8.29 46.922 0.032 6.79 0.97 11.42
4/18/2023 10:45:00 AM 8.31 46.958 0.032 6.81 0.94 11.43
4/18/2023 11:00:00 AM 8.31 46.958 0.032 6.8 0.96 11.43
4/18/2023 11:15:00 AM 8.38 47.084 0.032 6.82 0.92 11.45
4/18/2023 11:30:00 AM 8.46 47.228 0.032 6.82 1.01 11.45
4/18/2023 11:45:00 AM 8.59 47.462 0.031 6.82 0.93 11.43
4/18/2023 12:00:00 PM 8.66 47.588 0.031 6.81 0.9 11.39
4/18/2023 12:15:00 PM 8.7 47.66 0.031 6.81 0.92 11.35
4/18/2023 12:30:00 PM 8.72 47.696 0.031 6.82 0.96 11.36
4/18/2023 12:45:00 PM 8.68 47.624 0.031 6.82 0.99 11.35
4/18/2023 1:00:00 PM 8.62 47.516 0.032 6.8 0.97 11.33
4/18/2023 1:15:00 PM 8.59 47.462 0.032 6.8 0.94 11.32
4/18/2023 1:30:00 PM 8.54 47.372 0.032 6.79 0.99 11.31
4/18/2023 1:45:00 PM 8.54 47.372 0.032 6.79 0.99 11.35
4/18/2023 2:00:00 PM 8.53 47.354 0.032 6.81 0.96 11.36
4/18/2023 2:15:00 PM 8.49 47.282 0.032 6.79 0.98 11.35
4/18/2023 2:30:00 PM 8.45 47.21 0.032 6.81 0.97 11.36
4/18/2023 2:45:00 PM 8.45 47.21 0.032 6.81 0.95 11.39
4/18/2023 3:00:00 PM 8.43 47.174 0.032 6.81 0.98 11.38
4/18/2023 3:15:00 PM 8.41 47.138 0.032 6.8 0.96 11.38
4/18/2023 3:30:00 PM 8.38 47.084 0.032 6.79 1 11.38
4/18/2023 3:45:00 PM 8.34 47.012 0.032 6.79 1 11.38
4/18/2023 4:00:00 PM 8.32 46.976 0.032 6.79 0.92 11.38
4/18/2023 4:15:00 PM 8.3 46.94 0.032 6.8 0.9 11.41
4/18/2023 4:30:00 PM 8.27 46.886 0.032 6.8 0.91 11.4
4/18/2023 4:45:00 PM 8.21 46.778 0.032 6.79 0.93 11.38
4/18/2023 5:00:00 PM 8.16 46.688 0.032 6.77 0.94 11.36
4/18/2023 5:15:00 PM 8.12 46.616 0.032 6.78 0.98 11.39
4/18/2023 5:30:00 PM 8.1 46.58 0.032 6.77 0.95 11.4
4/18/2023 5:45:00 PM 8.07 46.526 0.032 6.77 0.92 11.42
4/18/2023 6:00:00 PM 8.03 46.454 0.032 6.77 0.93 11.43
4/18/2023 6:15:00 PM 7.99 46.382 0.032 6.77 0.92 11.42
4/18/2023 6:30:00 PM 7.96 46.328 0.032 6.78 0.95 11.44
4/18/2023 6:45:00 PM 7.93 46.274 0.032 6.76 0.93 11.45
4/18/2023 7:00:00 PM 7.9 46.22 0.032 6.77 0.95 11.44
4/18/2023 7:15:00 PM 7.86 46.148 0.032 6.75 0.98 11.43
4/18/2023 7:30:00 PM 7.8 46.04 0.032 6.75 0.99 11.42
4/18/2023 7:45:00 PM 7.75 45.95 0.032 6.74 1.01 11.41
4/18/2023 8:00:00 PM 7.72 45.896 0.032 6.73 0.94 11.41
4/18/2023 8:15:00 PM 7.71 45.878 0.032 6.74 1 11.4
4/18/2023 8:30:00 PM 7.67 45.806 0.032 6.73 1 11.41
4/18/2023 8:45:00 PM 7.63 45.734 0.032 6.73 0.99 11.42
4/18/2023 9:00:00 PM 7.6 45.68 0.032 6.72 0.99 11.43
4/18/2023 9:15:00 PM 7.58 45.644 0.032 6.73 1.21 11.44
4/18/2023 9:30:00 PM 7.57 45.626 0.032 6.72 0.97 11.45
4/18/2023 9:45:00 PM 7.55 45.59 0.032 6.73 1 11.45
4/18/2023 10:00:00 PM 7.52 45.536 0.032 6.71 1.06 11.46
4/18/2023 10:15:00 PM 7.5 45.5 0.032 6.72 1 11.47
4/18/2023 10:30:00 PM 7.48 45.464 0.032 6.71 0.97 11.48
4/18/2023 10:45:00 PM 7.47 45.446 0.032 6.72 0.99 11.48
4/18/2023 11:00:00 PM 7.45 45.41 0.032 6.72 0.99 11.49
4/18/2023 11:15:00 PM 7.43 45.374 0.032 6.72 1.07 11.49
4/18/2023 11:30:00 PM 7.41 45.338 0.032 6.71 1.03 11.5
4/18/2023 11:45:00 PM 7.39 45.302 0.032 6.71 0.97 11.51
4/19/2023 12:00:00 AM 7.37 45.266 0.032 6.72 1 11.51
4/19/2023 12:15:00 AM 7.35 45.23 0.032 6.72 1.05 11.52
4/19/2023 12:30:00 AM 7.34 45.212 0.032 6.72 1 11.52
4/19/2023 12:45:00 AM 7.32 45.176 0.032 6.72 1.77 11.53
4/19/2023 1:00:00 AM 7.31 45.158 0.032 6.71 0.98 11.53
4/19/2023 1:15:00 AM 7.29 45.122 0.032 6.72 0.97 11.53
4/19/2023 1:30:00 AM 7.28 45.104 0.032 6.71 1 11.54
4/19/2023 1:45:00 AM 7.25 45.05 0.032 6.72 0.97 11.55
4/19/2023 2:00:00 AM 7.24 45.032 0.032 6.72 0.98 11.55
4/19/2023 2:15:00 AM 7.21 44.978 0.032 6.71 1 11.56
4/19/2023 2:30:00 AM 7.19 44.942 0.032 6.72 0.94 11.56
4/19/2023 2:45:00 AM 7.18 44.924 0.032 6.71 1.02 11.57
4/19/2023 3:00:00 AM 7.16 44.888 0.032 6.72 0.99 11.57
4/19/2023 3:15:00 AM 7.14 44.852 0.032 6.71 1.02 11.58
4/19/2023 3:30:00 AM 7.13 44.834 0.032 6.72 1.01 11.59
4/19/2023 3:45:00 AM 7.11 44.798 0.032 6.72 1.05 11.59
4/19/2023 4:00:00 AM 7.1 44.78 0.032 6.72 1.01 11.6
4/19/2023 4:15:00 AM 7.08 44.744 0.032 6.7 1.02 11.6
4/19/2023 4:30:00 AM 7.08 44.744 0.032 6.71 1 11.6
4/19/2023 4:45:00 AM 7.07 44.726 0.032 6.71 0.98 11.61
4/19/2023 5:00:00 AM 7.07 44.726 0.032 6.7 1.02 11.62
4/19/2023 5:15:00 AM 7.06 44.708 0.032 6.71 0.97 11.62
4/19/2023 5:30:00 AM 7.04 44.672 0.032 6.7 1.27 11.62
4/19/2023 5:45:00 AM 7.03 44.654 0.032 6.7 0.99 11.63
4/19/2023 6:00:00 AM 7.02 44.636 0.032 6.7 1.01 11.63
4/19/2023 6:15:00 AM 7.02 44.636 0.032 6.7 1.03 11.64
4/19/2023 6:30:00 AM 7.01 44.618 0.032 6.71 1.01 11.64
4/19/2023 6:45:00 AM 6.99 44.582 0.032 6.69 0.97 11.66
4/19/2023 7:00:00 AM 6.99 44.582 0.032 6.71 0.95 11.67
4/19/2023 7:15:00 AM 6.98 44.564 0.032 6.7 1.01 11.7
4/19/2023 7:30:00 AM 6.98 44.564 0.032 6.72 0.98 11.71
4/19/2023 7:45:00 AM 6.99 44.582 0.032 6.72 0.92 11.74
4/19/2023 8:00:00 AM 7 44.6 0.032 6.74 0.91 11.78
4/19/2023 8:15:00 AM 7.02 44.636 0.032 6.73 0.95 11.81
4/19/2023 8:30:00 AM 7.04 44.672 0.032 6.76 0.93 11.83
4/19/2023 8:45:00 AM 7.05 44.69 0.032 6.76 0.89 11.84
4/19/2023 9:00:00 AM 7.07 44.726 0.032 6.76 0.94 11.85
4/19/2023 9:15:00 AM 7.1 44.78 0.032 6.77 0.93 11.87
4/19/2023 9:30:00 AM 7.14 44.852 0.032 6.77 0.9 11.88
4/19/2023 9:45:00 AM 7.19 44.942 0.032 6.78 0.95 11.88
4/19/2023 10:00:00 AM 7.24 45.032 0.032 6.79 0.92 11.88
4/19/2023 10:15:00 AM 7.33 45.194 0.032 6.79 0.88 11.87
4/19/2023 10:30:00 AM 7.44 45.392 0.032 6.79 0.93 11.86
4/19/2023 10:45:00 AM 7.58 45.644 0.032 6.8 0.92 11.83
4/19/2023 11:00:00 AM 7.71 45.878 0.032 6.8 0.94 11.8
4/19/2023 11:15:00 AM 7.87 46.166 0.032 6.8 0.9 11.76
4/19/2023 11:30:00 AM 8.05 46.49 0.032 6.81 0.87 11.72
4/19/2023 11:45:00 AM 8.23 46.814 0.031 6.81 0.89 11.68
4/19/2023 12:00:00 PM 8.51 47.318 0.031 6.81 0.88 11.62
4/19/2023 12:15:00 PM 8.8 47.84 0.031 6.82 0.87 11.56
4/19/2023 12:30:00 PM 9.08 48.344 0.031 6.82 0.84 11.49
4/19/2023 12:45:00 PM 9.36 48.848 0.031 6.82 0.89 11.42
4/19/2023 1:00:00 PM 9.64 49.352 0.031 6.82 0.87 11.35
4/19/2023 1:15:00 PM 9.88 49.784 0.031 6.81 0.87 11.29
4/19/2023 1:30:00 PM 10.08 50.144 0.031 6.82 0.84 11.23
4/19/2023 1:45:00 PM 10.25 50.45 0.031 6.83 0.82 11.18
4/19/2023 2:00:00 PM 10.45 50.81 0.031 6.82 0.84 11.12
4/19/2023 2:15:00 PM 10.66 51.188 0.031 6.84 0.86 11.07
4/19/2023 2:30:00 PM 10.82 51.476 0.031 6.82 0.88 11.01
4/19/2023 2:45:00 PM 10.98 51.764 0.031 6.84 0.84 10.96
4/19/2023 3:00:00 PM 11.07 51.926 0.031 6.83 0.88 10.91
4/19/2023 3:15:00 PM 11.13 52.034 0.031 6.81 0.86 10.87
4/19/2023 3:30:00 PM 11.16 52.088 0.031 6.83 0.94 10.85
4/19/2023 3:45:00 PM 11.15 52.07 0.031 6.83 0.91 10.83
4/19/2023 4:00:00 PM 11.14 52.052 0.031 6.83 0.9 10.83
4/19/2023 4:15:00 PM 11.09 51.962 0.031 6.83 0.86 10.82
4/19/2023 4:30:00 PM 11.03 51.854 0.031 6.81 0.89 10.81
4/19/2023 4:45:00 PM 10.94 51.692 0.032 6.82 0.86 10.81
4/19/2023 5:00:00 PM 10.86 51.548 0.032 6.8 0.9 10.82
4/19/2023 5:15:00 PM 10.78 51.404 0.032 6.82 0.88 10.83
4/19/2023 5:30:00 PM 10.68 51.224 0.032 6.78 0.87 10.83
4/19/2023 5:45:00 PM 10.58 51.044 0.032 6.8 0.88 10.84
4/19/2023 6:00:00 PM 10.49 50.882 0.032 6.8 0.93 10.85
4/19/2023 6:15:00 PM 10.38 50.684 0.032 6.78 0.9 10.86
4/19/2023 6:30:00 PM 10.29 50.522 0.032 6.77 0.89 10.87
4/19/2023 6:45:00 PM 10.2 50.36 0.032 6.76 0.92 10.88
4/19/2023 7:00:00 PM 10.13 50.234 0.032 6.77 0.93 10.88
4/19/2023 7:15:00 PM 10.05 50.09 0.032 6.76 0.9 10.89
4/19/2023 7:30:00 PM 9.98 49.964 0.032 6.76 1.04 10.9
4/19/2023 7:45:00 PM 9.91 49.838 0.032 6.74 0.95 10.9
4/19/2023 8:00:00 PM 9.84 49.712 0.032 6.74 0.92 10.89
4/19/2023 8:15:00 PM 9.78 49.604 0.032 6.72 0.96 10.9
4/19/2023 8:30:00 PM 9.71 49.478 0.032 6.73 0.95 10.9
4/19/2023 8:45:00 PM 9.63 49.334 0.032 6.7 1.03 10.92
4/19/2023 9:00:00 PM 9.55 49.19 0.032 6.73 0.97 10.94
4/19/2023 9:15:00 PM 9.48 49.064 0.032 6.72 0.99 10.96
4/19/2023 9:30:00 PM 9.4 48.92 0.032 6.72 0.97 10.98
4/19/2023 9:45:00 PM 9.33 48.794 0.032 6.73 0.99 11
4/19/2023 10:00:00 PM 9.26 48.668 0.033 6.71 1 11.02
4/19/2023 10:15:00 PM 9.19 48.542 0.033 6.72 1 11.04
4/19/2023 10:30:00 PM 9.13 48.434 0.033 6.7 1.03 11.05
4/19/2023 10:45:00 PM 9.07 48.326 0.033 6.72 1 11.08
4/19/2023 11:00:00 PM 9 48.2 0.033 6.71 1.03 11.09
4/19/2023 11:15:00 PM 8.94 48.092 0.033 6.71 0.96 11.11
4/19/2023 11:30:00 PM 8.87 47.966 0.033 6.71 1.02 11.13
4/19/2023 11:45:00 PM 8.82 47.876 0.033 6.7 1.02 11.15
4/20/2023 12:00:00 AM 8.77 47.786 0.032 6.72 1 11.17
4/20/2023 12:15:00 AM 8.73 47.714 0.032 6.71 1.01 11.18
4/20/2023 12:30:00 AM 8.7 47.66 0.032 6.71 1.03 11.19
4/20/2023 12:45:00 AM 8.66 47.588 0.032 6.7 1 11.21
4/20/2023 1:00:00 AM 8.63 47.534 0.032 6.7 0.95 11.22
4/20/2023 1:15:00 AM 8.6 47.48 0.032 6.71 0.94 11.23
4/20/2023 1:30:00 AM 8.57 47.426 0.032 6.71 0.99 11.24
4/20/2023 1:45:00 AM 8.54 47.372 0.032 6.71 1.01 11.25
4/20/2023 2:00:00 AM 8.51 47.318 0.032 6.71 1.05 11.25
4/20/2023 2:15:00 AM 8.49 47.282 0.032 6.71 1.01 11.26
4/20/2023 2:30:00 AM 8.46 47.228 0.032 6.7 0.98 11.27
4/20/2023 2:45:00 AM 8.44 47.192 0.032 6.71 1 11.27
4/20/2023 3:00:00 AM 8.42 47.156 0.032 6.7 0.96 11.28
4/20/2023 3:15:00 AM 8.39 47.102 0.032 6.68 0.99 11.29
4/20/2023 3:30:00 AM 8.38 47.084 0.032 6.71 1.01 11.29
4/20/2023 3:45:00 AM 8.36 47.048 0.032 6.7 1 11.3
4/20/2023 4:00:00 AM 8.34 47.012 0.032 6.7 0.99 11.3
4/20/2023 4:15:00 AM 8.32 46.976 0.032 6.69 1 11.31
4/20/2023 4:30:00 AM 8.3 46.94 0.032 6.7 0.93 11.31
4/20/2023 4:45:00 AM 8.28 46.904 0.032 6.7 1 11.32
4/20/2023 5:00:00 AM 8.26 46.868 0.032 6.7 0.97 11.33
4/20/2023 5:15:00 AM 8.24 46.832 0.032 6.69 1.01 11.33
4/20/2023 5:30:00 AM 8.22 46.796 0.032 6.7 0.92 11.34
4/20/2023 5:45:00 AM 8.2 46.76 0.032 6.69 1.03 11.35
4/20/2023 6:00:00 AM 8.19 46.742 0.032 6.7 0.98 11.35
4/20/2023 6:15:00 AM 8.18 46.724 0.032 6.7 0.9 11.36
4/20/2023 6:30:00 AM 8.17 46.706 0.032 6.7 0.9 11.36
4/20/2023 6:45:00 AM 8.16 46.688 0.032 6.68 1.06 11.37
4/20/2023 7:00:00 AM 8.16 46.688 0.032 6.7 1.01 11.38
4/20/2023 7:15:00 AM 8.16 46.688 0.032 6.71 0.93 11.41
4/20/2023 7:30:00 AM 8.16 46.688 0.032 6.71 0.94 11.44
4/20/2023 7:45:00 AM 8.16 46.688 0.032 6.72 0.96 11.47
4/20/2023 8:00:00 AM 8.18 46.724 0.032 6.74 0.92 11.51
4/20/2023 8:15:00 AM 8.21 46.778 0.032 6.76 0.93 11.54
4/20/2023 8:30:00 AM 8.23 46.814 0.032 6.75 0.89 11.54
4/20/2023 8:45:00 AM 8.25 46.85 0.032 6.77 0.89 11.54
4/20/2023 9:00:00 AM 8.27 46.886 0.032 6.76 0.9 11.54
4/20/2023 9:15:00 AM 8.32 46.976 0.032 6.78 0.92 11.57
4/20/2023 9:30:00 AM 8.37 47.066 0.032 6.79 0.92 11.59
4/20/2023 9:45:00 AM 8.43 47.174 0.032 6.8 0.93 11.59
4/20/2023 10:00:00 AM 8.51 47.318 0.032 6.8 0.86 11.59
4/20/2023 10:15:00 AM 8.6 47.48 0.032 6.8 0.93 11.58
4/20/2023 10:30:00 AM 8.73 47.714 0.032 6.81 0.93 11.56
4/20/2023 10:45:00 AM 8.89 48.002 0.032 6.81 0.91 11.54
4/20/2023 11:00:00 AM 8.99 48.182 0.032 6.82 0.9 11.51
4/20/2023 11:15:00 AM 9.14 48.452 0.032 6.81 0.85 11.48
4/20/2023 11:30:00 AM 9.34 48.812 0.031 6.83 0.85 11.44
4/20/2023 11:45:00 AM 9.56 49.208 0.031 6.81 0.85 11.38
4/20/2023 12:00:00 PM 9.8 49.64 0.031 6.83 0.86 11.33
4/20/2023 12:15:00 PM 10.05 50.09 0.031 6.83 0.87 11.27
4/20/2023 12:30:00 PM 10.32 50.576 0.031 6.84 0.85 11.22
4/20/2023 12:45:00 PM 10.59 51.062 0.031 6.84 0.84 11.15
4/20/2023 1:00:00 PM 10.86 51.548 0.031 6.84 0.89 11.09
4/20/2023 1:15:00 PM 11.12 52.016 0.031 6.83 0.87 11.02
4/20/2023 1:30:00 PM 11.38 52.484 0.031 6.85 0.85 10.96
4/20/2023 1:45:00 PM 11.64 52.952 0.031 6.83 0.83 10.89
4/20/2023 2:00:00 PM 11.88 53.384 0.031 6.85 0.9 10.82
4/20/2023 2:15:00 PM 12.09 53.762 0.031 6.85 0.84 10.75
4/20/2023 2:30:00 PM 12.28 54.104 0.031 6.85 0.85 10.69
4/20/2023 2:45:00 PM 12.43 54.374 0.031 6.85 0.88 10.64
4/20/2023 3:00:00 PM 12.53 54.554 0.031 6.86 0.88 10.6
4/20/2023 3:15:00 PM 12.6 54.68 0.031 6.84 0.87 10.57
4/20/2023 3:30:00 PM 12.63 54.734 0.031 6.86 0.84 10.54
4/20/2023 3:45:00 PM 12.62 54.716 0.031 6.84 0.88 10.54
4/20/2023 4:00:00 PM 12.57 54.626 0.032 6.86 0.81 10.53
4/20/2023 4:15:00 PM 12.53 54.554 0.032 6.83 0.82 10.52
4/20/2023 4:30:00 PM 12.48 54.464 0.032 6.84 0.87 10.51
4/20/2023 4:45:00 PM 12.37 54.266 0.032 6.84 0.85 10.5
4/20/2023 5:00:00 PM 12.28 54.104 0.032 6.82 0.87 10.5
4/20/2023 5:15:00 PM 12.17 53.906 0.032 6.83 0.92 10.51
4/20/2023 5:30:00 PM 12.08 53.744 0.032 6.81 0.89 10.5
4/20/2023 5:45:00 PM 11.99 53.582 0.032 6.79 0.84 10.53
4/20/2023 6:00:00 PM 11.89 53.402 0.032 6.8 0.87 10.55
4/20/2023 6:15:00 PM 11.8 53.24 0.032 6.81 0.92 10.56
4/20/2023 6:30:00 PM 11.71 53.078 0.032 6.78 0.88 10.57
4/20/2023 6:45:00 PM 11.62 52.916 0.032 6.8 0.87 10.58
4/20/2023 7:00:00 PM 11.54 52.772 0.032 6.78 0.85 10.59
4/20/2023 7:15:00 PM 11.45 52.61 0.032 6.77 0.89 10.58
4/20/2023 7:30:00 PM 11.35 52.43 0.032 6.75 0.86 10.56
4/20/2023 7:45:00 PM 11.26 52.268 0.032 6.75 0.88 10.56
4/20/2023 8:00:00 PM 11.17 52.106 0.032 6.73 0.89 10.55
4/20/2023 8:15:00 PM 11.09 51.962 0.032 6.72 0.9 10.55
4/20/2023 8:30:00 PM 11.02 51.836 0.033 6.73 0.94 10.56
4/20/2023 8:45:00 PM 10.94 51.692 0.033 6.72 0.94 10.57
4/20/2023 9:00:00 PM 10.87 51.566 0.033 6.7 1.03 10.59
4/20/2023 9:15:00 PM 10.8 51.44 0.033 6.72 0.96 10.6
4/20/2023 9:30:00 PM 10.73 51.314 0.033 6.69 0.93 10.61
4/20/2023 9:45:00 PM 10.67 51.206 0.033 6.71 0.99 10.63
4/20/2023 10:00:00 PM 10.61 51.098 0.033 6.7 1.05 10.64
4/20/2023 10:15:00 PM 10.56 51.008 0.033 6.71 1.02 10.65
4/20/2023 10:30:00 PM 10.51 50.918 0.033 6.69 0.98 10.66
4/20/2023 10:45:00 PM 10.46 50.828 0.033 6.71 0.99 10.68
4/20/2023 11:00:00 PM 10.41 50.738 0.033 6.72 1.06 10.68
4/20/2023 11:15:00 PM 10.37 50.666 0.033 6.71 1.05 10.7
4/20/2023 11:30:00 PM 10.32 50.576 0.033 6.71 1.01 10.71
4/20/2023 11:45:00 PM 10.27 50.486 0.033 6.72 0.99 10.72
4/21/2023 12:00:00 AM 10.23 50.414 0.033 6.7 1.03 10.73
4/21/2023 12:15:00 AM 10.19 50.342 0.033 6.72 1.03 10.74
4/21/2023 12:30:00 AM 10.14 50.252 0.033 6.71 0.98 10.75
4/21/2023 12:45:00 AM 10.1 50.18 0.033 6.69 0.99 10.76
4/21/2023 1:00:00 AM 10.06 50.108 0.033 6.71 1 10.77
4/21/2023 1:15:00 AM 10.01 50.018 0.033 6.71 0.96 10.78
4/21/2023 1:30:00 AM 9.98 49.964 0.033 6.7 0.98 10.79
4/21/2023 1:45:00 AM 9.94 49.892 0.033 6.71 1.01 10.8
4/21/2023 2:00:00 AM 9.9 49.82 0.033 6.69 0.98 10.81
4/21/2023 2:15:00 AM 9.87 49.766 0.033 6.7 0.99 10.82
4/21/2023 2:30:00 AM 9.83 49.694 0.033 6.7 1.06 10.83
4/21/2023 2:45:00 AM 9.79 49.622 0.033 6.7 1 10.84
4/21/2023 3:00:00 AM 9.76 49.568 0.033 6.71 0.97 10.85
4/21/2023 3:15:00 AM 9.72 49.496 0.033 6.71 0.92 10.85
4/21/2023 3:30:00 AM 9.68 49.424 0.033 6.68 1 10.87
4/21/2023 3:45:00 AM 9.64 49.352 0.033 6.7 1.01 10.87
4/21/2023 4:00:00 AM 9.6 49.28 0.033 6.68 1.08 10.88
4/21/2023 4:15:00 AM 9.57 49.226 0.033 6.7 0.96 10.9
4/21/2023 4:30:00 AM 9.53 49.154 0.033 6.69 0.95 10.9
4/21/2023 4:45:00 AM 9.5 49.1 0.033 6.69 0.99 10.91
4/21/2023 5:00:00 AM 9.47 49.046 0.033 6.7 1.01 10.92
4/21/2023 5:15:00 AM 9.44 48.992 0.033 6.68 1.06 10.93
4/21/2023 5:30:00 AM 9.41 48.938 0.033 6.68 0.97 10.94
4/21/2023 5:45:00 AM 9.39 48.902 0.033 6.69 1.04 10.94
4/21/2023 6:00:00 AM 9.36 48.848 0.033 6.7 0.99 10.96
4/21/2023 6:15:00 AM 9.32 48.776 0.033 6.69 0.95 10.96
4/21/2023 6:30:00 AM 9.29 48.722 0.033 6.69 0.98 10.98
4/21/2023 6:45:00 AM 9.27 48.686 0.033 6.69 0.98 11
4/21/2023 7:00:00 AM 9.24 48.632 0.033 6.71 0.92 11.03
4/21/2023 7:15:00 AM 9.22 48.596 0.033 6.71 0.88 11.05
4/21/2023 7:30:00 AM 9.21 48.578 0.033 6.7 0.98 11.08
4/21/2023 7:45:00 AM 9.19 48.542 0.032 6.72 0.88 11.1
4/21/2023 8:00:00 AM 9.19 48.542 0.032 6.71 1 11.12
4/21/2023 8:15:00 AM 9.19 48.542 0.032 6.73 0.88 11.15
4/21/2023 8:30:00 AM 9.22 48.596 0.032 6.73 0.88 11.17
4/21/2023 8:45:00 AM 9.27 48.686 0.032 6.75 0.9 11.19
4/21/2023 9:00:00 AM 9.34 48.812 0.032 6.74 0.89 11.2
4/21/2023 9:15:00 AM 9.42 48.956 0.032 6.76 0.9 11.2
4/21/2023 9:30:00 AM 9.52 49.136 0.032 6.76 0.92 11.19
4/21/2023 9:45:00 AM 9.65 49.37 0.032 6.78 0.91 11.18
4/21/2023 10:00:00 AM 9.8 49.64 0.032 6.8 0.84 11.17
4/21/2023 10:15:00 AM 9.96 49.928 0.032 6.81 0.91 11.14
4/21/2023 10:30:00 AM 10.13 50.234 0.032 6.82 0.92 11.11
4/21/2023 10:45:00 AM 10.32 50.576 0.032 6.82 0.88 11.07
4/21/2023 11:00:00 AM 10.52 50.936 0.032 6.82 0.83 11.03
4/21/2023 11:15:00 AM 10.75 51.35 0.032 6.83 0.88 10.99
4/21/2023 11:30:00 AM 10.99 51.782 0.032 6.84 0.85 10.94
4/21/2023 11:45:00 AM 11.26 52.268 0.032 6.84 0.91 10.88
4/21/2023 12:00:00 PM 11.55 52.79 0.032 6.84 0.84 10.82
4/21/2023 12:15:00 PM 11.86 53.348 0.032 6.85 0.88 10.76
4/21/2023 12:30:00 PM 12.17 53.906 0.032 6.84 0.88 10.7
4/21/2023 12:45:00 PM 12.48 54.464 0.032 6.84 0.93 10.64
4/21/2023 1:00:00 PM 12.8 55.04 0.031 6.84 0.84 10.57
4/21/2023 1:15:00 PM 13.09 55.562 0.031 6.84 0.83 10.5
4/21/2023 1:30:00 PM 13.38 56.084 0.031 6.85 0.83 10.43
4/21/2023 1:45:00 PM 13.66 56.588 0.031 6.86 0.8 10.37
4/21/2023 2:00:00 PM 13.9 57.02 0.031 6.86 0.8 10.3
4/21/2023 2:15:00 PM 14.12 57.416 0.031 6.87 0.87 10.24
4/21/2023 2:30:00 PM 14.3 57.74 0.031 6.87 0.88 10.18
4/21/2023 2:45:00 PM 14.45 58.01 0.031 6.87 0.85 10.14
4/21/2023 3:00:00 PM 14.54 58.172 0.032 6.87 0.84 10.09
4/21/2023 3:15:00 PM 14.6 58.28 0.032 6.86 0.87 10.07
4/21/2023 3:30:00 PM 14.63 58.334 0.032 6.87 0.8 10.04
4/21/2023 3:45:00 PM 14.64 58.352 0.032 6.86 1.05 10.03
4/21/2023 4:00:00 PM 14.62 58.316 0.032 6.86 0.86 10.01
4/21/2023 4:15:00 PM 14.54 58.172 0.032 6.86 0.81 9.99
4/21/2023 4:30:00 PM 14.48 58.064 0.032 6.85 0.83 9.99
4/21/2023 4:45:00 PM 14.39 57.902 0.032 6.85 0.88 9.98
4/21/2023 5:00:00 PM 14.27 57.686 0.032 6.83 0.84 9.95
4/21/2023 5:15:00 PM 14.15 57.47 0.032 6.83 0.88 9.96
4/21/2023 5:30:00 PM 14.03 57.254 0.032 6.8 0.85 9.97
4/21/2023 5:45:00 PM 13.93 57.074 0.032 6.83 0.84 9.99
4/21/2023 6:00:00 PM 13.8 56.84 0.032 6.8 0.86 10
4/21/2023 6:15:00 PM 13.69 56.642 0.032 6.8 0.89 9.99
4/21/2023 6:30:00 PM 13.59 56.462 0.032 6.79 0.89 9.97
4/21/2023 6:45:00 PM 13.49 56.282 0.032 6.79 0.83 9.97
4/21/2023 7:00:00 PM 13.41 56.138 0.032 6.79 0.87 9.99
4/21/2023 7:15:00 PM 13.32 55.976 0.032 6.78 0.84 10
4/21/2023 7:30:00 PM 13.24 55.832 0.033 6.78 0.91 10
4/21/2023 7:45:00 PM 13.16 55.688 0.033 6.77 0.9 10
4/21/2023 8:00:00 PM 13.08 55.544 0.033 6.77 0.91 10
4/21/2023 8:15:00 PM 13.01 55.418 0.033 6.76 0.89 10
4/21/2023 8:30:00 PM 12.94 55.292 0.033 6.75 0.89 10.01
4/21/2023 8:45:00 PM 12.88 55.184 0.033 6.74 0.93 10.02
4/21/2023 9:00:00 PM 12.83 55.094 0.033 6.74 0.93 10.03
4/21/2023 9:15:00 PM 12.78 55.004 0.033 6.74 0.97 10.04
4/21/2023 9:30:00 PM 12.73 54.914 0.033 6.74 0.96 10.05
4/21/2023 9:45:00 PM 12.69 54.842 0.033 6.72 1.03 10.05
4/21/2023 10:00:00 PM 12.64 54.752 0.033 6.72 1.04 10.06
4/21/2023 10:15:00 PM 12.6 54.68 0.033 6.72 1.01 10.07
4/21/2023 10:30:00 PM 12.56 54.608 0.033 6.72 0.96 10.08
4/21/2023 10:45:00 PM 12.52 54.536 0.033 6.71 1.06 10.08
4/21/2023 11:00:00 PM 12.48 54.464 0.033 6.7 1.01 10.09
4/21/2023 11:15:00 PM 12.45 54.41 0.033 6.68 1 10.1
4/21/2023 11:30:00 PM 12.42 54.356 0.033 6.69 1 10.1
4/21/2023 11:45:00 PM 12.39 54.302 0.033 6.7 1.04 10.11
4/22/2023 12:00:00 AM 12.38 54.284 0.033 6.7 1.08 10.11
4/22/2023 12:15:00 AM 12.36 54.248 0.033 6.71 0.95 10.11
4/22/2023 12:30:00 AM 12.34 54.212 0.033 6.72 1.03 10.12
4/22/2023 12:45:00 AM 12.31 54.158 0.033 6.72 1.04 10.13
4/22/2023 1:00:00 AM 12.28 54.104 0.033 6.72 1 10.13
4/22/2023 1:15:00 AM 12.25 54.05 0.033 6.71 1.01 10.14
4/22/2023 1:30:00 AM 12.2 53.96 0.033 6.72 1 10.15
4/22/2023 1:45:00 AM 12.18 53.924 0.033 6.72 1.01 10.15
4/22/2023 2:00:00 AM 12.15 53.87 0.033 6.71 0.98 10.16
4/22/2023 2:15:00 AM 12.12 53.816 0.033 6.74 1 10.16
4/22/2023 2:30:00 AM 12.1 53.78 0.033 6.73 1.2 10.17
4/22/2023 2:45:00 AM 12.07 53.726 0.033 6.72 1.11 10.17
4/22/2023 3:00:00 AM 12.05 53.69 0.033 6.71 0.97 10.18
4/22/2023 3:15:00 AM 12.03 53.654 0.033 6.73 1.08 10.18
4/22/2023 3:30:00 AM 12.01 53.618 0.033 6.71 0.97 10.19
4/22/2023 3:45:00 AM 11.98 53.564 0.033 6.73 0.98 10.19
4/22/2023 4:00:00 AM 11.95 53.51 0.033 6.7 1 10.2
4/22/2023 4:15:00 AM 11.91 53.438 0.033 6.72 1.06 10.2
4/22/2023 4:30:00 AM 11.88 53.384 0.033 6.7 1.05 10.21
4/22/2023 4:45:00 AM 11.85 53.33 0.033 6.72 1 10.22
4/22/2023 5:00:00 AM 11.81 53.258 0.033 6.7 0.97 10.23
4/22/2023 5:15:00 AM 11.77 53.186 0.033 6.7 1.03 10.24
4/22/2023 5:30:00 AM 11.72 53.096 0.033 6.71 1.05 10.25
4/22/2023 5:45:00 AM 11.68 53.024 0.033 6.71 1.11 10.26
4/22/2023 6:00:00 AM 11.65 52.97 0.033 6.72 0.94 10.27
4/22/2023 6:15:00 AM 11.62 52.916 0.033 6.72 0.94 10.28
4/22/2023 6:30:00 AM 11.58 52.844 0.033 6.72 0.93 10.3
4/22/2023 6:45:00 AM 11.56 52.808 0.033 6.73 0.97 10.31
4/22/2023 7:00:00 AM 11.53 52.754 0.033 6.73 0.98 10.35
4/22/2023 7:15:00 AM 11.51 52.718 0.033 6.76 0.91 10.39
4/22/2023 7:30:00 AM 11.5 52.7 0.033 6.75 1.04 10.43
4/22/2023 7:45:00 AM 11.49 52.682 0.033 6.78 0.92 10.47
4/22/2023 8:00:00 AM 11.48 52.664 0.033 6.77 0.94 10.49
4/22/2023 8:15:00 AM 11.48 52.664 0.033 6.79 0.93 10.5
4/22/2023 8:30:00 AM 11.49 52.682 0.032 6.8 0.92 10.53
4/22/2023 8:45:00 AM 11.49 52.682 0.032 6.8 0.9 10.53
4/22/2023 9:00:00 AM 11.52 52.736 0.032 6.78 0.92 10.56
4/22/2023 9:15:00 AM 11.56 52.808 0.032 6.81 0.87 10.58
4/22/2023 9:30:00 AM 11.6 52.88 0.032 6.81 0.88 10.59
4/22/2023 9:45:00 AM 11.64 52.952 0.032 6.83 0.93 10.6
4/22/2023 10:00:00 AM 11.7 53.06 0.032 6.83 1.01 10.61
4/22/2023 10:15:00 AM 11.75 53.15 0.032 6.84 0.9 10.6
4/22/2023 10:30:00 AM 11.83 53.294 0.032 6.84 0.93 10.6
4/22/2023 10:45:00 AM 11.89 53.402 0.032 6.85 0.89 10.59
4/22/2023 11:00:00 AM 11.99 53.582 0.032 6.85 0.95 10.58
4/22/2023 11:15:00 AM 12.06 53.708 0.032 6.84 0.9 10.57
4/22/2023 11:30:00 AM 12.15 53.87 0.032 6.85 0.87 10.55
4/22/2023 11:45:00 AM 12.15 53.87 0.032 6.85 0.86 10.5
4/22/2023 12:00:00 PM 12.2 53.96 0.032 6.84 0.92 10.48
4/22/2023 12:15:00 PM 12.27 54.086 0.032 6.84 0.95 10.49
4/22/2023 12:30:00 PM 12.32 54.176 0.032 6.85 0.91 10.46
4/22/2023 12:45:00 PM 12.36 54.248 0.032 6.84 0.84 10.44
4/22/2023 1:00:00 PM 12.46 54.428 0.032 6.85 0.87 10.46
4/22/2023 1:15:00 PM 12.7 54.86 0.032 6.87 0.95 10.46
4/22/2023 1:30:00 PM 12.75 54.95 0.032 6.87 0.84 10.42
4/22/2023 1:45:00 PM 12.79 55.022 0.032 6.87 0.86 10.38
4/22/2023 2:00:00 PM 12.77 54.986 0.032 6.85 0.84 10.31
4/22/2023 2:15:00 PM 12.73 54.914 0.032 6.83 1.36 10.21
4/22/2023 2:30:00 PM 12.69 54.842 0.032 6.82 0.98 10.23
4/22/2023 2:45:00 PM 12.62 54.716 0.032 6.79 1.01 10.19
4/22/2023 3:00:00 PM 12.54 54.572 0.032 6.79 0.97 10.17
4/22/2023 3:15:00 PM 12.47 54.446 0.032 6.79 1.03 10.16
4/22/2023 3:30:00 PM 12.42 54.356 0.032 6.77 1.38 10.16
4/22/2023 3:45:00 PM 12.35 54.23 0.032 6.76 1.35 10.16
4/22/2023 4:00:00 PM 12.29 54.122 0.032 6.76 1.29 10.17
4/22/2023 4:15:00 PM 12.23 54.014 0.032 6.75 1.29 10.18
4/22/2023 4:30:00 PM 12.16 53.888 0.032 6.75 1.35 10.19
4/22/2023 4:45:00 PM 12.09 53.762 0.032 6.74 1.49 10.21
4/22/2023 5:00:00 PM 12.02 53.636 0.032 6.74 1.45 10.22
4/22/2023 5:15:00 PM 11.96 53.528 0.032 6.75 1.65 10.23
4/22/2023 5:30:00 PM 11.89 53.402 0.032 6.73 1.85 10.24
4/22/2023 5:45:00 PM 11.81 53.258 0.032 6.74 2.51 10.25
4/22/2023 6:00:00 PM 11.75 53.15 0.033 6.76 3.55 10.29
4/22/2023 6:15:00 PM 11.71 53.078 0.033 6.77 4.97 10.3
4/22/2023 6:30:00 PM 11.68 53.024 0.033 6.76 5.63 10.29
4/22/2023 6:45:00 PM 11.65 52.97 0.033 6.79 5.81 10.3
4/22/2023 7:00:00 PM 11.61 52.898 0.033 6.78 5.67 10.31
4/22/2023 7:15:00 PM 11.58 52.844 0.033 6.78 5.69 10.33
4/22/2023 7:30:00 PM 11.55 52.79 0.033 6.76 5.04 10.34
4/22/2023 7:45:00 PM 11.54 52.772 0.033 6.76 5.04 10.34
4/22/2023 8:00:00 PM 11.54 52.772 0.033 6.77 5.31 10.35
4/22/2023 8:15:00 PM 11.55 52.79 0.033 6.78 5.68 10.35
4/22/2023 8:30:00 PM 11.55 52.79 0.033 6.77 5.5 10.35
4/22/2023 8:45:00 PM 11.55 52.79 0.033 6.77 5.19 10.36
4/22/2023 9:00:00 PM 11.55 52.79 0.033 6.76 4.53 10.37
4/22/2023 9:15:00 PM 11.53 52.754 0.033 6.77 4.66 10.37
4/22/2023 9:30:00 PM 11.51 52.718 0.033 6.78 4 10.38
4/22/2023 9:45:00 PM 11.48 52.664 0.033 6.77 3.38 10.39
4/22/2023 10:00:00 PM 11.45 52.61 0.033 6.76 3.32 10.4
4/22/2023 10:15:00 PM 11.41 52.538 0.033 6.77 2.8 10.41
4/22/2023 10:30:00 PM 11.36 52.448 0.032 6.76 2.8 10.42
4/22/2023 10:45:00 PM 11.31 52.358 0.033 6.75 12980.38 10.43
4/22/2023 11:00:00 PM 11.26 52.268 0.032 6.76 2.47 10.44
4/22/2023 11:15:00 PM 11.2 52.16 0.032 6.76 2.32 10.45
4/22/2023 11:30:00 PM 11.15 52.07 0.032 6.76 2.13 10.46
4/22/2023 11:45:00 PM 11.1 51.98 0.032 6.76 2.09 10.47
4/23/2023 12:00:00 AM 11.04 51.872 0.032 6.75 2.07 10.49
4/23/2023 12:15:00 AM 10.98 51.764 0.032 6.75 2.03 10.5
4/23/2023 12:30:00 AM 10.93 51.674 0.032 6.75 2.01 10.52
4/23/2023 12:45:00 AM 10.88 51.584 0.032 6.75 1.99 10.53
4/23/2023 1:00:00 AM 10.82 51.476 0.032 6.75 1.92 10.54
4/23/2023 1:15:00 AM 10.76 51.368 0.032 6.75 2.01 10.56
4/23/2023 1:30:00 AM 10.68 51.224 0.032 6.75 1.89 10.57
4/23/2023 1:45:00 AM 10.62 51.116 0.032 6.75 1.89 10.59
4/23/2023 2:00:00 AM 10.55 50.99 0.032 6.74 1.8 10.61
4/23/2023 2:15:00 AM 10.48 50.864 0.032 6.76 1.83 10.62
4/23/2023 2:30:00 AM 10.43 50.774 0.032 6.75 1.82 10.63
4/23/2023 2:45:00 AM 10.37 50.666 0.032 6.75 1.75 10.65
4/23/2023 3:00:00 AM 10.3 50.54 0.032 6.74 1.66 10.66
4/23/2023 3:15:00 AM 10.23 50.414 0.032 6.75 1.63 10.67
4/23/2023 3:30:00 AM 10.16 50.288 0.032 6.75 1.65 10.69
4/23/2023 3:45:00 AM 10.09 50.162 0.032 6.74 1.61 10.71
4/23/2023 4:00:00 AM 10.03 50.054 0.032 6.75 1.67 10.72
4/23/2023 4:15:00 AM 9.97 49.946 0.032 6.74 2.37 10.74
4/23/2023 4:30:00 AM 9.91 49.838 0.032 6.75 1.75 10.76
4/23/2023 4:45:00 AM 9.85 49.73 0.032 6.72 1.61 10.77
4/23/2023 5:00:00 AM 9.79 49.622 0.032 6.75 1.5 10.79
4/23/2023 5:15:00 AM 9.73 49.514 0.032 6.73 1.47 10.8
4/23/2023 5:30:00 AM 9.67 49.406 0.032 6.74 1.43 10.82
4/23/2023 5:45:00 AM 9.6 49.28 0.032 6.73 1.42 10.84
4/23/2023 6:00:00 AM 9.55 49.19 0.032 6.73 1.51 10.86
4/23/2023 6:15:00 AM 9.49 49.082 0.032 6.73 1.42 10.87
4/23/2023 6:30:00 AM 9.44 48.992 0.032 6.73 1.45 10.9
4/23/2023 6:45:00 AM 9.38 48.884 0.032 6.73 1.36 10.92
4/23/2023 7:00:00 AM 9.33 48.794 0.032 6.73 1.33 10.96
4/23/2023 7:15:00 AM 9.28 48.704 0.032 6.74 1.33 10.99
4/23/2023 7:30:00 AM 9.23 48.614 0.032 6.74 1.35 11.01
4/23/2023 7:45:00 AM 9.19 48.542 0.032 6.76 1.3 11.04
4/23/2023 8:00:00 AM 9.15 48.47 0.032 6.74 1.31 11.06
4/23/2023 8:15:00 AM 9.13 48.434 0.032 6.76 1.28 11.09
4/23/2023 8:30:00 AM 9.13 48.434 0.032 6.76 1.26 11.12
4/23/2023 8:45:00 AM 9.15 48.47 0.032 6.78 1.27 11.14
4/23/2023 9:00:00 AM 9.18 48.524 0.032 6.78 1.16 11.16
4/23/2023 9:15:00 AM 9.22 48.596 0.032 6.79 1.24 11.17
4/23/2023 9:30:00 AM 9.28 48.704 0.032 6.8 1.19 11.17
4/23/2023 9:45:00 AM 9.36 48.848 0.032 6.8 1.15 11.18
4/23/2023 10:00:00 AM 9.47 49.046 0.032 6.82 1.15 11.19
4/23/2023 10:15:00 AM 9.6 49.28 0.032 6.82 1.12 11.19
4/23/2023 10:30:00 AM 9.7 49.46 0.032 6.83 1.08 11.16
4/23/2023 10:45:00 AM 9.85 49.73 0.032 6.83 1.12 11.14
4/23/2023 11:00:00 AM 9.96 49.928 0.032 6.83 1.1 11.09
4/23/2023 11:15:00 AM 9.98 49.964 0.032 6.83 1.13 11.06
4/23/2023 11:30:00 AM 9.98 49.964 0.032 6.82 1.1 11.03
4/23/2023 11:45:00 AM 10 50 0.032 6.83 1.11 11.03
4/23/2023 12:00:00 PM 10.01 50.018 0.032 6.81 1.09 10.97
4/23/2023 12:15:00 PM 10.03 50.054 0.032 6.8 1.13 10.96
4/23/2023 12:30:00 PM 10.08 50.144 0.032 6.83 1.11 11
4/23/2023 12:45:00 PM 10.13 50.234 0.032 6.83 1.08 11.02
4/23/2023 1:00:00 PM 10.19 50.342 0.032 6.84 1.05 11.02
4/23/2023 1:15:00 PM 10.25 50.45 0.032 6.85 1.03 11.02
4/23/2023 1:30:00 PM 10.26 50.468 0.032 6.83 1.09 10.98
4/23/2023 1:45:00 PM 10.3 50.54 0.032 6.85 1.12 10.98
4/23/2023 2:00:00 PM 10.52 50.936 0.032 6.86 1.1 11
4/23/2023 2:15:00 PM 10.45 50.81 0.032 6.84 1.06 10.93
4/23/2023 2:30:00 PM 10.38 50.684 0.032 6.81 1.05 10.87
4/23/2023 2:45:00 PM 10.32 50.576 0.032 6.81 1.07 10.86
4/23/2023 3:00:00 PM 10.29 50.522 0.032 6.8 1.09 10.86
4/23/2023 3:15:00 PM 10.22 50.396 0.032 6.81 1.04 10.86
4/23/2023 3:30:00 PM 10.14 50.252 0.032 6.8 1.02 10.86
4/23/2023 3:45:00 PM 10.05 50.09 0.032 6.8 1.06 10.89
4/23/2023 4:00:00 PM 9.98 49.964 0.032 6.79 1.02 10.92
4/23/2023 4:15:00 PM 9.92 49.856 0.032 6.79 1.02 10.94
4/23/2023 4:30:00 PM 9.87 49.766 0.032 6.8 1.06 10.95
4/23/2023 4:45:00 PM 9.85 49.73 0.032 6.8 1.02 10.99
4/23/2023 5:00:00 PM 9.83 49.694 0.032 6.81 1.07 11.03
4/23/2023 5:15:00 PM 9.83 49.694 0.032 6.81 0.99 11.06
4/23/2023 5:30:00 PM 9.82 49.676 0.032 6.82 1.08 11.08
4/23/2023 5:45:00 PM 9.78 49.604 0.032 6.83 1.06 11.08
4/23/2023 6:00:00 PM 9.75 49.55 0.032 6.81 1.08 11.06
4/23/2023 6:15:00 PM 9.7 49.46 0.032 6.8 1.04 11.03
4/23/2023 6:30:00 PM 9.65 49.37 0.032 6.8 1.1 11.03
4/23/2023 6:45:00 PM 9.6 49.28 0.032 6.79 1 11.03
4/23/2023 7:00:00 PM 9.54 49.172 0.032 6.78 1.01 11.02
4/23/2023 7:15:00 PM 9.48 49.064 0.032 6.78 0.99 11.02
4/23/2023 7:30:00 PM 9.43 48.974 0.032 6.77 1.14 11.01
4/23/2023 7:45:00 PM 9.37 48.866 0.032 6.74 1.02 10.99
4/23/2023 8:00:00 PM 9.32 48.776 0.032 6.76 1.09 10.99
4/23/2023 8:15:00 PM 9.26 48.668 0.032 6.75 1.08 10.99
4/23/2023 8:30:00 PM 9.21 48.578 0.032 6.75 1.11 11
4/23/2023 8:45:00 PM 9.16 48.488 0.032 6.73 1.09 11.02
4/23/2023 9:00:00 PM 9.11 48.398 0.032 6.75 1.07 11.03
4/23/2023 9:15:00 PM 9.07 48.326 0.032 6.74 1.06 11.04
4/23/2023 9:30:00 PM 9.02 48.236 0.032 6.74 1.13 11.05
4/23/2023 9:45:00 PM 8.98 48.164 0.032 6.73 1.09 11.06
4/23/2023 10:00:00 PM 8.94 48.092 0.032 6.73 1.17 11.08
4/23/2023 10:15:00 PM 8.9 48.02 0.032 6.74 1.05 11.08
4/23/2023 10:30:00 PM 8.86 47.948 0.032 6.73 1.12 11.1
4/23/2023 10:45:00 PM 8.82 47.876 0.032 6.73 1.09 11.11
4/23/2023 11:00:00 PM 8.78 47.804 0.032 6.73 1.09 11.12
4/23/2023 11:15:00 PM 8.74 47.732 0.032 6.72 1.1 11.13
4/23/2023 11:30:00 PM 8.69 47.642 0.032 6.73 1.11 11.14
4/23/2023 11:45:00 PM 8.64 47.552 0.032 6.73 1.07 11.16
4/24/2023 12:00:00 AM 8.58 47.444 0.032 6.73 1.11 11.17
4/24/2023 12:15:00 AM 8.52 47.336 0.032 6.73 1.12 11.19
4/24/2023 12:30:00 AM 8.45 47.21 0.032 6.72 1.14 11.2
4/24/2023 12:45:00 AM 8.39 47.102 0.032 6.73 1.09 11.22
4/24/2023 1:00:00 AM 8.33 46.994 0.032 6.73 1.13 11.24
4/24/2023 1:15:00 AM 8.27 46.886 0.032 6.72 1.1 11.26
4/24/2023 1:30:00 AM 8.21 46.778 0.032 6.73 1.18 11.27
4/24/2023 1:45:00 AM 8.15 46.67 0.032 6.73 1.12 11.3
4/24/2023 2:00:00 AM 8.08 46.544 0.032 6.72 1.08 11.31
4/24/2023 2:15:00 AM 8.02 46.436 0.032 6.72 1.11 11.33
4/24/2023 2:30:00 AM 7.96 46.328 0.032 6.73 1.12 11.35
4/24/2023 2:45:00 AM 7.89 46.202 0.032 6.71 1.04 11.36
4/24/2023 3:00:00 AM 7.83 46.094 0.032 6.73 1.06 11.38
4/24/2023 3:15:00 AM 7.77 45.986 0.032 6.72 1.13 11.4
4/24/2023 3:30:00 AM 7.72 45.896 0.032 6.72 1.09 11.41
4/24/2023 3:45:00 AM 7.67 45.806 0.032 6.72 1.08 11.43
4/24/2023 4:00:00 AM 7.62 45.716 0.032 6.72 1.12 11.45
4/24/2023 4:15:00 AM 7.58 45.644 0.032 6.71 1.05 11.46
4/24/2023 4:30:00 AM 7.54 45.572 0.032 6.71 1.11 11.47
4/24/2023 4:45:00 AM 7.5 45.5 0.032 6.72 1.13 11.49
4/24/2023 5:00:00 AM 7.45 45.41 0.032 6.71 1.09 11.5
4/24/2023 5:15:00 AM 7.41 45.338 0.032 6.72 1.11 11.51
4/24/2023 5:30:00 AM 7.36 45.248 0.032 6.72 1.05 11.52
4/24/2023 5:45:00 AM 7.32 45.176 0.032 6.71 1.04 11.53
4/24/2023 6:00:00 AM 7.28 45.104 0.032 6.71 1.09 11.55
4/24/2023 6:15:00 AM 7.25 45.05 0.032 6.71 1.07 11.56
4/24/2023 6:30:00 AM 7.21 44.978 0.032 6.72 1.05 11.58
4/24/2023 6:45:00 AM 7.18 44.924 0.032 6.73 1.04 11.61
4/24/2023 7:00:00 AM 7.16 44.888 0.032 6.74 0.98 11.64
4/24/2023 7:15:00 AM 7.13 44.834 0.032 6.73 1.05 11.67
4/24/2023 7:30:00 AM 7.11 44.798 0.032 6.74 0.97 11.7
4/24/2023 7:45:00 AM 7.09 44.762 0.032 6.75 0.99 11.72
4/24/2023 8:00:00 AM 7.08 44.744 0.032 6.75 0.94 11.74
4/24/2023 8:15:00 AM 7.08 44.744 0.032 6.75 0.99 11.76
4/24/2023 8:30:00 AM 7.1 44.78 0.032 6.75 1.01 11.78
4/24/2023 8:45:00 AM 7.13 44.834 0.032 6.77 0.94 11.79
4/24/2023 9:00:00 AM 7.19 44.942 0.032 6.77 0.99 11.8
4/24/2023 9:15:00 AM 7.28 45.104 0.032 6.78 0.98 11.8
4/24/2023 9:30:00 AM 7.37 45.266 0.032 6.8 0.93 11.79
4/24/2023 9:45:00 AM 7.5 45.5 0.032 6.8 0.94 11.78
4/24/2023 10:00:00 AM 7.6 45.68 0.032 6.81 0.93 11.77
4/24/2023 10:15:00 AM 7.66 45.788 0.032 6.81 0.97 11.75
4/24/2023 10:30:00 AM 7.73 45.914 0.032 6.82 0.93 11.74
4/24/2023 10:45:00 AM 7.8 46.04 0.032 6.82 0.95 11.73
4/24/2023 11:00:00 AM 7.98 46.364 0.032 6.82 0.9 11.7
4/24/2023 11:15:00 AM 8.16 46.688 0.032 6.82 0.95 11.66
4/24/2023 11:30:00 AM 8.27 46.886 0.032 6.83 0.92 11.63
4/24/2023 11:45:00 AM 8.32 46.976 0.032 6.83 0.92 11.59
4/24/2023 12:00:00 PM 8.42 47.156 0.032 6.83 0.94 11.58
4/24/2023 12:15:00 PM 8.5 47.3 0.031 6.84 0.91 11.56
4/24/2023 12:30:00 PM 8.67 47.606 0.031 6.84 0.91 11.53
4/24/2023 12:45:00 PM 8.72 47.696 0.031 6.85 0.93 11.48
4/24/2023 1:00:00 PM 8.81 47.858 0.031 6.84 0.93 11.46
4/24/2023 1:15:00 PM 9.25 48.65 0.031 6.84 0.89 11.43
4/24/2023 1:30:00 PM 9.33 48.794 0.031 6.85 0.98 11.37
4/24/2023 1:45:00 PM 9.32 48.776 0.031 6.85 0.99 11.33
4/24/2023 2:00:00 PM 9.33 48.794 0.031 6.85 0.94 11.32
4/24/2023 2:15:00 PM 9.43 48.974 0.031 6.85 0.98 11.32
4/24/2023 2:30:00 PM 9.6 49.28 0.031 6.86 0.95 11.3
4/24/2023 2:45:00 PM 9.8 49.64 0.031 6.85 0.92 11.26
4/24/2023 3:00:00 PM 9.92 49.856 0.031 6.86 0.88 11.21
4/24/2023 3:15:00 PM 10.02 50.036 0.031 6.87 0.95 11.18
4/24/2023 3:30:00 PM 10.08 50.144 0.031 6.87 0.89 11.14
4/24/2023 3:45:00 PM 10.07 50.126 0.031 6.86 0.94 11.1
4/24/2023 4:00:00 PM 10.02 50.036 0.031 6.85 0.91 11.08
4/24/2023 4:15:00 PM 10.02 50.036 0.031 6.85 0.98 11.12
4/24/2023 4:30:00 PM 9.89 49.802 0.031 6.85 0.94 11.11
4/24/2023 4:45:00 PM 9.79 49.622 0.032 6.83 0.93 11.09
4/24/2023 5:00:00 PM 9.67 49.406 0.032 6.83 0.88 11.08
4/24/2023 5:15:00 PM 9.61 49.298 0.032 6.81 0.96 11.1
4/24/2023 5:30:00 PM 9.58 49.244 0.032 6.83 0.97 11.14
4/24/2023 5:45:00 PM 9.5 49.1 0.032 6.82 0.93 11.14
4/24/2023 6:00:00 PM 9.41 48.938 0.032 6.8 0.93 11.12
4/24/2023 6:15:00 PM 9.31 48.758 0.032 6.8 0.95 11.12
4/24/2023 6:30:00 PM 9.25 48.65 0.032 6.8 0.95 11.13
4/24/2023 6:45:00 PM 9.19 48.542 0.032 6.8 0.91 11.16
4/24/2023 7:00:00 PM 9.13 48.434 0.032 6.8 0.91 11.18
4/24/2023 7:15:00 PM 9.08 48.344 0.032 6.79 0.92 11.17
4/24/2023 7:30:00 PM 9.01 48.218 0.032 6.78 0.98 11.17
4/24/2023 7:45:00 PM 8.94 48.092 0.032 6.77 0.97 11.16
4/24/2023 8:00:00 PM 8.87 47.966 0.032 6.77 1.02 11.16
4/24/2023 8:15:00 PM 8.8 47.84 0.032 6.76 0.99 11.16
4/24/2023 8:30:00 PM 8.73 47.714 0.032 6.75 1.04 11.17
4/24/2023 8:45:00 PM 8.68 47.624 0.032 6.76 0.98 11.18
4/24/2023 9:00:00 PM 8.64 47.552 0.032 6.74 1.01 11.19
4/24/2023 9:15:00 PM 8.59 47.462 0.032 6.75 0.99 11.2
4/24/2023 9:30:00 PM 8.55 47.39 0.032 6.74 1.04 11.22
4/24/2023 9:45:00 PM 8.5 47.3 0.032 6.74 1.05 11.23
4/24/2023 10:00:00 PM 8.45 47.21 0.032 6.74 1.03 11.24
4/24/2023 10:15:00 PM 8.39 47.102 0.032 6.75 1 11.26
4/24/2023 10:30:00 PM 8.33 46.994 0.032 6.73 1.03 11.27
4/24/2023 10:45:00 PM 8.27 46.886 0.032 6.74 1.06 11.3
4/24/2023 11:00:00 PM 8.21 46.778 0.032 6.73 1.01 11.31
4/24/2023 11:15:00 PM 8.15 46.67 0.032 6.74 1.01 11.33
4/24/2023 11:30:00 PM 8.09 46.562 0.032 6.73 1.04 11.34
4/24/2023 11:45:00 PM 8.04 46.472 0.032 6.73 1.04 11.36
4/25/2023 12:00:00 AM 7.98 46.364 0.032 6.72 1.02 11.37
4/25/2023 12:15:00 AM 7.93 46.274 0.032 6.73 1.01 11.39
4/25/2023 12:30:00 AM 7.87 46.166 0.032 6.72 1.04 11.41
4/25/2023 12:45:00 AM 7.82 46.076 0.032 6.73 1.03 11.42
4/25/2023 1:00:00 AM 7.76 45.968 0.032 6.73 1.04 11.45
4/25/2023 1:15:00 AM 7.71 45.878 0.032 6.73 1.01 11.46
4/25/2023 1:30:00 AM 7.66 45.788 0.032 6.72 1.02 11.47
4/25/2023 1:45:00 AM 7.6 45.68 0.032 6.72 1.03 11.49
4/25/2023 2:00:00 AM 7.55 45.59 0.032 6.73 1.02 11.5
4/25/2023 2:15:00 AM 7.49 45.482 0.032 6.73 1 11.52
4/25/2023 2:30:00 AM 7.43 45.374 0.032 6.73 0.98 11.54
4/25/2023 2:45:00 AM 7.37 45.266 0.032 6.72 1.06 11.55
4/25/2023 3:00:00 AM 7.33 45.194 0.032 6.72 1.02 11.57
4/25/2023 3:15:00 AM 7.29 45.122 0.032 6.72 1.05 11.58
4/25/2023 3:30:00 AM 7.25 45.05 0.032 6.72 1 11.59
4/25/2023 3:45:00 AM 7.2 44.96 0.032 6.72 0.97 11.61
4/25/2023 4:00:00 AM 7.16 44.888 0.032 6.72 0.99 11.62
4/25/2023 4:15:00 AM 7.11 44.798 0.032 6.72 0.99 11.63
4/25/2023 4:30:00 AM 7.06 44.708 0.032 6.72 1.02 11.65
4/25/2023 4:45:00 AM 7.02 44.636 0.032 6.72 1.02 11.66
4/25/2023 5:00:00 AM 6.97 44.546 0.032 6.72 0.98 11.68
4/25/2023 5:15:00 AM 6.93 44.474 0.032 6.72 1.07 11.69
4/25/2023 5:30:00 AM 6.89 44.402 0.032 6.71 1.03 11.7
4/25/2023 5:45:00 AM 6.85 44.33 0.032 6.71 0.99 11.72
4/25/2023 6:00:00 AM 6.81 44.258 0.032 6.71 0.96 11.73
4/25/2023 6:15:00 AM 6.77 44.186 0.032 6.72 0.97 11.74
4/25/2023 6:30:00 AM 6.73 44.114 0.032 6.71 0.98 11.77
4/25/2023 6:45:00 AM 6.7 44.06 0.032 6.72 0.98 11.79
4/25/2023 7:00:00 AM 6.66 43.988 0.032 6.73 0.97 11.82
4/25/2023 7:15:00 AM 6.63 43.934 0.032 6.73 1.01 11.85
4/25/2023 7:30:00 AM 6.6 43.88 0.032 6.74 0.95 11.88
4/25/2023 7:45:00 AM 6.58 43.844 0.032 6.73 0.94 11.9
4/25/2023 8:00:00 AM 6.56 43.808 0.032 6.74 0.95 11.92
4/25/2023 8:15:00 AM 6.56 43.808 0.032 6.75 0.9 11.96
4/25/2023 8:30:00 AM 6.58 43.844 0.032 6.75 0.9 11.98
4/25/2023 8:45:00 AM 6.61 43.898 0.032 6.76 0.93 11.99
4/25/2023 9:00:00 AM 6.66 43.988 0.032 6.77 0.92 12
4/25/2023 9:15:00 AM 6.74 44.132 0.032 6.78 0.95 12.01
4/25/2023 9:30:00 AM 6.85 44.33 0.032 6.79 0.94 12.02
4/25/2023 9:45:00 AM 6.94 44.492 0.032 6.8 0.93 12
4/25/2023 10:00:00 AM 7.01 44.618 0.032 6.79 0.93 11.99
4/25/2023 10:15:00 AM 7.07 44.726 0.032 6.81 0.86 11.97
4/25/2023 10:30:00 AM 7.16 44.888 0.032 6.81 0.88 11.95
4/25/2023 10:45:00 AM 7.23 45.014 0.032 6.8 0.87 11.93
4/25/2023 11:00:00 AM 7.36 45.248 0.032 6.82 0.91 11.93
4/25/2023 11:15:00 AM 7.39 45.302 0.032 6.82 0.91 11.9
4/25/2023 11:30:00 AM 7.5 45.5 0.032 6.82 1 11.88
4/25/2023 11:45:00 AM 7.62 45.716 0.032 6.82 0.95 11.86
4/25/2023 12:00:00 PM 7.7 45.86 0.032 6.81 0.91 11.82
4/25/2023 12:15:00 PM 7.85 46.13 0.031 6.82 0.88 11.8
4/25/2023 12:30:00 PM 7.99 46.382 0.031 6.83 0.89 11.79
4/25/2023 12:45:00 PM 8.04 46.472 0.031 6.82 0.86 11.74
4/25/2023 1:00:00 PM 8.07 46.526 0.032 6.82 0.88 11.69
4/25/2023 1:15:00 PM 8.24 46.832 0.031 6.82 0.98 11.69
4/25/2023 1:30:00 PM 8.37 47.066 0.031 6.83 0.92 11.67
4/25/2023 1:45:00 PM 8.43 47.174 0.031 6.83 0.93 11.63
4/25/2023 2:00:00 PM 8.68 47.624 0.031 6.84 1.02 11.59
4/25/2023 2:15:00 PM 8.82 47.876 0.031 6.83 0.93 11.56
4/25/2023 2:30:00 PM 8.99 48.182 0.031 6.83 0.87 11.5
4/25/2023 2:45:00 PM 9.01 48.218 0.031 6.83 0.92 11.48
4/25/2023 3:00:00 PM 8.99 48.182 0.031 6.84 0.91 11.45
4/25/2023 3:15:00 PM 8.98 48.164 0.031 6.83 0.95 11.43
4/25/2023 3:30:00 PM 8.97 48.146 0.031 6.82 0.92 11.42
4/25/2023 3:45:00 PM 8.95 48.11 0.031 6.82 0.9 11.4
4/25/2023 4:00:00 PM 9.02 48.236 0.031 6.83 0.87 11.42
4/25/2023 4:15:00 PM 9.06 48.308 0.031 6.84 0.9 11.39
4/25/2023 4:30:00 PM 9.05 48.29 0.032 6.83 0.87 11.37
4/25/2023 4:45:00 PM 9.04 48.272 0.032 6.82 0.89 11.37
4/25/2023 5:00:00 PM 9.08 48.344 0.032 6.83 0.85 11.37
4/25/2023 5:15:00 PM 9.08 48.344 0.032 6.83 0.92 11.37
4/25/2023 5:30:00 PM 9.04 48.272 0.032 6.83 0.86 11.37
4/25/2023 5:45:00 PM 9 48.2 0.032 6.82 0.94 11.37
4/25/2023 6:00:00 PM 8.96 48.128 0.032 6.81 0.89 11.36
4/25/2023 6:15:00 PM 8.93 48.074 0.032 6.81 0.91 11.34
4/25/2023 6:30:00 PM 8.88 47.984 0.032 6.8 0.9 11.32
4/25/2023 6:45:00 PM 8.84 47.912 0.032 6.8 0.88 11.32
4/25/2023 7:00:00 PM 8.78 47.804 0.032 6.79 0.91 11.31
4/25/2023 7:15:00 PM 8.71 47.678 0.032 6.78 0.92 11.3
4/25/2023 7:30:00 PM 8.64 47.552 0.032 6.76 0.89 11.3
4/25/2023 7:45:00 PM 8.56 47.408 0.032 6.77 0.92 11.29
4/25/2023 8:00:00 PM 8.49 47.282 0.032 6.75 0.88 11.29
4/25/2023 8:15:00 PM 8.41 47.138 0.032 6.75 0.93 11.3
4/25/2023 8:30:00 PM 8.33 46.994 0.032 6.74 0.91 11.31
4/25/2023 8:45:00 PM 8.25 46.85 0.032 6.74 0.96 11.32
4/25/2023 9:00:00 PM 8.17 46.706 0.032 6.74 0.95 11.34
4/25/2023 9:15:00 PM 8.09 46.562 0.032 6.74 1 11.37
4/25/2023 9:30:00 PM 8.01 46.418 0.032 6.74 0.96 11.38
4/25/2023 9:45:00 PM 7.93 46.274 0.032 6.72 1.01 11.4
4/25/2023 10:00:00 PM 7.86 46.148 0.032 6.73 0.97 11.42
4/25/2023 10:15:00 PM 7.79 46.022 0.032 6.73 0.93 11.45
4/25/2023 10:30:00 PM 7.71 45.878 0.032 6.72 1.1 11.47
4/25/2023 10:45:00 PM 7.64 45.752 0.032 6.73 1.18 11.49
4/25/2023 11:00:00 PM 7.57 45.626 0.032 6.71 1 11.51
4/25/2023 11:15:00 PM 7.51 45.518 0.032 6.72 1.01 11.53
4/25/2023 11:30:00 PM 7.45 45.41 0.032 6.71 0.98 11.55
4/25/2023 11:45:00 PM 7.4 45.32 0.032 6.72 1 11.57
4/26/2023 12:00:00 AM 7.36 45.248 0.032 6.72 1.02 11.58
4/26/2023 12:15:00 AM 7.31 45.158 0.032 6.71 0.97 11.59
4/26/2023 12:30:00 AM 7.28 45.104 0.032 6.71 1.01 11.6
4/26/2023 12:45:00 AM 7.24 45.032 0.032 6.71 0.98 11.62
4/26/2023 1:00:00 AM 7.21 44.978 0.032 6.72 0.96 11.63
4/26/2023 1:15:00 AM 7.19 44.942 0.032 6.71 1.01 11.63
4/26/2023 1:30:00 AM 7.16 44.888 0.032 6.72 0.97 11.64
4/26/2023 1:45:00 AM 7.14 44.852 0.032 6.71 0.99 11.64
4/26/2023 2:00:00 AM 7.12 44.816 0.032 6.7 1 11.65
4/26/2023 2:15:00 AM 7.1 44.78 0.032 6.71 1 11.66
4/26/2023 2:30:00 AM 7.09 44.762 0.032 6.7 0.96 11.67
4/26/2023 2:45:00 AM 7.08 44.744 0.032 6.71 0.99 11.67
4/26/2023 3:00:00 AM 7.06 44.708 0.032 6.71 0.97 11.67
4/26/2023 3:15:00 AM 7.05 44.69 0.032 6.71 0.95 11.68
4/26/2023 3:30:00 AM 7.04 44.672 0.032 6.71 0.95 11.68
4/26/2023 3:45:00 AM 7.02 44.636 0.032 6.7 0.97 11.69
4/26/2023 4:00:00 AM 7 44.6 0.032 6.7 1 11.69
4/26/2023 4:15:00 AM 6.99 44.582 0.032 6.71 0.97 11.7
4/26/2023 4:30:00 AM 6.98 44.564 0.032 6.7 0.98 11.71
4/26/2023 4:45:00 AM 6.97 44.546 0.032 6.71 1.01 11.71
4/26/2023 5:00:00 AM 6.95 44.51 0.032 6.71 0.96 11.71
4/26/2023 5:15:00 AM 6.94 44.492 0.032 6.7 0.96 11.72
4/26/2023 5:30:00 AM 6.93 44.474 0.032 6.71 1 11.72
4/26/2023 5:45:00 AM 6.92 44.456 0.032 6.7 0.96 11.72
4/26/2023 6:00:00 AM 6.92 44.456 0.032 6.7 0.96 11.73
4/26/2023 6:15:00 AM 6.91 44.438 0.032 6.7 1.01 11.74
4/26/2023 6:30:00 AM 6.88 44.384 0.032 6.7 0.99 11.75
4/26/2023 6:45:00 AM 6.86 44.348 0.032 6.7 0.94 11.77
4/26/2023 7:00:00 AM 6.83 44.294 0.032 6.72 0.95 11.8
4/26/2023 7:15:00 AM 6.82 44.276 0.032 6.72 1 11.83
4/26/2023 7:30:00 AM 6.8 44.24 0.032 6.73 0.95 11.87
4/26/2023 7:45:00 AM 6.79 44.222 0.032 6.73 0.95 11.89
4/26/2023 8:00:00 AM 6.79 44.222 0.032 6.75 0.86 11.92
4/26/2023 8:15:00 AM 6.8 44.24 0.032 6.75 0.94 11.94
4/26/2023 8:30:00 AM 6.83 44.294 0.032 6.76 0.88 11.96
4/26/2023 8:45:00 AM 6.87 44.366 0.032 6.76 0.92 11.96
4/26/2023 9:00:00 AM 6.93 44.474 0.032 6.77 0.91 11.97
4/26/2023 9:15:00 AM 7 44.6 0.032 6.78 0.93 11.96
4/26/2023 9:30:00 AM 7.1 44.78 0.032 6.79 0.92 11.96
4/26/2023 9:45:00 AM 7.2 44.96 0.032 6.8 0.89 11.95
4/26/2023 10:00:00 AM 7.31 45.158 0.032 6.81 0.92 11.93
4/26/2023 10:15:00 AM 7.45 45.41 0.032 6.81 0.92 11.92
4/26/2023 10:30:00 AM 7.63 45.734 0.032 6.82 0.88 11.88
4/26/2023 10:45:00 AM 7.73 45.914 0.032 6.82 0.92 11.84
4/26/2023 11:00:00 AM 7.91 46.238 0.031 6.81 0.85 11.81
4/26/2023 11:15:00 AM 8.05 46.49 0.031 6.83 0.87 11.77
4/26/2023 11:30:00 AM 8.25 46.85 0.031 6.83 0.89 11.73
4/26/2023 11:45:00 AM 8.49 47.282 0.031 6.83 0.9 11.68
4/26/2023 12:00:00 PM 8.75 47.75 0.031 6.84 0.86 11.62
4/26/2023 12:15:00 PM 8.83 47.894 0.031 6.83 0.86 11.56
4/26/2023 12:30:00 PM 8.88 47.984 0.031 6.84 0.9 11.51
4/26/2023 12:45:00 PM 8.85 47.93 0.031 6.83 0.87 11.46
4/26/2023 1:00:00 PM 8.81 47.858 0.031 6.82 0.93 11.43
4/26/2023 1:15:00 PM 8.73 47.714 0.032 6.8 0.92 11.39
4/26/2023 1:30:00 PM 8.74 47.732 0.031 6.8 0.97 11.43
4/26/2023 1:45:00 PM 8.77 47.786 0.031 6.82 0.99 11.47
4/26/2023 2:00:00 PM 9.08 48.344 0.031 6.84 0.93 11.48
4/26/2023 2:15:00 PM 9.24 48.632 0.031 6.84 0.95 11.44
4/26/2023 2:30:00 PM 9.45 49.01 0.031 6.84 0.92 11.39
4/26/2023 2:45:00 PM 9.41 48.938 0.032 6.84 0.9 11.36
4/26/2023 3:00:00 PM 9.52 49.136 0.032 6.85 0.94 11.34
4/26/2023 3:15:00 PM 9.56 49.208 0.032 6.85 0.93 11.3
4/26/2023 3:30:00 PM 9.61 49.298 0.032 6.85 0.92 11.28
4/26/2023 3:45:00 PM 9.61 49.298 0.032 6.85 0.9 11.28
4/26/2023 4:00:00 PM 9.59 49.262 0.032 6.84 0.94 11.25
4/26/2023 4:15:00 PM 9.67 49.406 0.032 6.84 0.9 11.26
4/26/2023 4:30:00 PM 9.65 49.37 0.032 6.85 0.92 11.25
4/26/2023 4:45:00 PM 9.63 49.334 0.032 6.84 0.9 11.21
4/26/2023 5:00:00 PM 9.61 49.298 0.032 6.83 0.91 11.21
4/26/2023 5:15:00 PM 9.54 49.172 0.032 6.83 0.95 11.2
4/26/2023 5:30:00 PM 9.53 49.154 0.032 6.82 0.88 11.2
4/26/2023 5:45:00 PM 9.48 49.064 0.032 6.81 0.94 11.19
4/26/2023 6:00:00 PM 9.43 48.974 0.032 6.81 0.93 11.18
4/26/2023 6:15:00 PM 9.39 48.902 0.032 6.79 0.95 11.16
4/26/2023 6:30:00 PM 9.34 48.812 0.032 6.79 0.94 11.16
4/26/2023 6:45:00 PM 9.3 48.74 0.032 6.8 0.98 11.18
4/26/2023 7:00:00 PM 9.25 48.65 0.032 6.79 0.9 11.16
4/26/2023 7:15:00 PM 9.2 48.56 0.032 6.79 0.98 11.16
4/26/2023 7:30:00 PM 9.16 48.488 0.032 6.78 0.92 11.15
4/26/2023 7:45:00 PM 9.1 48.38 0.032 6.77 0.95 11.14
4/26/2023 8:00:00 PM 9.05 48.29 0.032 6.76 0.91 11.14
4/26/2023 8:15:00 PM 8.99 48.182 0.032 6.75 0.97 11.14
4/26/2023 8:30:00 PM 8.93 48.074 0.032 6.74 0.95 11.14
4/26/2023 8:45:00 PM 8.88 47.984 0.032 6.75 0.98 11.15
4/26/2023 9:00:00 PM 8.83 47.894 0.032 6.74 1.04 11.17
4/26/2023 9:15:00 PM 8.78 47.804 0.032 6.74 0.97 11.18
4/26/2023 9:30:00 PM 8.74 47.732 0.032 6.74 0.99 11.19
4/26/2023 9:45:00 PM 8.69 47.642 0.032 6.73 1 11.2
4/26/2023 10:00:00 PM 8.65 47.57 0.032 6.73 1 11.21
4/26/2023 10:15:00 PM 8.6 47.48 0.032 6.73 1.01 11.23
4/26/2023 10:30:00 PM 8.56 47.408 0.032 6.74 0.97 11.24
4/26/2023 10:45:00 PM 8.52 47.336 0.032 6.73 1 11.25
4/26/2023 11:00:00 PM 8.48 47.264 0.032 6.74 1.02 11.26
4/26/2023 11:15:00 PM 8.45 47.21 0.032 6.72 1 11.27
4/26/2023 11:30:00 PM 8.42 47.156 0.032 6.73 0.99 11.28
4/26/2023 11:45:00 PM 8.39 47.102 0.032 6.72 1.01 11.29
4/27/2023 12:00:00 AM 8.36 47.048 0.032 6.73 1.03 11.3
4/27/2023 12:15:00 AM 8.33 46.994 0.032 6.72 0.96 11.3
4/27/2023 12:30:00 AM 8.31 46.958 0.032 6.73 1.03 11.31
4/27/2023 12:45:00 AM 8.28 46.904 0.032 6.73 1.1 11.32
4/27/2023 1:00:00 AM 8.26 46.868 0.032 6.72 1.02 11.32
4/27/2023 1:15:00 AM 8.24 46.832 0.032 6.71 1 11.32
4/27/2023 1:30:00 AM 8.22 46.796 0.032 6.72 0.97 11.33
4/27/2023 1:45:00 AM 8.2 46.76 0.032 6.71 1 11.34
4/27/2023 2:00:00 AM 8.19 46.742 0.032 6.72 0.96 11.34
4/27/2023 2:15:00 AM 8.17 46.706 0.032 6.71 0.99 11.34
4/27/2023 2:30:00 AM 8.16 46.688 0.032 6.72 0.99 11.35
4/27/2023 2:45:00 AM 8.15 46.67 0.032 6.71 0.97 11.35
4/27/2023 3:00:00 AM 8.14 46.652 0.032 6.71 1.04 11.35
4/27/2023 3:15:00 AM 8.13 46.634 0.032 6.72 0.99 11.36
4/27/2023 3:30:00 AM 8.12 46.616 0.032 6.7 0.98 11.36
4/27/2023 3:45:00 AM 8.11 46.598 0.032 6.72 0.97 11.36
4/27/2023 4:00:00 AM 8.11 46.598 0.032 6.71 1 11.36
4/27/2023 4:15:00 AM 8.1 46.58 0.032 6.71 1 11.37
4/27/2023 4:30:00 AM 8.09 46.562 0.032 6.71 0.97 11.37
4/27/2023 4:45:00 AM 8.09 46.562 0.032 6.71 0.94 11.37
4/27/2023 5:00:00 AM 8.08 46.544 0.032 6.72 1.02 11.38
4/27/2023 5:15:00 AM 8.07 46.526 0.032 6.7 1 11.38
4/27/2023 5:30:00 AM 8.07 46.526 0.032 6.72 0.99 11.38
4/27/2023 5:45:00 AM 8.06 46.508 0.032 6.71 1.02 11.38
4/27/2023 6:00:00 AM 8.06 46.508 0.032 6.71 0.96 11.39
4/27/2023 6:15:00 AM 8.06 46.508 0.032 6.71 1.02 11.39
4/27/2023 6:30:00 AM 8.06 46.508 0.032 6.72 1 11.39
4/27/2023 6:45:00 AM 8.06 46.508 0.032 6.72 1.04 11.41
4/27/2023 7:00:00 AM 8.06 46.508 0.032 6.71 0.96 11.42
4/27/2023 7:15:00 AM 8.06 46.508 0.032 6.71 0.92 11.42
4/27/2023 7:30:00 AM 8.06 46.508 0.032 6.73 0.89 11.44
4/27/2023 7:45:00 AM 8.07 46.526 0.032 6.72 0.92 11.45
4/27/2023 8:00:00 AM 8.08 46.544 0.032 6.73 0.95 11.47
4/27/2023 8:15:00 AM 8.09 46.562 0.032 6.75 0.88 11.49
4/27/2023 8:30:00 AM 8.1 46.58 0.032 6.74 1 11.52
4/27/2023 8:45:00 AM 8.11 46.598 0.032 6.75 0.93 11.53
4/27/2023 9:00:00 AM 8.15 46.67 0.032 6.77 0.97 11.56
4/27/2023 9:15:00 AM 8.19 46.742 0.032 6.77 0.92 11.6
4/27/2023 9:30:00 AM 8.25 46.85 0.032 6.8 0.87 11.63
4/27/2023 9:45:00 AM 8.3 46.94 0.032 6.81 0.9 11.63
4/27/2023 10:00:00 AM 8.37 47.066 0.032 6.81 0.9 11.62
4/27/2023 10:15:00 AM 8.42 47.156 0.032 6.8 0.87 11.61
4/27/2023 10:30:00 AM 8.46 47.228 0.032 6.82 0.87 11.6
4/27/2023 10:45:00 AM 8.53 47.354 0.032 6.82 0.86 11.6
4/27/2023 11:00:00 AM 8.71 47.678 0.032 6.83 0.9 11.58
4/27/2023 11:15:00 AM 8.82 47.876 0.032 6.83 0.87 11.55
4/27/2023 11:30:00 AM 8.82 47.876 0.032 6.82 0.86 11.5
4/27/2023 11:45:00 AM 8.81 47.858 0.032 6.82 0.85 11.48
4/27/2023 12:00:00 PM 8.98 48.164 0.032 6.83 0.89 11.49
4/27/2023 12:15:00 PM 9.31 48.758 0.031 6.83 0.89 11.45
4/27/2023 12:30:00 PM 9.55 49.19 0.031 6.84 0.86 11.42
4/27/2023 12:45:00 PM 9.83 49.694 0.031 6.84 0.87 11.36
4/27/2023 1:00:00 PM 10.11 50.198 0.031 6.84 0.85 11.29
4/27/2023 1:15:00 PM 10.44 50.792 0.031 6.85 0.84 11.21
4/27/2023 1:30:00 PM 10.76 51.368 0.031 6.84 0.9 11.14
4/27/2023 1:45:00 PM 10.83 51.494 0.031 6.85 0.83 11.07
4/27/2023 2:00:00 PM 10.93 51.674 0.031 6.84 0.89 11.03
4/27/2023 2:15:00 PM 11.16 52.088 0.031 6.86 0.83 11
4/27/2023 2:30:00 PM 11.22 52.196 0.031 6.85 0.89 10.95
4/27/2023 2:45:00 PM 11.34 52.412 0.031 6.86 0.86 10.92
4/27/2023 3:00:00 PM 11.47 52.646 0.031 6.86 0.81 10.89
4/27/2023 3:15:00 PM 11.56 52.808 0.031 6.85 0.87 10.83
4/27/2023 3:30:00 PM 11.62 52.916 0.031 6.86 0.85 10.81
4/27/2023 3:45:00 PM 11.58 52.844 0.031 6.85 0.84 10.81
4/27/2023 4:00:00 PM 11.45 52.61 0.031 6.85 0.83 10.8
4/27/2023 4:15:00 PM 11.4 52.52 0.031 6.85 0.86 10.8
4/27/2023 4:30:00 PM 11.33 52.394 0.031 6.84 0.88 10.8
4/27/2023 4:45:00 PM 11.3 52.34 0.031 6.84 0.87 10.8
4/27/2023 5:00:00 PM 11.26 52.268 0.032 6.84 0.86 10.79
4/27/2023 5:15:00 PM 11.17 52.106 0.032 6.83 0.87 10.79
4/27/2023 5:30:00 PM 11.09 51.962 0.032 6.83 0.91 10.81
4/27/2023 5:45:00 PM 11 51.8 0.032 6.83 0.87 10.83
4/27/2023 6:00:00 PM 10.9 51.62 0.032 6.83 0.87 10.84
4/27/2023 6:15:00 PM 10.8 51.44 0.032 6.82 0.84 10.85
4/27/2023 6:30:00 PM 10.73 51.314 0.032 6.82 0.88 10.85
4/27/2023 6:45:00 PM 10.66 51.188 0.032 6.8 0.86 10.84
4/27/2023 7:00:00 PM 10.59 51.062 0.032 6.78 0.89 10.84
4/27/2023 7:15:00 PM 10.52 50.936 0.032 6.78 0.9 10.82
4/27/2023 7:30:00 PM 10.44 50.792 0.032 6.77 0.91 10.81
4/27/2023 7:45:00 PM 10.37 50.666 0.032 6.75 0.88 10.8
4/27/2023 8:00:00 PM 10.28 50.504 0.032 6.75 0.95 10.8
4/27/2023 8:15:00 PM 10.2 50.36 0.032 6.74 0.91 10.8
4/27/2023 8:30:00 PM 10.11 50.198 0.032 6.75 1 10.8
4/27/2023 8:45:00 PM 10.02 50.036 0.032 6.74 0.93 10.82
4/27/2023 9:00:00 PM 9.94 49.892 0.032 6.75 0.96 10.83
4/27/2023 9:15:00 PM 9.86 49.748 0.032 6.74 0.93 10.86
4/27/2023 9:30:00 PM 9.78 49.604 0.032 6.73 0.99 10.88
4/27/2023 9:45:00 PM 9.7 49.46 0.033 6.74 0.98 10.9
4/27/2023 10:00:00 PM 9.63 49.334 0.033 6.74 0.97 10.91
4/27/2023 10:15:00 PM 9.55 49.19 0.033 6.73 0.92 10.93
4/27/2023 10:30:00 PM 9.48 49.064 0.033 6.74 0.94 10.95
4/27/2023 10:45:00 PM 9.41 48.938 0.033 6.72 0.96 10.97
4/27/2023 11:00:00 PM 9.34 48.812 0.033 6.74 1.03 10.98
4/27/2023 11:15:00 PM 9.28 48.704 0.033 6.73 0.96 11.01
4/27/2023 11:30:00 PM 9.21 48.578 0.033 6.72 0.96 11.02
4/27/2023 11:45:00 PM 9.16 48.488 0.033 6.73 0.93 11.04
4/28/2023 12:00:00 AM 9.1 48.38 0.033 6.73 0.97 11.06
4/28/2023 12:15:00 AM 9.05 48.29 0.033 6.73 0.98 11.07
4/28/2023 12:30:00 AM 9.02 48.236 0.033 6.72 0.97 11.08
4/28/2023 12:45:00 AM 8.99 48.182 0.033 6.72 0.99 11.09
4/28/2023 1:00:00 AM 8.97 48.146 0.033 6.72 0.96 11.1
4/28/2023 1:15:00 AM 8.95 48.11 0.032 6.73 1 11.1
4/28/2023 1:30:00 AM 8.94 48.092 0.032 6.72 0.96 11.1
4/28/2023 1:45:00 AM 8.94 48.092 0.032 6.71 0.93 11.11
4/28/2023 2:00:00 AM 8.95 48.11 0.032 6.71 0.99 11.11
4/28/2023 2:15:00 AM 8.95 48.11 0.032 6.71 0.92 11.1
4/28/2023 2:30:00 AM 8.96 48.128 0.032 6.72 1.02 11.1
4/28/2023 2:45:00 AM 8.97 48.146 0.032 6.71 0.94 11.1
4/28/2023 3:00:00 AM 8.97 48.146 0.032 6.71 0.97 11.09
4/28/2023 3:15:00 AM 8.98 48.164 0.032 6.71 0.96 11.09
4/28/2023 3:30:00 AM 8.98 48.164 0.032 6.71 0.94 11.09
4/28/2023 3:45:00 AM 8.99 48.182 0.032 6.71 0.93 11.09
4/28/2023 4:00:00 AM 8.99 48.182 0.032 6.72 0.95 11.09
4/28/2023 4:15:00 AM 9 48.2 0.032 6.71 1 11.09
4/28/2023 4:30:00 AM 9.01 48.218 0.032 6.71 0.96 11.08
4/28/2023 4:45:00 AM 9.02 48.236 0.032 6.71 1.03 11.08
4/28/2023 5:00:00 AM 9.02 48.236 0.032 6.71 1.01 11.08
4/28/2023 5:15:00 AM 9.03 48.254 0.032 6.72 0.93 11.08
4/28/2023 5:30:00 AM 9.04 48.272 0.032 6.72 0.91 11.07
4/28/2023 5:45:00 AM 9.04 48.272 0.032 6.71 0.93 11.07
4/28/2023 6:00:00 AM 9.04 48.272 0.032 6.7 1.02 11.07
4/28/2023 6:15:00 AM 9.04 48.272 0.032 6.72 0.96 11.07
4/28/2023 6:30:00 AM 9.03 48.254 0.032 6.71 0.91 11.08
4/28/2023 6:45:00 AM 9.02 48.236 0.032 6.72 0.94 11.09
4/28/2023 7:00:00 AM 9.02 48.236 0.032 6.71 0.92 11.1
4/28/2023 7:15:00 AM 9.01 48.218 0.032 6.73 0.9 11.12
4/28/2023 7:30:00 AM 9 48.2 0.032 6.73 0.89 11.14
4/28/2023 7:45:00 AM 9.01 48.218 0.032 6.73 0.91 11.17
4/28/2023 8:00:00 AM 9.02 48.236 0.032 6.75 0.92 11.2
4/28/2023 8:15:00 AM 9.03 48.254 0.032 6.76 0.9 11.22
4/28/2023 8:30:00 AM 9.04 48.272 0.032 6.77 0.89 11.24
4/28/2023 8:45:00 AM 9.05 48.29 0.032 6.78 0.86 11.24
4/28/2023 9:00:00 AM 9.06 48.308 0.032 6.78 0.92 11.25
4/28/2023 9:15:00 AM 9.08 48.344 0.032 6.78 0.87 11.26
4/28/2023 9:30:00 AM 9.1 48.38 0.032 6.79 0.89 11.27
4/28/2023 9:45:00 AM 9.1 48.38 0.032 6.78 0.85 11.25
4/28/2023 10:00:00 AM 9.11 48.398 0.032 6.79 0.91 11.26
4/28/2023 10:15:00 AM 9.14 48.452 0.032 6.8 0.9 11.28
4/28/2023 10:30:00 AM 9.17 48.506 0.032 6.82 0.89 11.3
4/28/2023 10:45:00 AM 9.21 48.578 0.032 6.83 0.84 11.32
4/28/2023 11:00:00 AM 9.25 48.65 0.032 6.82 0.88 11.32
4/28/2023 11:15:00 AM 9.28 48.704 0.032 6.84 0.91 11.32
4/28/2023 11:30:00 AM 9.31 48.758 0.032 6.84 0.9 11.32
4/28/2023 11:45:00 AM 9.31 48.758 0.032 6.84 0.88 11.28
4/28/2023 12:00:00 PM 9.31 48.758 0.032 6.83 0.83 11.25
4/28/2023 12:15:00 PM 9.31 48.758 0.032 6.82 0.89 11.23
4/28/2023 12:30:00 PM 9.32 48.776 0.032 6.81 0.89 11.23
4/28/2023 12:45:00 PM 9.32 48.776 0.032 6.82 0.94 11.22
4/28/2023 1:00:00 PM 9.31 48.758 0.032 6.8 0.93 11.2
4/28/2023 1:15:00 PM 9.3 48.74 0.032 6.79 0.92 11.19
4/28/2023 1:30:00 PM 9.29 48.722 0.032 6.8 0.96 11.19
4/28/2023 1:45:00 PM 9.28 48.704 0.032 6.8 0.91 11.19
4/28/2023 2:00:00 PM 9.27 48.686 0.032 6.79 0.91 11.17
4/28/2023 2:15:00 PM 9.25 48.65 0.032 6.78 1.02 11.16
4/28/2023 2:30:00 PM 9.25 48.65 0.032 6.79 0.94 11.17
4/28/2023 2:45:00 PM 9.25 48.65 0.032 6.78 1.01 11.19
4/28/2023 3:00:00 PM 9.26 48.668 0.032 6.8 0.93 11.22
4/28/2023 3:15:00 PM 9.26 48.668 0.032 6.8 0.95 11.21
4/28/2023 3:30:00 PM 9.26 48.668 0.032 6.79 0.93 11.2
4/28/2023 3:45:00 PM 9.25 48.65 0.032 6.79 0.94 11.18
4/28/2023 4:00:00 PM 9.24 48.632 0.032 6.79 0.98 11.18
4/28/2023 4:15:00 PM 9.24 48.632 0.032 6.8 0.99 11.21
4/28/2023 4:30:00 PM 9.24 48.632 0.032 6.81 0.98 11.23
4/28/2023 4:45:00 PM 9.24 48.632 0.032 6.81 1 11.23
4/28/2023 5:00:00 PM 9.24 48.632 0.032 6.82 1 11.25
4/28/2023 5:15:00 PM 9.24 48.632 0.032 6.82 1.01 11.24
4/28/2023 5:30:00 PM 9.24 48.632 0.032 6.82 1.08 11.23
4/28/2023 5:45:00 PM 9.22 48.596 0.032 6.8 1.07 11.2
4/28/2023 6:00:00 PM 9.18 48.524 0.032 6.8 1.07 11.16
4/28/2023 6:15:00 PM 9.16 48.488 0.032 6.78 1.14 11.14
4/28/2023 6:30:00 PM 9.13 48.434 0.032 6.78 1.1 11.14
4/28/2023 6:45:00 PM 9.11 48.398 0.032 6.78 1.17 11.14
4/28/2023 7:00:00 PM 9.09 48.362 0.032 6.78 1.15 11.13
4/28/2023 7:15:00 PM 9.07 48.326 0.032 6.77 1.17 11.12
4/28/2023 7:30:00 PM 9.06 48.308 0.032 6.76 1.21 11.13
4/28/2023 7:45:00 PM 9.04 48.272 0.032 6.77 1.25 11.12
4/28/2023 8:00:00 PM 9.01 48.218 0.032 6.76 1.31 11.11
4/28/2023 8:15:00 PM 8.99 48.182 0.032 6.76 1.32 11.09
4/28/2023 8:30:00 PM 8.96 48.128 0.032 6.76 1.43 11.08
4/28/2023 8:45:00 PM 8.94 48.092 0.032 6.75 1.46 11.08
4/28/2023 9:00:00 PM 8.92 48.056 0.032 6.76 1.45 11.09
4/28/2023 9:15:00 PM 8.9 48.02 0.032 6.76 1.37 11.09
4/28/2023 9:30:00 PM 8.88 47.984 0.032 6.76 1.37 11.1
4/28/2023 9:45:00 PM 8.86 47.948 0.032 6.75 1.36 11.1
4/28/2023 10:00:00 PM 8.84 47.912 0.032 6.75 1.42 11.11
4/28/2023 10:15:00 PM 8.81 47.858 0.032 6.76 1.41 11.11
4/28/2023 10:30:00 PM 8.79 47.822 0.032 6.75 1.38 11.12
4/28/2023 10:45:00 PM 8.78 47.804 0.032 6.74 1.38 11.12
4/28/2023 11:00:00 PM 8.76 47.768 0.032 6.75 1.37 11.12
4/28/2023 11:15:00 PM 8.75 47.75 0.032 6.75 1.3 11.12
4/28/2023 11:30:00 PM 8.73 47.714 0.032 6.75 1.37 11.13
4/28/2023 11:45:00 PM 8.72 47.696 0.032 6.75 1.3 11.13
4/29/2023 12:00:00 AM 8.7 47.66 0.032 6.75 1.26 11.13
4/29/2023 12:15:00 AM 8.69 47.642 0.032 6.74 1.29 11.13
4/29/2023 12:30:00 AM 8.67 47.606 0.032 6.76 1.23 11.14
4/29/2023 12:45:00 AM 8.65 47.57 0.032 6.74 1.39 11.14
4/29/2023 1:00:00 AM 8.62 47.516 0.032 6.75 1.32 11.14
4/29/2023 1:15:00 AM 8.6 47.48 0.032 6.74 1.29 11.14
4/29/2023 1:30:00 AM 8.58 47.444 0.032 6.75 1.31 11.14
4/29/2023 1:45:00 AM 8.56 47.408 0.032 6.73 1.32 11.15
4/29/2023 2:00:00 AM 8.54 47.372 0.032 6.74 1.45 11.15
4/29/2023 2:15:00 AM 8.52 47.336 0.032 6.74 1.48 11.15
4/29/2023 2:30:00 AM 8.51 47.318 0.032 6.74 1.59 11.15
4/29/2023 2:45:00 AM 8.49 47.282 0.032 6.74 1.83 11.16
4/29/2023 3:00:00 AM 8.48 47.264 0.032 6.75 2.08 11.16
4/29/2023 3:15:00 AM 8.47 47.246 0.032 6.75 2.34 11.16
4/29/2023 3:30:00 AM 8.46 47.228 0.032 6.76 2.54 11.16
4/29/2023 3:45:00 AM 8.45 47.21 0.032 6.76 2.9 11.17
4/29/2023 4:00:00 AM 8.44 47.192 0.032 6.76 3.02 11.17
4/29/2023 4:15:00 AM 8.43 47.174 0.032 6.77 3.22 11.18
4/29/2023 4:30:00 AM 8.42 47.156 0.032 6.77 3.28 11.18
4/29/2023 4:45:00 AM 8.41 47.138 0.033 6.77 3.31 11.19
4/29/2023 5:00:00 AM 8.4 47.12 0.033 6.78 3.27 11.19
4/29/2023 5:15:00 AM 8.4 47.12 0.033 6.79 3.43 11.2
4/29/2023 5:30:00 AM 8.39 47.102 0.032 6.77 3.61 11.21
4/29/2023 5:45:00 AM 8.39 47.102 0.032 6.77 3.55 11.22
4/29/2023 6:00:00 AM 8.39 47.102 0.032 6.77 3.54 11.22
4/29/2023 6:15:00 AM 8.38 47.084 0.032 6.76 3.3 11.23
4/29/2023 6:30:00 AM 8.38 47.084 0.032 6.76 3.59 11.23
4/29/2023 6:45:00 AM 8.37 47.066 0.032 6.76 3.22 11.24
4/29/2023 7:00:00 AM 8.37 47.066 0.032 6.76 2.97 11.25
4/29/2023 7:15:00 AM 8.37 47.066 0.032 6.76 2.92 11.26
4/29/2023 7:30:00 AM 8.37 47.066 0.032 6.77 2.81 11.27
4/29/2023 7:45:00 AM 8.37 47.066 0.032 6.76 2.79 11.28
4/29/2023 8:00:00 AM 8.36 47.048 0.032 6.76 2.86 11.29
4/29/2023 8:15:00 AM 8.36 47.048 0.032 6.76 2.59 11.3
4/29/2023 8:30:00 AM 8.37 47.066 0.032 6.77 2.48 11.31
4/29/2023 8:45:00 AM 8.37 47.066 0.032 6.77 2.42 11.32
4/29/2023 9:00:00 AM 8.38 47.084 0.032 6.78 2.34 11.33
4/29/2023 9:15:00 AM 8.39 47.102 0.032 6.79 2.31 11.34
4/29/2023 9:30:00 AM 8.4 47.12 0.032 6.79 2.23 11.34
4/29/2023 9:45:00 AM 8.41 47.138 0.032 6.8 2.22 11.35
4/29/2023 10:00:00 AM 8.43 47.174 0.032 6.8 2.13 11.35
4/29/2023 10:15:00 AM 8.44 47.192 0.031 6.79 2.25 11.36
4/29/2023 10:30:00 AM 8.46 47.228 0.031 6.81 2.02 11.37
4/29/2023 10:45:00 AM 8.49 47.282 0.031 6.81 1.92 11.37
4/29/2023 11:00:00 AM 8.52 47.336 0.031 6.81 2.01 11.39
4/29/2023 11:15:00 AM 8.55 47.39 0.031 6.82 1.97 11.39
4/29/2023 11:30:00 AM 8.57 47.426 0.031 6.82 1.86 11.38
4/29/2023 11:45:00 AM 8.59 47.462 0.031 6.82 1.83 11.37
4/29/2023 12:00:00 PM 8.61 47.498 0.031 6.82 1.8 11.36
4/29/2023 12:15:00 PM 8.63 47.534 0.031 6.81 1.84 11.35
4/29/2023 12:30:00 PM 8.65 47.57 0.031 6.81 1.76 11.35
4/29/2023 12:45:00 PM 8.68 47.624 0.031 6.82 1.81 11.35
4/29/2023 1:00:00 PM 8.71 47.678 0.031 6.82 1.69 11.34
4/29/2023 1:15:00 PM 8.73 47.714 0.031 6.8 1.74 11.33
4/29/2023 1:30:00 PM 8.75 47.75 0.031 6.82 1.89 11.32
4/29/2023 1:45:00 PM 8.77 47.786 0.031 6.8 1.73 11.32
4/29/2023 2:00:00 PM 8.79 47.822 0.031 6.81 1.87 11.31
4/29/2023 2:15:00 PM 8.79 47.822 0.031 6.81 1.63 11.28
4/29/2023 2:30:00 PM 8.8 47.84 0.031 6.8 1.58 11.28
4/29/2023 2:45:00 PM 8.82 47.876 0.031 6.81 1.66 11.27
4/29/2023 3:00:00 PM 8.83 47.894 0.031 6.82 1.72 11.27
4/29/2023 3:15:00 PM 8.84 47.912 0.031 6.8 1.58 11.25
4/29/2023 3:30:00 PM 8.85 47.93 0.031 6.81 1.53 11.23
4/29/2023 3:45:00 PM 8.85 47.93 0.031 6.79 1.58 11.21
4/29/2023 4:00:00 PM 8.86 47.948 0.031 6.8 1.5 11.21
4/29/2023 4:15:00 PM 8.86 47.948 0.031 6.78 1.59 11.2
4/29/2023 4:30:00 PM 8.86 47.948 0.031 6.79 1.44 11.18
4/29/2023 4:45:00 PM 8.86 47.948 0.031 6.76 1.58 11.17
4/29/2023 5:00:00 PM 8.86 47.948 0.031 6.77 1.51 11.17
4/29/2023 5:15:00 PM 8.87 47.966 0.031 6.78 1.69 11.2
4/29/2023 5:30:00 PM 8.89 48.002 0.031 6.77 1.54 11.21
4/29/2023 5:45:00 PM 8.9 48.02 0.031 6.78 1.4 11.2
4/29/2023 6:00:00 PM 8.91 48.038 0.031 6.78 1.48 11.2
4/29/2023 6:15:00 PM 8.91 48.038 0.031 6.78 1.41 11.2
4/29/2023 6:30:00 PM 8.92 48.056 0.031 6.77 1.46 11.18
4/29/2023 6:45:00 PM 8.91 48.038 0.031 6.76 1.35 11.15
4/29/2023 7:00:00 PM 8.91 48.038 0.031 6.76 1.46 11.14
4/29/2023 7:15:00 PM 8.9 48.02 0.031 6.74 1.43 11.12
4/29/2023 7:30:00 PM 8.9 48.02 0.031 6.74 1.41 11.12
4/29/2023 7:45:00 PM 8.89 48.002 0.031 6.73 1.46 11.11
4/29/2023 8:00:00 PM 8.89 48.002 0.031 6.72 1.56 11.1
4/29/2023 8:15:00 PM 8.88 47.984 0.031 6.7 1.48 11.09
4/29/2023 8:30:00 PM 8.88 47.984 0.031 6.71 1.47 11.09
4/29/2023 8:45:00 PM 8.87 47.966 0.031 6.7 1.59 11.08
4/29/2023 9:00:00 PM 8.86 47.948 0.031 6.69 1.5 11.08
4/29/2023 9:15:00 PM 8.86 47.948 0.031 6.7 1.5 11.08
4/29/2023 9:30:00 PM 8.85 47.93 0.031 6.69 1.44 11.08
4/29/2023 9:45:00 PM 8.85 47.93 0.031 6.69 1.41 11.08
4/29/2023 10:00:00 PM 8.84 47.912 0.031 6.69 1.38 11.08
4/29/2023 10:15:00 PM 8.84 47.912 0.031 6.69 1.56 11.08
4/29/2023 10:30:00 PM 8.83 47.894 0.032 6.69 1.5 11.08
4/29/2023 10:45:00 PM 8.83 47.894 0.032 6.67 1.47 11.08
4/29/2023 11:00:00 PM 8.83 47.894 0.032 6.68 1.62 11.08
4/29/2023 11:15:00 PM 8.83 47.894 0.032 6.68 1.55 11.08
4/29/2023 11:30:00 PM 8.84 47.912 0.031 6.71 1.48 11.08
4/29/2023 11:45:00 PM 8.84 47.912 0.032 6.71 1.53 11.08
4/30/2023 12:00:00 AM 8.84 47.912 0.032 6.73 1.47 11.08
4/30/2023 12:15:00 AM 8.83 47.894 0.032 6.73 1.43 11.08
4/30/2023 12:30:00 AM 8.83 47.894 0.031 6.74 1.43 11.08
4/30/2023 12:45:00 AM 8.82 47.876 0.031 6.74 1.42 11.08
4/30/2023 1:00:00 AM 8.82 47.876 0.031 6.73 1.47 11.08
4/30/2023 1:15:00 AM 8.82 47.876 0.031 6.71 1.41 11.08
4/30/2023 1:30:00 AM 8.82 47.876 0.031 6.7 1.39 11.07
4/30/2023 1:45:00 AM 8.82 47.876 0.031 6.7 1.37 11.07
4/30/2023 2:00:00 AM 8.82 47.876 0.031 6.71 1.32 11.07
4/30/2023 2:15:00 AM 8.81 47.858 0.031 6.72 1.41 11.07
4/30/2023 2:30:00 AM 8.81 47.858 0.031 6.72 1.34 11.07
4/30/2023 2:45:00 AM 8.81 47.858 0.031 6.7 1.48 11.07
4/30/2023 3:00:00 AM 8.81 47.858 0.031 6.69 1.3 11.07
4/30/2023 3:15:00 AM 8.81 47.858 0.031 6.71 1.47 11.07
4/30/2023 3:30:00 AM 8.8 47.84 0.031 6.69 1.52 11.06
4/30/2023 3:45:00 AM 8.8 47.84 0.031 6.7 1.42 11.06
4/30/2023 4:00:00 AM 8.8 47.84 0.031 6.69 1.35 11.06
4/30/2023 4:15:00 AM 8.79 47.822 0.031 6.71 1.38 11.06
4/30/2023 4:30:00 AM 8.79 47.822 0.031 6.69 1.46 11.05
4/30/2023 4:45:00 AM 8.79 47.822 0.031 6.69 1.49 11.05
4/30/2023 5:00:00 AM 8.78 47.804 0.031 6.69 1.43 11.05
4/30/2023 5:15:00 AM 8.78 47.804 0.031 6.68 1.57 11.05
4/30/2023 5:30:00 AM 8.78 47.804 0.031 6.68 1.6 11.04
4/30/2023 5:45:00 AM 8.78 47.804 0.031 6.68 1.67 11.04
4/30/2023 6:00:00 AM 8.79 47.822 0.031 6.67 1.86 11.04
4/30/2023 6:15:00 AM 8.79 47.822 0.031 6.68 2.21 11.03
4/30/2023 6:30:00 AM 8.79 47.822 0.031 6.68 2.99 11.02
4/30/2023 6:45:00 AM 8.8 47.84 0.031 6.7 4.14 11.03
4/30/2023 7:00:00 AM 8.81 47.858 0.032 6.71 6.88 11.03
4/30/2023 7:15:00 AM 8.82 47.876 0.032 6.72 12.15 11.03
4/30/2023 7:30:00 AM 8.84 47.912 0.032 6.74 10.8 11.04
4/30/2023 7:45:00 AM 8.84 47.912 0.032 6.74 8.87 11.06
4/30/2023 8:00:00 AM 8.85 47.93 0.032 6.74 7.44 11.07
4/30/2023 8:15:00 AM 8.86 47.948 0.032 6.73 6.7 11.08
4/30/2023 8:30:00 AM 8.87 47.966 0.032 6.75 6.14 11.08
4/30/2023 8:45:00 AM 8.88 47.984 0.032 6.75 5.75 11.08
4/30/2023 9:00:00 AM 8.9 48.02 0.032 6.76 5.65 11.08
4/30/2023 9:15:00 AM 8.92 48.056 0.032 6.78 5.61 11.08
4/30/2023 9:30:00 AM 8.93 48.074 0.031 6.78 5.56 11.08
4/30/2023 9:45:00 AM 8.94 48.092 0.031 6.77 5.39 11.07
4/30/2023 10:00:00 AM 8.96 48.128 0.031 6.78 5.09 11.07
4/30/2023 10:15:00 AM 8.98 48.164 0.031 6.79 4.97 11.06
4/30/2023 10:30:00 AM 8.99 48.182 0.031 6.78 4.89 11.07
4/30/2023 10:45:00 AM 9 48.2 0.031 6.77 4.85 11.05
4/30/2023 11:00:00 AM 9.01 48.218 0.031 6.78 5.11 11.05
4/30/2023 11:15:00 AM 9.03 48.254 0.031 6.78 5.13 11.05
4/30/2023 11:30:00 AM 9.05 48.29 0.031 6.79 5.71 11.04
4/30/2023 11:45:00 AM 9.07 48.326 0.031 6.78 6.67 11.02
4/30/2023 12:00:00 PM 9.09 48.362 0.031 6.8 8.36 11.02
4/30/2023 12:15:00 PM 9.12 48.416 0.031 6.79 11.31 11.01
4/30/2023 12:30:00 PM 9.15 48.47 0.031 6.81 14.25 10.99
4/30/2023 12:45:00 PM 9.18 48.524 0.031 6.8 16.93 11
4/30/2023 1:00:00 PM 9.21 48.578 0.031 6.82 18.45 10.99
4/30/2023 1:15:00 PM 9.23 48.614 0.031 6.8 19.68 10.97
4/30/2023 1:30:00 PM 9.25 48.65 0.031 6.81 20.99 10.95
4/30/2023 1:45:00 PM 9.27 48.686 0.031 6.8 22.61 10.95
4/30/2023 2:00:00 PM 9.29 48.722 0.031 6.81 29.14 10.95
4/30/2023 2:15:00 PM 9.32 48.776 0.031 6.81 25.59 10.95
4/30/2023 2:30:00 PM 9.36 48.848 0.031 6.81 27.75 10.93
4/30/2023 2:45:00 PM 9.38 48.884 0.031 6.8 29.31 10.92
4/30/2023 3:00:00 PM 9.41 48.938 0.031 6.8 35.39 10.9
4/30/2023 3:15:00 PM 9.43 48.974 0.03 6.79 46.41 10.88
4/30/2023 3:30:00 PM 9.44 48.992 0.03 6.76 52.23 10.87
4/30/2023 3:45:00 PM 9.44 48.992 0.03 6.75 56.16 10.87
4/30/2023 4:00:00 PM 9.42 48.956 0.03 6.73 56.36 10.87
4/30/2023 4:15:00 PM 9.41 48.938 0.03 6.73 56.17 10.88
4/30/2023 4:30:00 PM 9.4 48.92 0.03 6.73 53.47 10.89
4/30/2023 4:45:00 PM 9.38 48.884 0.029 6.71 50.49 10.89
4/30/2023 5:00:00 PM 9.36 48.848 0.029 6.7 47.76 10.9
4/30/2023 5:15:00 PM 9.35 48.83 0.029 6.71 43.63 10.91
4/30/2023 5:30:00 PM 9.34 48.812 0.028 6.69 49.81 10.91
4/30/2023 5:45:00 PM 9.32 48.776 0.028 6.67 36.19 10.91
4/30/2023 6:00:00 PM 9.3 48.74 0.028 6.68 35.75 10.91
4/30/2023 6:15:00 PM 9.28 48.704 0.027 6.65 27.93 10.92
4/30/2023 6:30:00 PM 9.26 48.668 0.027 6.64 24.35 10.92
4/30/2023 6:45:00 PM 9.24 48.632 0.027 6.61 38.59 10.92
4/30/2023 7:00:00 PM 9.22 48.596 0.027 6.62 22.03 10.92
4/30/2023 7:15:00 PM 9.2 48.56 0.027 6.59 19.97 10.92
4/30/2023 7:30:00 PM 9.19 48.542 0.027 6.59 19.33 10.91
4/30/2023 7:45:00 PM 9.17 48.506 0.027 6.58 16.3 10.92
4/30/2023 8:00:00 PM 9.15 48.47 0.027 6.57 14.9 10.92
4/30/2023 8:15:00 PM 9.13 48.434 0.027 6.55 17.19 10.92
4/30/2023 8:30:00 PM 9.11 48.398 0.027 6.57 18.53 10.93
4/30/2023 8:45:00 PM 9.09 48.362 0.027 6.57 17.89 10.94
4/30/2023 9:00:00 PM 9.08 48.344 0.027 6.56 16.17 10.95
4/30/2023 9:15:00 PM 9.06 48.308 0.027 6.55 16.06 10.96
4/30/2023 9:30:00 PM 9.04 48.272 0.027 6.57 15.44 10.97
4/30/2023 9:45:00 PM 9.02 48.236 0.027 6.56 15.47 10.98
4/30/2023 10:00:00 PM 8.98 48.164 0.027 6.57 15.05 10.99
4/30/2023 10:15:00 PM 8.92 48.056 0.027 6.58 13.8 11
4/30/2023 10:30:00 PM 8.89 48.002 0.027 6.58 13.48 11.01
4/30/2023 10:45:00 PM 8.85 47.93 0.026 6.58 13.35 11.02
4/30/2023 11:00:00 PM 8.8 47.84 0.026 6.58 12.98 11.04
4/30/2023 11:15:00 PM 8.75 47.75 0.026 6.56 12.69 11.05
4/30/2023 11:30:00 PM 8.71 47.678 0.026 6.57 13.57 11.06
4/30/2023 11:45:00 PM 8.67 47.606 0.026 6.59 11.15 11.07
5/1/2023 12:00:00 AM 8.62 47.516 0.026 6.56 10.84 11.08
5/1/2023 12:15:00 AM 8.59 47.462 0.026 6.53 11.16 11.09
5/1/2023 12:30:00 AM 8.56 47.408 0.026 6.53 11.59 11.1
5/1/2023 12:45:00 AM 8.52 47.336 0.026 6.56 9.84 11.11
5/1/2023 1:00:00 AM 8.47 47.246 0.026 6.54 9.85 11.12
5/1/2023 1:15:00 AM 8.44 47.192 0.026 6.52 8.34 11.13
5/1/2023 1:30:00 AM 8.4 47.12 0.026 6.55 8.42 11.14
5/1/2023 1:45:00 AM 8.37 47.066 0.026 6.53 8.31 11.14
5/1/2023 2:00:00 AM 8.35 47.03 0.026 6.54 7.63 11.15
5/1/2023 2:15:00 AM 8.32 46.976 0.026 6.51 7.5 11.16
5/1/2023 2:30:00 AM 8.29 46.922 0.026 6.51 7.57 11.16
5/1/2023 2:45:00 AM 8.26 46.868 0.026 6.56 7.78 11.17
5/1/2023 3:00:00 AM 8.23 46.814 0.026 6.53 7.32 11.18
5/1/2023 3:15:00 AM 8.2 46.76 0.026 6.51 6.88 11.18
5/1/2023 3:30:00 AM 8.17 46.706 0.026 6.53 7.11 11.19
5/1/2023 3:45:00 AM 8.13 46.634 0.026 6.52 6.58 11.2
5/1/2023 4:00:00 AM 8.1 46.58 0.026 6.51 6.15 11.21
5/1/2023 4:15:00 AM 8.06 46.508 0.026 6.5 6.46 11.22
5/1/2023 4:30:00 AM 8.02 46.436 0.026 6.5 6.31 11.23
5/1/2023 4:45:00 AM 7.99 46.382 0.026 6.51 6.43 11.24
5/1/2023 5:00:00 AM 7.95 46.31 0.026 6.53 6.15 11.25
5/1/2023 5:15:00 AM 7.92 46.256 0.026 6.5 5.83 11.27
5/1/2023 5:30:00 AM 7.87 46.166 0.026 6.49 5.65 11.28
5/1/2023 5:45:00 AM 7.84 46.112 0.026 6.51 5.64 11.29
5/1/2023 6:00:00 AM 7.8 46.04 0.026 6.5 5.61 11.3
5/1/2023 6:15:00 AM 7.76 45.968 0.026 6.51 5.66 11.31
5/1/2023 6:30:00 AM 7.73 45.914 0.026 6.49 5.22 11.33
5/1/2023 6:45:00 AM 7.7 45.86 0.026 6.5 5.05 11.34
5/1/2023 7:00:00 AM 7.68 45.824 0.026 6.51 5 11.36
5/1/2023 7:15:00 AM 7.66 45.788 0.026 6.49 4.92 11.37
5/1/2023 7:30:00 AM 7.65 45.77 0.026 6.51 4.86 11.38
5/1/2023 7:45:00 AM 7.64 45.752 0.026 6.5 5.07 11.39
5/1/2023 8:00:00 AM 7.65 45.77 0.026 6.49 4.47 11.4
5/1/2023 8:15:00 AM 7.67 45.806 0.026 6.52 4.27 11.41
5/1/2023 8:30:00 AM 7.69 45.842 0.026 6.54 4.54 11.41
5/1/2023 8:45:00 AM 7.73 45.914 0.026 6.58 4.33 11.41
5/1/2023 9:00:00 AM 7.76 45.968 0.026 6.58 4.74 11.41
5/1/2023 9:15:00 AM 7.78 46.004 0.026 6.57 4.14 11.39
5/1/2023 9:30:00 AM 7.79 46.022 0.026 6.52 4.38 11.38
5/1/2023 9:45:00 AM 7.82 46.076 0.026 6.53 4.29 11.38
5/1/2023 10:00:00 AM 7.83 46.094 0.026 6.54 4.1 11.38
5/1/2023 10:15:00 AM 7.85 46.13 0.027 6.54 4.13 11.38
5/1/2023 10:30:00 AM 7.92 46.256 0.027 6.54 4.12 11.38
5/1/2023 10:45:00 AM 7.97 46.346 0.027 6.55 4.14 11.37
5/1/2023 11:00:00 AM 8 46.4 0.027 6.55 4.44 11.37
5/1/2023 11:15:00 AM 8.06 46.508 0.027 6.55 4.24 11.36
5/1/2023 11:30:00 AM 8.09 46.562 0.027 6.54 4.01 11.34
5/1/2023 11:45:00 AM 8.11 46.598 0.027 6.54 3.98 11.33
5/1/2023 12:00:00 PM 8.16 46.688 0.027 6.54 4.01 11.33
5/1/2023 12:15:00 PM 8.18 46.724 0.027 6.54 3.88 11.32
5/1/2023 12:30:00 PM 8.18 46.724 0.027 6.56 3.92 11.3
5/1/2023 12:45:00 PM 8.2 46.76 0.027 6.56 3.9 11.3
5/1/2023 1:00:00 PM 8.22 46.796 0.027 6.55 3.83 11.3
5/1/2023 1:15:00 PM 8.21 46.778 0.027 6.54 3.74 11.29
5/1/2023 1:30:00 PM 8.22 46.796 0.027 6.55 3.79 11.29
5/1/2023 1:45:00 PM 8.2 46.76 0.027 6.55 3.95 11.28
5/1/2023 2:00:00 PM 8.22 46.796 0.027 6.54 3.96 11.29
5/1/2023 2:15:00 PM 8.31 46.958 0.027 6.56 4.16 11.3
5/1/2023 2:30:00 PM 8.43 47.174 0.027 6.55 4.36 11.28
5/1/2023 2:45:00 PM 8.51 47.318 0.027 6.56 4.05 11.25
5/1/2023 3:00:00 PM 8.56 47.408 0.027 6.55 3.92 11.24
5/1/2023 3:15:00 PM 8.54 47.372 0.027 6.56 4.03 11.22
5/1/2023 3:30:00 PM 8.54 47.372 0.027 6.55 4.01 11.22
5/1/2023 3:45:00 PM 8.57 47.426 0.027 6.56 4.25 11.21
5/1/2023 4:00:00 PM 8.59 47.462 0.027 6.57 3.78 11.19
5/1/2023 4:15:00 PM 8.5 47.3 0.027 6.56 3.97 11.17
5/1/2023 4:30:00 PM 8.38 47.084 0.027 6.54 4.17 11.2
5/1/2023 4:45:00 PM 8.39 47.102 0.027 6.55 4.14 11.22
5/1/2023 5:00:00 PM 8.4 47.12 0.027 6.58 4.35 11.23
5/1/2023 5:15:00 PM 8.39 47.102 0.027 6.54 4.6 11.23
5/1/2023 5:30:00 PM 8.41 47.138 0.027 6.57 4.48 11.21
5/1/2023 5:45:00 PM 8.34 47.012 0.027 6.54 4.51 11.21
5/1/2023 6:00:00 PM 8.35 47.03 0.027 6.55 4.57 11.22
5/1/2023 6:15:00 PM 8.32 46.976 0.027 6.55 4.34 11.22
5/1/2023 6:30:00 PM 8.28 46.904 0.027 6.55 14.7 11.24
5/1/2023 6:45:00 PM 8.22 46.796 0.027 6.54 4.32 11.25
5/1/2023 7:00:00 PM 8.2 46.76 0.027 6.54 4.35 11.25
5/1/2023 7:15:00 PM 8.19 46.742 0.027 6.53 4.18 11.24
5/1/2023 7:30:00 PM 8.17 46.706 0.027 6.54 3.97 11.25
5/1/2023 7:45:00 PM 8.14 46.652 0.027 6.52 3.88 11.26
5/1/2023 8:00:00 PM 8.1 46.58 0.027 6.53 3.85 11.26
5/1/2023 8:15:00 PM 8.06 46.508 0.027 6.53 3.84 11.27
5/1/2023 8:30:00 PM 8.02 46.436 0.027 6.52 3.74 11.28
5/1/2023 8:45:00 PM 7.99 46.382 0.027 6.52 3.76 11.28
5/1/2023 9:00:00 PM 7.97 46.346 0.027 6.52 3.92 11.29
5/1/2023 9:15:00 PM 7.94 46.292 0.027 6.52 3.8 11.3
5/1/2023 9:30:00 PM 7.91 46.238 0.027 6.52 3.88 11.3
5/1/2023 9:45:00 PM 7.9 46.22 0.027 6.52 3.7 11.31
5/1/2023 10:00:00 PM 7.87 46.166 0.027 6.51 3.86 11.31
5/1/2023 10:15:00 PM 7.85 46.13 0.027 6.51 3.83 11.32
5/1/2023 10:30:00 PM 7.82 46.076 0.028 6.52 3.68 11.33
5/1/2023 10:45:00 PM 7.79 46.022 0.028 6.51 3.62 11.34
5/1/2023 11:00:00 PM 7.77 45.986 0.028 6.51 3.68 11.34
5/1/2023 11:15:00 PM 7.75 45.95 0.028 6.51 3.64 11.35
5/1/2023 11:30:00 PM 7.73 45.914 0.028 6.51 3.63 11.35
5/1/2023 11:45:00 PM 7.72 45.896 0.028 6.51 3.59 11.36
5/2/2023 12:00:00 AM 7.71 45.878 0.028 6.5 3.65 11.35
5/2/2023 12:15:00 AM 7.7 45.86 0.028 6.51 3.59 11.36
5/2/2023 12:30:00 AM 7.69 45.842 0.028 6.51 3.58 11.36
5/2/2023 12:45:00 AM 7.68 45.824 0.028 6.51 3.5 11.36
5/2/2023 1:00:00 AM 7.67 45.806 0.028 6.51 3.41 11.36
5/2/2023 1:15:00 AM 7.67 45.806 0.028 6.51 3.4 11.36
5/2/2023 1:30:00 AM 7.65 45.77 0.028 6.52 3.37 11.37
5/2/2023 1:45:00 AM 7.64 45.752 0.028 6.51 3.34 11.37
5/2/2023 2:00:00 AM 7.63 45.734 0.028 6.52 3.34 11.37
5/2/2023 2:15:00 AM 7.61 45.698 0.028 6.51 3.4 11.37
5/2/2023 2:30:00 AM 7.59 45.662 0.028 6.52 3.33 11.38
5/2/2023 2:45:00 AM 7.57 45.626 0.028 6.52 3.45 11.38
5/2/2023 3:00:00 AM 7.54 45.572 0.028 6.52 3.33 11.39
5/2/2023 3:15:00 AM 7.51 45.518 0.028 6.52 3.4 11.39
5/2/2023 3:30:00 AM 7.49 45.482 0.028 6.52 3.31 11.4
5/2/2023 3:45:00 AM 7.47 45.446 0.028 6.53 3.4 11.41
5/2/2023 4:00:00 AM 7.45 45.41 0.028 6.52 3.33 11.41
5/2/2023 4:15:00 AM 7.43 45.374 0.028 6.54 3.33 11.42
5/2/2023 4:30:00 AM 7.41 45.338 0.028 6.53 3.32 11.43
5/2/2023 4:45:00 AM 7.39 45.302 0.028 6.53 3.28 11.43
5/2/2023 5:00:00 AM 7.37 45.266 0.028 6.53 3.21 11.44
5/2/2023 5:15:00 AM 7.35 45.23 0.028 6.52 3.28 11.44
5/2/2023 5:30:00 AM 7.33 45.194 0.028 6.52 3.14 11.45
5/2/2023 5:45:00 AM 7.32 45.176 0.028 6.51 3.25 11.45
5/2/2023 6:00:00 AM 7.3 45.14 0.028 6.52 3.09 11.46
5/2/2023 6:15:00 AM 7.29 45.122 0.028 6.53 3.07 11.46
5/2/2023 6:30:00 AM 7.29 45.122 0.028 6.52 3.26 11.47
5/2/2023 6:45:00 AM 7.28 45.104 0.028 6.52 3.22 11.48
5/2/2023 7:00:00 AM 7.26 45.068 0.028 6.52 3.01 11.48
5/2/2023 7:15:00 AM 7.26 45.068 0.028 6.52 2.98 11.5
5/2/2023 7:30:00 AM 7.26 45.068 0.028 6.53 2.87 11.51
5/2/2023 7:45:00 AM 7.26 45.068 0.028 6.53 2.89 11.53
5/2/2023 8:00:00 AM 7.26 45.068 0.028 6.54 2.96 11.54
5/2/2023 8:15:00 AM 7.28 45.104 0.028 6.54 2.95 11.55
5/2/2023 8:30:00 AM 7.3 45.14 0.028 6.55 2.79 11.56
5/2/2023 8:45:00 AM 7.33 45.194 0.028 6.55 2.84 11.56
5/2/2023 9:00:00 AM 7.35 45.23 0.028 6.55 2.89 11.55
5/2/2023 9:15:00 AM 7.38 45.284 0.028 6.56 2.74 11.55
5/2/2023 9:30:00 AM 7.41 45.338 0.028 6.55 2.81 11.54
5/2/2023 9:45:00 AM 7.45 45.41 0.028 6.56 2.93 11.54
5/2/2023 10:00:00 AM 7.49 45.482 0.028 6.57 2.71 11.53
5/2/2023 10:15:00 AM 7.54 45.572 0.028 6.55 2.73 11.52
5/2/2023 10:30:00 AM 7.6 45.68 0.028 6.57 2.71 11.51
5/2/2023 10:45:00 AM 7.65 45.77 0.028 6.57 2.74 11.49
5/2/2023 11:00:00 AM 7.71 45.878 0.028 6.57 2.66 11.48
5/2/2023 11:15:00 AM 7.74 45.932 0.028 6.57 2.72 11.46
5/2/2023 11:30:00 AM 7.81 46.058 0.028 6.57 2.71 11.45
5/2/2023 11:45:00 AM 7.85 46.13 0.028 6.58 2.65 11.43
5/2/2023 12:00:00 PM 7.92 46.256 0.028 6.58 2.72 11.43
5/2/2023 12:15:00 PM 7.95 46.31 0.028 6.58 2.61 11.4
5/2/2023 12:30:00 PM 8.03 46.454 0.028 6.58 5.18 11.4
5/2/2023 12:45:00 PM 8.11 46.598 0.028 6.58 2.65 11.37
5/2/2023 1:00:00 PM 8.14 46.652 0.028 6.58 2.6 11.36
5/2/2023 1:15:00 PM 8.16 46.688 0.028 6.58 2.59 11.35
5/2/2023 1:30:00 PM 8.26 46.868 0.028 6.59 2.75 11.34
5/2/2023 1:45:00 PM 8.29 46.922 0.028 6.59 2.68 11.32
5/2/2023 2:00:00 PM 8.32 46.976 0.028 6.59 2.61 11.32
5/2/2023 2:15:00 PM 8.33 46.994 0.028 6.59 2.58 11.31
5/2/2023 2:30:00 PM 8.34 47.012 0.028 6.59 2.54 11.3
5/2/2023 2:45:00 PM 8.35 47.03 0.028 6.58 2.58 11.3
5/2/2023 3:00:00 PM 8.37 47.066 0.028 6.59 2.57 11.29
5/2/2023 3:15:00 PM 8.35 47.03 0.028 6.6 2.6 11.27
5/2/2023 3:30:00 PM 8.35 47.03 0.028 6.59 2.61 11.29
5/2/2023 3:45:00 PM 8.4 47.12 0.028 6.6 2.61 11.29
5/2/2023 4:00:00 PM 8.44 47.192 0.028 6.6 2.57 11.28
5/2/2023 4:15:00 PM 8.46 47.228 0.028 6.59 2.61 11.27
5/2/2023 4:30:00 PM 8.44 47.192 0.028 6.59 2.64 11.25
5/2/2023 4:45:00 PM 8.44 47.192 0.028 6.6 2.6 11.25
5/2/2023 5:00:00 PM 8.43 47.174 0.028 6.58 2.52 11.24
5/2/2023 5:15:00 PM 8.43 47.174 0.028 6.59 2.44 11.25
5/2/2023 5:30:00 PM 8.43 47.174 0.028 6.59 2.54 11.25
5/2/2023 5:45:00 PM 8.42 47.156 0.028 6.59 2.49 11.26
5/2/2023 6:00:00 PM 8.41 47.138 0.028 6.58 2.52 11.26
5/2/2023 6:15:00 PM 8.39 47.102 0.028 6.59 2.49 11.26
5/2/2023 6:30:00 PM 8.37 47.066 0.028 6.58 2.52 11.25
5/2/2023 6:45:00 PM 8.35 47.03 0.028 6.58 2.37 11.26
5/2/2023 7:00:00 PM 8.33 46.994 0.028 6.58 2.42 11.25
5/2/2023 7:15:00 PM 8.29 46.922 0.028 6.56 2.47 11.25
5/2/2023 7:30:00 PM 8.25 46.85 0.028 6.6 2.49 11.26
5/2/2023 7:45:00 PM 8.21 46.778 0.028 6.56 2.39 11.26
5/2/2023 8:00:00 PM 8.18 46.724 0.028 6.55 2.45 11.27
5/2/2023 8:15:00 PM 8.14 46.652 0.028 6.55 2.43 11.27
5/2/2023 8:30:00 PM 8.1 46.58 0.028 6.55 2.47 11.28
5/2/2023 8:45:00 PM 8.06 46.508 0.028 6.55 2.51 11.29
5/2/2023 9:00:00 PM 8.02 46.436 0.028 6.55 2.46 11.3
5/2/2023 9:15:00 PM 7.99 46.382 0.028 6.55 2.47 11.31
5/2/2023 9:30:00 PM 7.95 46.31 0.028 6.55 2.41 11.32
5/2/2023 9:45:00 PM 7.91 46.238 0.028 6.55 2.45 11.33
5/2/2023 10:00:00 PM 7.88 46.184 0.028 6.57 2.5 11.34
5/2/2023 10:15:00 PM 7.83 46.094 0.028 6.54 2.49 11.35
5/2/2023 10:30:00 PM 7.8 46.04 0.028 6.52 2.46 11.37
5/2/2023 10:45:00 PM 7.76 45.968 0.028 6.53 2.39 11.37
5/2/2023 11:00:00 PM 7.72 45.896 0.028 6.54 2.44 11.38
5/2/2023 11:15:00 PM 7.69 45.842 0.028 6.56 2.48 11.4
5/2/2023 11:30:00 PM 7.65 45.77 0.028 6.56 2.41 11.41
5/2/2023 11:45:00 PM 7.62 45.716 0.028 6.55 2.49 11.41
5/3/2023 12:00:00 AM 7.59 45.662 0.028 6.56 2.51 11.42
5/3/2023 12:15:00 AM 7.57 45.626 0.028 6.55 2.4 11.43
5/3/2023 12:30:00 AM 7.55 45.59 0.028 6.56 2.47 11.43
5/3/2023 12:45:00 AM 7.53 45.554 0.028 6.56 2.79 11.44
5/3/2023 1:00:00 AM 7.51 45.518 0.028 6.55 2.44 11.45
5/3/2023 1:15:00 AM 7.49 45.482 0.028 6.55 2.37 11.45
5/3/2023 1:30:00 AM 7.47 45.446 0.028 6.53 2.44 11.45
5/3/2023 1:45:00 AM 7.46 45.428 0.028 6.52 2.33 11.46
5/3/2023 2:00:00 AM 7.45 45.41 0.028 6.54 2.29 11.46
5/3/2023 2:15:00 AM 7.43 45.374 0.028 6.54 2.3 11.47
5/3/2023 2:30:00 AM 7.41 45.338 0.028 6.55 2.38 11.47
5/3/2023 2:45:00 AM 7.4 45.32 0.028 6.55 2.38 11.47
5/3/2023 3:00:00 AM 7.38 45.284 0.028 6.54 2.41 11.48
5/3/2023 3:15:00 AM 7.36 45.248 0.028 6.55 2.44 11.48
5/3/2023 3:30:00 AM 7.35 45.23 0.028 6.55 2.49 11.48
5/3/2023 3:45:00 AM 7.33 45.194 0.028 6.53 2.42 11.49
5/3/2023 4:00:00 AM 7.32 45.176 0.028 6.54 2.39 11.49
5/3/2023 4:15:00 AM 7.3 45.14 0.028 6.56 2.35 11.49
5/3/2023 4:30:00 AM 7.28 45.104 0.028 6.54 2.31 11.5
5/3/2023 4:45:00 AM 7.27 45.086 0.028 6.54 2.3 11.5
5/3/2023 5:00:00 AM 7.25 45.05 0.028 6.56 2.29 11.51
5/3/2023 5:15:00 AM 7.23 45.014 0.028 6.56 2.27 11.51
5/3/2023 5:30:00 AM 7.21 44.978 0.028 6.55 2.31 11.51
5/3/2023 5:45:00 AM 7.2 44.96 0.028 6.55 2.27 11.52
5/3/2023 6:00:00 AM 7.19 44.942 0.028 6.53 2.28 11.52
5/3/2023 6:15:00 AM 7.18 44.924 0.028 6.53 2.19 11.53
5/3/2023 6:30:00 AM 7.17 44.906 0.028 6.54 2.27 11.53
5/3/2023 6:45:00 AM 7.16 44.888 0.028 6.55 2.22 11.55
5/3/2023 7:00:00 AM 7.16 44.888 0.028 6.55 2.22 11.56
5/3/2023 7:15:00 AM 7.16 44.888 0.028 6.56 2.19 11.57
5/3/2023 7:30:00 AM 7.16 44.888 0.028 6.55 2.23 11.58
5/3/2023 7:45:00 AM 7.17 44.906 0.028 6.57 2.28 11.59
5/3/2023 8:00:00 AM 7.18 44.924 0.028 6.56 2.25 11.6
5/3/2023 8:15:00 AM 7.19 44.942 0.028 6.57 2.34 11.61
5/3/2023 8:30:00 AM 7.21 44.978 0.028 6.59 2.19 11.62
5/3/2023 8:45:00 AM 7.23 45.014 0.028 6.58 2.13 11.62
5/3/2023 9:00:00 AM 7.24 45.032 0.028 6.58 2.12 11.62
5/3/2023 9:15:00 AM 7.26 45.068 0.028 6.59 2.1 11.61
5/3/2023 9:30:00 AM 7.28 45.104 0.028 6.6 2.15 11.61
5/3/2023 9:45:00 AM 7.33 45.194 0.028 6.6 2.07 11.61
5/3/2023 10:00:00 AM 7.35 45.23 0.028 6.61 2.15 11.61
5/3/2023 10:15:00 AM 7.39 45.302 0.028 6.62 2.08 11.6
5/3/2023 10:30:00 AM 7.41 45.338 0.028 6.62 2.07 11.59
5/3/2023 10:45:00 AM 7.44 45.392 0.028 6.62 2.02 11.59
5/3/2023 11:00:00 AM 7.51 45.518 0.028 6.6 2.18 11.58
5/3/2023 11:15:00 AM 7.61 45.698 0.028 6.6 2.01 11.56
5/3/2023 11:30:00 AM 7.64 45.752 0.028 6.59 2.17 11.55
5/3/2023 11:45:00 AM 7.7 45.86 0.028 6.6 2.09 11.55
5/3/2023 12:00:00 PM 7.79 46.022 0.028 6.56 2.09 11.53
5/3/2023 12:15:00 PM 7.88 46.184 0.028 6.58 2.06 11.51
5/3/2023 12:30:00 PM 8 46.4 0.028 6.58 2.11 11.48
5/3/2023 12:45:00 PM 8.04 46.472 0.028 6.58 2.09 11.45
5/3/2023 1:00:00 PM 8.1 46.58 0.028 6.58 2.05 11.41
5/3/2023 1:15:00 PM 8.06 46.508 0.028 6.56 2.04 11.39
5/3/2023 1:30:00 PM 8.04 46.472 0.028 6.57 2.08 11.37
5/3/2023 1:45:00 PM 8.11 46.598 0.028 6.58 2.15 11.36
5/3/2023 2:00:00 PM 8.15 46.67 0.028 6.59 2.06 11.36
5/3/2023 2:15:00 PM 8.21 46.778 0.028 6.6 2.2 11.37
5/3/2023 2:30:00 PM 8.25 46.85 0.028 6.61 2.06 11.37
5/3/2023 2:45:00 PM 8.24 46.832 0.028 6.6 2.17 11.35
5/3/2023 3:00:00 PM 8.21 46.778 0.028 6.59 2.13 11.35
5/3/2023 3:15:00 PM 8.21 46.778 0.028 6.6 2.16 11.36
5/3/2023 3:30:00 PM 8.25 46.85 0.028 6.6 2.15 11.36
5/3/2023 3:45:00 PM 8.28 46.904 0.028 6.61 2.04 11.36
5/3/2023 4:00:00 PM 8.29 46.922 0.028 6.62 2.08 11.36
5/3/2023 4:15:00 PM 8.3 46.94 0.028 6.61 2.07 11.35
5/3/2023 4:30:00 PM 8.32 46.976 0.028 6.59 2.15 11.35
5/3/2023 4:45:00 PM 8.34 47.012 0.028 6.63 2.04 11.33
5/3/2023 5:00:00 PM 8.32 46.976 0.028 6.62 2.09 11.33
5/3/2023 5:15:00 PM 8.32 46.976 0.028 6.61 2.08 11.32
5/3/2023 5:30:00 PM 8.33 46.994 0.028 6.61 1.96 11.31
5/3/2023 5:45:00 PM 8.32 46.976 0.028 6.58 2.08 11.31
5/3/2023 6:00:00 PM 8.31 46.958 0.028 6.58 2.08 11.3
5/3/2023 6:15:00 PM 8.3 46.94 0.028 6.57 2.13 11.31
5/3/2023 6:30:00 PM 8.28 46.904 0.028 6.58 2.03 11.31
5/3/2023 6:45:00 PM 8.26 46.868 0.028 6.57 1.96 11.31
5/3/2023 7:00:00 PM 8.25 46.85 0.028 6.57 2 11.31
5/3/2023 7:15:00 PM 8.23 46.814 0.028 6.58 2.06 11.31
5/3/2023 7:30:00 PM 8.2 46.76 0.028 6.57 2.1 11.31
5/3/2023 7:45:00 PM 8.16 46.688 0.028 6.58 2.07 11.31
5/3/2023 8:00:00 PM 8.13 46.634 0.028 6.56 2.04 11.31
5/3/2023 8:15:00 PM 8.08 46.544 0.028 6.57 2.04 11.32
5/3/2023 8:30:00 PM 8.04 46.472 0.028 6.56 2.05 11.32
5/3/2023 8:45:00 PM 7.98 46.364 0.028 6.55 2.28 11.34
5/3/2023 9:00:00 PM 7.92 46.256 0.028 6.56 2.1 11.36
5/3/2023 9:15:00 PM 7.87 46.166 0.028 6.55 2.13 11.37
5/3/2023 9:30:00 PM 7.82 46.076 0.028 6.55 2.17 11.38
5/3/2023 9:45:00 PM 7.77 45.986 0.029 6.57 2.13 11.41
5/3/2023 10:00:00 PM 7.72 45.896 0.029 6.55 2.1 11.42
5/3/2023 10:15:00 PM 7.67 45.806 0.029 6.54 2.16 11.44
5/3/2023 10:30:00 PM 7.64 45.752 0.029 6.54 2.18 11.46
5/3/2023 10:45:00 PM 7.6 45.68 0.029 6.54 2.13 11.47
5/3/2023 11:00:00 PM 7.56 45.608 0.029 6.54 2.07 11.49
5/3/2023 11:15:00 PM 7.52 45.536 0.029 6.54 2.19 11.49
5/3/2023 11:30:00 PM 7.48 45.464 0.029 6.55 2.14 11.51
5/3/2023 11:45:00 PM 7.45 45.41 0.029 6.53 2.13 11.51
5/4/2023 12:00:00 AM 7.43 45.374 0.029 6.54 2.16 11.53
5/4/2023 12:15:00 AM 7.41 45.338 0.029 6.54 2.08 11.54
5/4/2023 12:30:00 AM 7.39 45.302 0.029 6.54 2.16 11.53
5/4/2023 12:45:00 AM 7.39 45.302 0.029 6.54 2.16 11.54
5/4/2023 1:00:00 AM 7.38 45.284 0.029 6.54 2.13 11.54
5/4/2023 1:15:00 AM 7.36 45.248 0.029 6.53 2.13 11.56
5/4/2023 1:30:00 AM 7.34 45.212 0.029 6.54 2.11 11.56
5/4/2023 1:45:00 AM 7.32 45.176 0.029 6.54 2.05 11.56
5/4/2023 2:00:00 AM 7.3 45.14 0.029 6.55 2.11 11.57
5/4/2023 2:15:00 AM 7.28 45.104 0.029 6.53 2.03 11.58
5/4/2023 2:30:00 AM 7.27 45.086 0.029 6.54 2.11 11.58
5/4/2023 2:45:00 AM 7.25 45.05 0.029 6.54 2.08 11.58
5/4/2023 3:00:00 AM 7.23 45.014 0.029 6.54 2.12 11.59
5/4/2023 3:15:00 AM 7.2 44.96 0.029 6.53 2.05 11.6
5/4/2023 3:30:00 AM 7.18 44.924 0.029 6.55 2.14 11.6
5/4/2023 3:45:00 AM 7.16 44.888 0.029 6.54 1.99 11.61
5/4/2023 4:00:00 AM 7.15 44.87 0.029 6.54 2.05 11.61
5/4/2023 4:15:00 AM 7.13 44.834 0.029 6.53 2.19 11.61
5/4/2023 4:30:00 AM 7.1 44.78 0.029 6.54 2.12 11.63
5/4/2023 4:45:00 AM 7.08 44.744 0.029 6.54 2.08 11.63
5/4/2023 5:00:00 AM 7.06 44.708 0.029 6.53 2.04 11.64
5/4/2023 5:15:00 AM 7.04 44.672 0.029 6.54 2.02 11.65
5/4/2023 5:30:00 AM 7.02 44.636 0.029 6.53 2.13 11.66
5/4/2023 5:45:00 AM 7.01 44.618 0.029 6.53 2.02 11.66
5/4/2023 6:00:00 AM 7 44.6 0.029 6.52 2.02 11.68
5/4/2023 6:15:00 AM 6.99 44.582 0.029 6.53 1.97 11.68
5/4/2023 6:30:00 AM 6.99 44.582 0.029 6.53 1.98 11.7
5/4/2023 6:45:00 AM 6.99 44.582 0.029 6.53 1.95 11.71
5/4/2023 7:00:00 AM 6.99 44.582 0.029 6.54 2.04 11.72
5/4/2023 7:15:00 AM 7 44.6 0.029 6.55 2.08 11.73
5/4/2023 7:30:00 AM 7.02 44.636 0.029 6.54 1.99 11.74
5/4/2023 7:45:00 AM 7.04 44.672 0.029 6.55 2.02 11.75
5/4/2023 8:00:00 AM 7.06 44.708 0.029 6.56 1.96 11.76
5/4/2023 8:15:00 AM 7.09 44.762 0.029 6.57 2 11.76
5/4/2023 8:30:00 AM 7.14 44.852 0.029 6.57 1.91 11.77
5/4/2023 8:45:00 AM 7.18 44.924 0.029 6.59 1.93 11.77
5/4/2023 9:00:00 AM 7.22 44.996 0.029 6.57 1.96 11.75
5/4/2023 9:15:00 AM 7.27 45.086 0.029 6.57 1.92 11.76
5/4/2023 9:30:00 AM 7.31 45.158 0.029 6.58 2.03 11.74
5/4/2023 9:45:00 AM 7.34 45.212 0.029 6.59 1.88 11.73
5/4/2023 10:00:00 AM 7.38 45.284 0.029 6.58 1.93 11.72
5/4/2023 10:15:00 AM 7.45 45.41 0.029 6.6 1.88 11.72
5/4/2023 10:30:00 AM 7.51 45.518 0.029 6.6 1.87 11.72
5/4/2023 10:45:00 AM 7.57 45.626 0.029 6.6 1.9 11.71
5/4/2023 11:00:00 AM 7.67 45.806 0.028 6.61 1.92 11.7
5/4/2023 11:15:00 AM 7.82 46.076 0.028 6.61 1.93 11.67
5/4/2023 11:30:00 AM 7.96 46.328 0.028 6.62 1.84 11.64
5/4/2023 11:45:00 AM 8.16 46.688 0.028 6.62 1.86 11.6
5/4/2023 12:00:00 PM 8.2 46.76 0.028 6.61 1.84 11.56
5/4/2023 12:15:00 PM 8.34 47.012 0.028 6.62 1.84 11.52
5/4/2023 12:30:00 PM 8.41 47.138 0.028 6.62 1.96 11.48
5/4/2023 12:45:00 PM 8.61 47.498 0.028 6.61 1.94 11.45
5/4/2023 1:00:00 PM 8.74 47.732 0.028 6.62 1.97 11.42
5/4/2023 1:15:00 PM 8.87 47.966 0.028 6.62 1.99 11.38
5/4/2023 1:30:00 PM 8.83 47.894 0.028 6.61 2.04 11.35
5/4/2023 1:45:00 PM 8.83 47.894 0.028 6.62 2.08 11.36
5/4/2023 2:00:00 PM 8.82 47.876 0.028 6.62 1.98 11.35
5/4/2023 2:15:00 PM 8.9 48.02 0.028 6.63 1.97 11.35
5/4/2023 2:30:00 PM 8.97 48.146 0.028 6.63 2.18 11.34
5/4/2023 2:45:00 PM 8.99 48.182 0.028 6.63 2.04 11.29
5/4/2023 3:00:00 PM 8.97 48.146 0.028 6.63 1.96 11.28
5/4/2023 3:15:00 PM 8.98 48.164 0.028 6.61 2.03 11.29
5/4/2023 3:30:00 PM 9.01 48.218 0.028 6.63 1.99 11.3
5/4/2023 3:45:00 PM 9.09 48.362 0.028 6.62 2.03 11.29
5/4/2023 4:00:00 PM 9.17 48.506 0.028 6.63 2 11.25
5/4/2023 4:15:00 PM 9.05 48.29 0.028 6.62 2.37 11.23
5/4/2023 4:30:00 PM 9.09 48.362 0.028 6.6 1.96 11.24
5/4/2023 4:45:00 PM 9.12 48.416 0.028 6.62 2.08 11.24
5/4/2023 5:00:00 PM 9.17 48.506 0.028 6.63 2.05 11.23
5/4/2023 5:15:00 PM 9.18 48.524 0.028 6.62 1.96 11.22
5/4/2023 5:30:00 PM 9.18 48.524 0.029 6.62 2.11 11.21
5/4/2023 5:45:00 PM 9.19 48.542 0.029 6.62 2.31 11.22
5/4/2023 6:00:00 PM 9.18 48.524 0.029 6.6 2.19 11.21
5/4/2023 6:15:00 PM 9.16 48.488 0.029 6.61 1.98 11.2
5/4/2023 6:30:00 PM 9.15 48.47 0.029 6.6 2.05 11.2
5/4/2023 6:45:00 PM 9.13 48.434 0.029 6.62 2.09 11.21
5/4/2023 7:00:00 PM 9.1 48.38 0.029 6.59 2.01 11.21
5/4/2023 7:15:00 PM 9.07 48.326 0.029 6.6 1.98 11.21
5/4/2023 7:30:00 PM 9.04 48.272 0.029 6.61 2.01 11.2
5/4/2023 7:45:00 PM 9.01 48.218 0.029 6.6 2.03 11.21
5/4/2023 8:00:00 PM 8.97 48.146 0.029 6.59 2 11.21
5/4/2023 8:15:00 PM 8.93 48.074 0.029 6.57 2 11.22
5/4/2023 8:30:00 PM 8.89 48.002 0.029 6.59 2.14 11.23
5/4/2023 8:45:00 PM 8.85 47.93 0.029 6.58 2.09 11.23
5/4/2023 9:00:00 PM 8.8 47.84 0.029 6.57 2.1 11.25
5/4/2023 9:15:00 PM 8.76 47.768 0.029 6.58 2.03 11.26
5/4/2023 9:30:00 PM 8.72 47.696 0.029 6.57 2.02 11.28
5/4/2023 9:45:00 PM 8.68 47.624 0.029 6.56 1.99 11.29
5/4/2023 10:00:00 PM 8.64 47.552 0.029 6.56 1.99 11.3
5/4/2023 10:15:00 PM 8.6 47.48 0.029 6.57 2.09 11.32
5/4/2023 10:30:00 PM 8.57 47.426 0.029 6.56 1.95 11.33
5/4/2023 10:45:00 PM 8.54 47.372 0.029 6.57 1.97 11.34
5/4/2023 11:00:00 PM 8.52 47.336 0.029 6.56 2.16 11.34
5/4/2023 11:15:00 PM 8.48 47.264 0.029 6.55 2 11.35
5/4/2023 11:30:00 PM 8.46 47.228 0.029 6.57 2.01 11.36
5/4/2023 11:45:00 PM 8.43 47.174 0.029 6.56 2.02 11.37
5/5/2023 12:00:00 AM 8.4 47.12 0.029 6.55 1.97 11.38
5/5/2023 12:15:00 AM 8.37 47.066 0.029 6.56 1.93 11.39
5/5/2023 12:30:00 AM 8.34 47.012 0.029 6.56 1.97 11.4
5/5/2023 12:45:00 AM 8.32 46.976 0.029 6.56 2 11.41
5/5/2023 1:00:00 AM 8.29 46.922 0.029 6.55 2.01 11.42
5/5/2023 1:15:00 AM 8.26 46.868 0.029 6.57 2 11.43
5/5/2023 1:30:00 AM 8.23 46.814 0.029 6.55 1.92 11.44
5/5/2023 1:45:00 AM 8.2 46.76 0.029 6.56 1.91 11.45
5/5/2023 2:00:00 AM 8.18 46.724 0.029 6.55 1.98 11.45
5/5/2023 2:15:00 AM 8.14 46.652 0.029 6.56 1.98 11.46
5/5/2023 2:30:00 AM 8.11 46.598 0.029 6.56 2.13 11.47
5/5/2023 2:45:00 AM 8.07 46.526 0.029 6.56 1.97 11.48
5/5/2023 3:00:00 AM 8.04 46.472 0.029 6.56 1.91 11.5
5/5/2023 3:15:00 AM 8 46.4 0.029 6.56 2.01 11.51
5/5/2023 3:30:00 AM 7.97 46.346 0.029 6.56 1.98 11.51
5/5/2023 3:45:00 AM 7.93 46.274 0.029 6.57 2.01 11.53
5/5/2023 4:00:00 AM 7.88 46.184 0.029 6.55 1.97 11.54
5/5/2023 4:15:00 AM 7.83 46.094 0.029 6.56 1.94 11.56
5/5/2023 4:30:00 AM 7.79 46.022 0.029 6.57 1.99 11.57
5/5/2023 4:45:00 AM 7.75 45.95 0.029 6.55 1.87 11.58
5/5/2023 5:00:00 AM 7.69 45.842 0.029 6.55 1.93 11.6
5/5/2023 5:15:00 AM 7.64 45.752 0.029 6.55 1.89 11.61
5/5/2023 5:30:00 AM 7.59 45.662 0.029 6.56 2.11 11.63
5/5/2023 5:45:00 AM 7.54 45.572 0.029 6.54 1.93 11.65
5/5/2023 6:00:00 AM 7.49 45.482 0.029 6.55 1.9 11.66
5/5/2023 6:15:00 AM 7.44 45.392 0.029 6.55 1.97 11.69
5/5/2023 6:30:00 AM 7.39 45.302 0.029 6.57 2.21 11.71
5/5/2023 6:45:00 AM 7.35 45.23 0.029 6.57 1.9 11.73
5/5/2023 7:00:00 AM 7.31 45.158 0.029 6.56 1.93 11.75
5/5/2023 7:15:00 AM 7.27 45.086 0.029 6.55 1.93 11.77
5/5/2023 7:30:00 AM 7.23 45.014 0.029 6.57 1.9 11.79
5/5/2023 7:45:00 AM 7.21 44.978 0.029 6.56 1.91 11.81
5/5/2023 8:00:00 AM 7.21 44.978 0.029 6.58 1.82 11.83
5/5/2023 8:15:00 AM 7.21 44.978 0.029 6.55 1.9 11.84
5/5/2023 8:30:00 AM 7.22 44.996 0.029 6.58 2.01 11.85
5/5/2023 8:45:00 AM 7.24 45.032 0.029 6.58 1.91 11.86
5/5/2023 9:00:00 AM 7.27 45.086 0.029 6.59 1.82 11.86
5/5/2023 9:15:00 AM 7.32 45.176 0.029 6.59 1.83 11.84
5/5/2023 9:30:00 AM 7.39 45.302 0.029 6.59 1.83 11.84
5/5/2023 9:45:00 AM 7.43 45.374 0.029 6.59 1.8 11.82
5/5/2023 10:00:00 AM 7.5 45.5 0.029 6.6 1.79 11.82
5/5/2023 10:15:00 AM 7.64 45.752 0.029 6.6 1.75 11.8
5/5/2023 10:30:00 AM 7.78 46.004 0.029 6.62 1.8 11.77
5/5/2023 10:45:00 AM 7.95 46.31 0.029 6.61 1.82 11.74
5/5/2023 11:00:00 AM 8.05 46.49 0.029 6.63 1.87 11.71
5/5/2023 11:15:00 AM 8.11 46.598 0.029 6.62 1.84 11.69
5/5/2023 11:30:00 AM 8.28 46.904 0.029 6.62 1.85 11.66
5/5/2023 11:45:00 AM 8.31 46.958 0.029 6.64 1.72 11.63
5/5/2023 12:00:00 PM 8.42 47.156 0.029 6.63 1.89 11.61
5/5/2023 12:15:00 PM 8.48 47.264 0.029 6.62 1.76 11.58
5/5/2023 12:30:00 PM 8.63 47.534 0.029 6.63 1.81 11.56
5/5/2023 12:45:00 PM 8.69 47.642 0.029 6.63 1.8 11.52
5/5/2023 1:00:00 PM 8.7 47.66 0.029 6.63 1.81 11.49
5/5/2023 1:15:00 PM 8.74 47.732 0.029 6.63 1.77 11.48
5/5/2023 1:30:00 PM 8.77 47.786 0.029 6.63 1.98 11.48
5/5/2023 1:45:00 PM 8.94 48.092 0.029 6.64 1.79 11.47
5/5/2023 2:00:00 PM 8.96 48.128 0.029 6.62 2.05 11.43
5/5/2023 2:15:00 PM 9.04 48.272 0.029 6.63 1.74 11.41
5/5/2023 2:30:00 PM 9.21 48.578 0.029 6.63 1.77 11.4
5/5/2023 2:45:00 PM 9.32 48.776 0.029 6.64 1.74 11.35
5/5/2023 3:00:00 PM 9.39 48.902 0.029 6.64 1.79 11.32
5/5/2023 3:15:00 PM 9.45 49.01 0.029 6.64 1.86 11.31
5/5/2023 3:30:00 PM 9.51 49.118 0.029 6.63 1.81 11.28
5/5/2023 3:45:00 PM 9.54 49.172 0.029 6.64 1.74 11.28
5/5/2023 4:00:00 PM 9.59 49.262 0.029 6.65 1.86 11.25
5/5/2023 4:15:00 PM 9.62 49.316 0.029 6.64 1.75 11.23
5/5/2023 4:30:00 PM 9.63 49.334 0.029 6.64 1.8 11.22
5/5/2023 4:45:00 PM 9.62 49.316 0.029 6.64 1.77 11.22
5/5/2023 5:00:00 PM 9.63 49.334 0.029 6.64 1.89 11.2
5/5/2023 5:15:00 PM 9.63 49.334 0.029 6.63 2.02 11.21
5/5/2023 5:30:00 PM 9.63 49.334 0.029 6.63 1.79 11.21
5/5/2023 5:45:00 PM 9.6 49.28 0.029 6.62 1.79 11.2
5/5/2023 6:00:00 PM 9.58 49.244 0.029 6.62 1.77 11.19
5/5/2023 6:15:00 PM 9.58 49.244 0.029 6.61 1.74 11.18
5/5/2023 6:30:00 PM 9.57 49.226 0.029 6.61 1.79 11.18
5/5/2023 6:45:00 PM 9.54 49.172 0.029 6.6 1.81 11.17
5/5/2023 7:00:00 PM 9.51 49.118 0.029 6.6 1.81 11.16
5/5/2023 7:15:00 PM 9.49 49.082 0.029 6.59 1.85 11.16
5/5/2023 7:30:00 PM 9.45 49.01 0.029 6.58 1.76 11.17
5/5/2023 7:45:00 PM 9.41 48.938 0.029 6.59 1.87 11.17
5/5/2023 8:00:00 PM 9.36 48.848 0.029 6.59 1.81 11.18
5/5/2023 8:15:00 PM 9.31 48.758 0.029 6.58 1.76 11.18
5/5/2023 8:30:00 PM 9.26 48.668 0.029 6.58 1.9 11.18
5/5/2023 8:45:00 PM 9.21 48.578 0.029 6.56 1.78 11.2
5/5/2023 9:00:00 PM 9.16 48.488 0.029 6.59 1.98 11.22
5/5/2023 9:15:00 PM 9.11 48.398 0.029 6.56 1.84 11.23
5/5/2023 9:30:00 PM 9.06 48.308 0.029 6.58 1.93 11.25
5/5/2023 9:45:00 PM 9 48.2 0.029 6.57 1.88 11.27
5/5/2023 10:00:00 PM 8.94 48.092 0.029 6.58 2.07 11.28
5/5/2023 10:15:00 PM 8.89 48.002 0.029 6.56 1.94 11.3
5/5/2023 10:30:00 PM 8.84 47.912 0.029 6.57 1.96 11.31
5/5/2023 10:45:00 PM 8.79 47.822 0.029 6.58 1.88 11.33
5/5/2023 11:00:00 PM 8.74 47.732 0.029 6.56 1.89 11.34
5/5/2023 11:15:00 PM 8.69 47.642 0.029 6.57 2.04 11.36
5/5/2023 11:30:00 PM 8.63 47.534 0.029 6.56 1.95 11.37
5/5/2023 11:45:00 PM 8.58 47.444 0.029 6.58 2.06 11.39
5/6/2023 12:00:00 AM 8.53 47.354 0.029 6.56 2.06 11.4
5/6/2023 12:15:00 AM 8.47 47.246 0.029 6.55 1.91 11.42
5/6/2023 12:30:00 AM 8.42 47.156 0.029 6.56 2.31 11.43
5/6/2023 12:45:00 AM 8.37 47.066 0.029 6.56 1.93 11.45
5/6/2023 1:00:00 AM 8.33 46.994 0.029 6.55 1.78 11.46
5/6/2023 1:15:00 AM 8.28 46.904 0.029 6.54 1.91 11.48
5/6/2023 1:30:00 AM 8.22 46.796 0.029 6.57 1.94 11.5
5/6/2023 1:45:00 AM 8.17 46.706 0.029 6.54 1.85 11.51
5/6/2023 2:00:00 AM 8.12 46.616 0.029 6.56 1.88 11.53
5/6/2023 2:15:00 AM 8.07 46.526 0.029 6.53 1.87 11.54
5/6/2023 2:30:00 AM 8.02 46.436 0.029 6.55 1.86 11.55
5/6/2023 2:45:00 AM 7.98 46.364 0.029 6.55 1.9 11.56
5/6/2023 3:00:00 AM 7.94 46.292 0.029 6.55 1.92 11.58
5/6/2023 3:15:00 AM 7.89 46.202 0.029 6.56 1.89 11.59
5/6/2023 3:30:00 AM 7.83 46.094 0.029 6.56 1.86 11.61
5/6/2023 3:45:00 AM 7.78 46.004 0.029 6.56 1.89 11.62
5/6/2023 4:00:00 AM 7.74 45.932 0.029 6.56 1.99 11.64
5/6/2023 4:15:00 AM 7.7 45.86 0.029 6.56 1.89 11.65
5/6/2023 4:30:00 AM 7.65 45.77 0.029 6.55 1.89 11.66
5/6/2023 4:45:00 AM 7.61 45.698 0.029 6.54 1.92 11.67
5/6/2023 5:00:00 AM 7.57 45.626 0.029 6.56 1.91 11.69
5/6/2023 5:15:00 AM 7.52 45.536 0.029 6.55 1.85 11.7
5/6/2023 5:30:00 AM 7.48 45.464 0.029 6.55 1.89 11.72
5/6/2023 5:45:00 AM 7.43 45.374 0.029 6.56 1.88 11.74
5/6/2023 6:00:00 AM 7.39 45.302 0.029 6.55 1.88 11.75
5/6/2023 6:15:00 AM 7.35 45.23 0.029 6.55 1.8 11.77
5/6/2023 6:30:00 AM 7.32 45.176 0.029 6.55 1.8 11.78
5/6/2023 6:45:00 AM 7.28 45.104 0.029 6.57 1.87 11.8
5/6/2023 7:00:00 AM 7.25 45.05 0.029 6.57 1.74 11.82
5/6/2023 7:15:00 AM 7.22 44.996 0.029 6.56 1.82 11.84
5/6/2023 7:30:00 AM 7.19 44.942 0.029 6.56 1.74 11.85
5/6/2023 7:45:00 AM 7.18 44.924 0.029 6.58 1.71 11.87
5/6/2023 8:00:00 AM 7.18 44.924 0.029 6.56 1.75 11.88
5/6/2023 8:15:00 AM 7.18 44.924 0.029 6.57 1.74 11.89
5/6/2023 8:30:00 AM 7.2 44.96 0.029 6.58 1.71 11.9
5/6/2023 8:45:00 AM 7.24 45.032 0.029 6.58 1.75 11.9
5/6/2023 9:00:00 AM 7.29 45.122 0.029 6.6 1.75 11.9
5/6/2023 9:15:00 AM 7.36 45.248 0.029 6.6 1.79 11.89
5/6/2023 9:30:00 AM 7.45 45.41 0.029 6.6 1.69 11.87
5/6/2023 9:45:00 AM 7.56 45.608 0.029 6.61 1.71 11.85
5/6/2023 10:00:00 AM 7.68 45.824 0.029 6.61 1.63 11.83
5/6/2023 10:15:00 AM 7.82 46.076 0.029 6.61 1.73 11.79
5/6/2023 10:30:00 AM 7.98 46.364 0.029 6.63 1.66 11.75
5/6/2023 10:45:00 AM 8.15 46.67 0.029 6.61 1.68 11.71
5/6/2023 11:00:00 AM 8.33 46.994 0.029 6.64 1.63 11.67
5/6/2023 11:15:00 AM 8.52 47.336 0.029 6.63 1.72 11.62
5/6/2023 11:30:00 AM 8.73 47.714 0.029 6.65 1.8 11.57
5/6/2023 11:45:00 AM 8.96 48.128 0.029 6.64 1.7 11.52
5/6/2023 12:00:00 PM 9.22 48.596 0.029 6.66 1.68 11.47
5/6/2023 12:15:00 PM 9.43 48.974 0.029 6.65 1.76 11.4
5/6/2023 12:30:00 PM 9.73 49.514 0.029 6.66 1.74 11.34
5/6/2023 12:45:00 PM 9.95 49.91 0.029 6.66 1.71 11.27
5/6/2023 1:00:00 PM 10.12 50.216 0.029 6.66 1.72 11.19
5/6/2023 1:15:00 PM 10.32 50.576 0.029 6.67 1.7 11.15
5/6/2023 1:30:00 PM 10.48 50.864 0.029 6.65 1.75 11.11
5/6/2023 1:45:00 PM 10.41 50.738 0.029 6.67 1.84 11.09
5/6/2023 2:00:00 PM 10.56 51.008 0.029 6.68 1.77 11.08
5/6/2023 2:15:00 PM 10.69 51.242 0.029 6.65 1.7 11.04
5/6/2023 2:30:00 PM 10.82 51.476 0.029 6.68 1.71 11
5/6/2023 2:45:00 PM 10.82 51.476 0.029 6.67 1.74 10.98
5/6/2023 3:00:00 PM 10.87 51.566 0.029 6.67 1.82 10.97
5/6/2023 3:15:00 PM 10.9 51.62 0.029 6.67 1.73 10.95
5/6/2023 3:30:00 PM 10.95 51.71 0.029 6.68 1.71 10.93
5/6/2023 3:45:00 PM 11.02 51.836 0.029 6.68 1.73 10.91
5/6/2023 4:00:00 PM 11.02 51.836 0.029 6.67 1.69 10.89
5/6/2023 4:15:00 PM 11.02 51.836 0.029 6.67 1.75 10.89
5/6/2023 4:30:00 PM 11.01 51.818 0.029 6.67 1.76 10.87
5/6/2023 4:45:00 PM 10.99 51.782 0.029 6.65 1.83 10.85
5/6/2023 5:00:00 PM 10.97 51.746 0.029 6.66 1.76 10.85
5/6/2023 5:15:00 PM 10.95 51.71 0.029 6.64 1.82 10.84
5/6/2023 5:30:00 PM 10.93 51.674 0.029 6.65 1.72 10.83
5/6/2023 5:45:00 PM 10.91 51.638 0.029 6.63 1.85 10.83
5/6/2023 6:00:00 PM 10.89 51.602 0.029 6.63 1.79 10.82
5/6/2023 6:15:00 PM 10.87 51.566 0.029 6.63 1.78 10.81
5/6/2023 6:30:00 PM 10.85 51.53 0.029 6.62 1.79 10.81
5/6/2023 6:45:00 PM 10.83 51.494 0.029 6.62 1.98 10.8
5/6/2023 7:00:00 PM 10.81 51.458 0.029 6.62 1.96 10.8
5/6/2023 7:15:00 PM 10.78 51.404 0.029 6.61 1.76 10.8
5/6/2023 7:30:00 PM 10.75 51.35 0.029 6.61 1.92 10.8
5/6/2023 7:45:00 PM 10.72 51.296 0.029 6.6 1.84 10.8
5/6/2023 8:00:00 PM 10.68 51.224 0.029 6.6 1.84 10.81
5/6/2023 8:15:00 PM 10.63 51.134 0.029 6.57 1.86 10.81
5/6/2023 8:30:00 PM 10.59 51.062 0.029 6.6 1.83 10.82
5/6/2023 8:45:00 PM 10.54 50.972 0.029 6.6 1.94 10.82
5/6/2023 9:00:00 PM 10.48 50.864 0.029 6.59 1.97 10.84
5/6/2023 9:15:00 PM 10.42 50.756 0.029 6.6 1.89 10.85
5/6/2023 9:30:00 PM 10.36 50.648 0.029 6.6 1.95 10.86
5/6/2023 9:45:00 PM 10.3 50.54 0.029 6.59 1.9 10.88
5/6/2023 10:00:00 PM 10.23 50.414 0.029 6.6 1.88 10.9
5/6/2023 10:15:00 PM 10.16 50.288 0.029 6.62 1.99 10.92
5/6/2023 10:30:00 PM 10.1 50.18 0.029 6.59 1.98 10.94
5/6/2023 10:45:00 PM 10.03 50.054 0.029 6.59 1.85 10.95
5/6/2023 11:00:00 PM 9.97 49.946 0.029 6.62 2.07 10.97
5/6/2023 11:15:00 PM 9.9 49.82 0.029 6.56 2.1 10.99
5/6/2023 11:30:00 PM 9.84 49.712 0.029 6.57 2.12 11
5/6/2023 11:45:00 PM 9.77 49.586 0.029 6.58 2.08 11.02
5/7/2023 12:00:00 AM 9.71 49.478 0.029 6.56 2.05 11.04
5/7/2023 12:15:00 AM 9.65 49.37 0.029 6.58 2.11 11.05
5/7/2023 12:30:00 AM 9.59 49.262 0.029 6.59 2.03 11.07
5/7/2023 12:45:00 AM 9.53 49.154 0.029 6.57 2.16 11.08
5/7/2023 1:00:00 AM 9.47 49.046 0.029 6.59 2.06 11.1
5/7/2023 1:15:00 AM 9.4 48.92 0.029 6.59 2.1 11.12
5/7/2023 1:30:00 AM 9.34 48.812 0.029 6.56 2.06 11.13
5/7/2023 1:45:00 AM 9.28 48.704 0.029 6.58 2.11 11.15
5/7/2023 2:00:00 AM 9.23 48.614 0.029 6.59 2 11.16
5/7/2023 2:15:00 AM 9.17 48.506 0.029 6.59 2.05 11.18
5/7/2023 2:30:00 AM 9.11 48.398 0.029 6.59 2.19 11.19
5/7/2023 2:45:00 AM 9.06 48.308 0.029 6.57 2.14 11.21
5/7/2023 3:00:00 AM 9 48.2 0.029 6.58 2.35 11.22
5/7/2023 3:15:00 AM 8.94 48.092 0.029 6.56 1.77 11.24
5/7/2023 3:30:00 AM 8.89 48.002 0.029 6.59 1.75 11.25
5/7/2023 3:45:00 AM 8.83 47.894 0.029 6.58 1.74 11.27
5/7/2023 4:00:00 AM 8.78 47.804 0.029 6.57 1.81 11.28
5/7/2023 4:15:00 AM 8.73 47.714 0.029 6.57 1.78 11.29
5/7/2023 4:30:00 AM 8.68 47.624 0.029 6.57 1.76 11.31
5/7/2023 4:45:00 AM 8.62 47.516 0.029 6.58 1.7 11.32
5/7/2023 5:00:00 AM 8.57 47.426 0.029 6.58 1.78 11.34
5/7/2023 5:15:00 AM 8.52 47.336 0.029 6.58 1.75 11.35
5/7/2023 5:30:00 AM 8.47 47.246 0.029 6.58 1.68 11.36
5/7/2023 5:45:00 AM 8.42 47.156 0.029 6.57 1.7 11.38
5/7/2023 6:00:00 AM 8.37 47.066 0.029 6.58 1.74 11.39
5/7/2023 6:15:00 AM 8.32 46.976 0.029 6.59 1.82 11.41
5/7/2023 6:30:00 AM 8.27 46.886 0.029 6.57 1.61 11.43
5/7/2023 6:45:00 AM 8.23 46.814 0.029 6.59 1.69 11.44
5/7/2023 7:00:00 AM 8.19 46.742 0.029 6.58 1.63 11.46
5/7/2023 7:15:00 AM 8.15 46.67 0.029 6.55 1.67 11.48
5/7/2023 7:30:00 AM 8.12 46.616 0.029 6.59 1.74 11.5
5/7/2023 7:45:00 AM 8.1 46.58 0.029 6.59 1.64 11.51
5/7/2023 8:00:00 AM 8.1 46.58 0.029 6.6 1.74 11.53
5/7/2023 8:15:00 AM 8.11 46.598 0.029 6.59 1.63 11.55
5/7/2023 8:30:00 AM 8.13 46.634 0.029 6.62 1.6 11.57
5/7/2023 8:45:00 AM 8.15 46.67 0.029 6.62 1.6 11.57
5/7/2023 9:00:00 AM 8.2 46.76 0.029 6.62 1.59 11.58
5/7/2023 9:15:00 AM 8.28 46.904 0.029 6.64 1.59 11.58
5/7/2023 9:30:00 AM 8.37 47.066 0.029 6.66 1.56 11.57
5/7/2023 9:45:00 AM 8.46 47.228 0.029 6.68 1.57 11.55
5/7/2023 10:00:00 AM 8.56 47.408 0.029 6.66 1.51 11.53
5/7/2023 10:15:00 AM 8.66 47.588 0.029 6.66 1.56 11.5
5/7/2023 10:30:00 AM 8.77 47.786 0.029 6.68 1.59 11.48
5/7/2023 10:45:00 AM 8.88 47.984 0.029 6.68 1.47 11.45
5/7/2023 11:00:00 AM 8.98 48.164 0.029 6.69 1.53 11.42
5/7/2023 11:15:00 AM 9.08 48.344 0.029 6.69 1.51 11.39
5/7/2023 11:30:00 AM 9.18 48.524 0.029 6.65 1.46 11.36
5/7/2023 11:45:00 AM 9.27 48.686 0.029 6.68 1.31 11.33
5/7/2023 12:00:00 PM 9.35 48.83 0.029 6.67 1.34 11.31
5/7/2023 12:15:00 PM 9.44 48.992 0.029 6.68 1.4 11.28
5/7/2023 12:30:00 PM 9.52 49.136 0.029 6.68 1.39 11.26
5/7/2023 12:45:00 PM 9.66 49.388 0.029 6.7 1.39 11.24
5/7/2023 1:00:00 PM 9.79 49.622 0.029 6.68 1.41 11.21
5/7/2023 1:15:00 PM 9.89 49.802 0.029 6.7 1.4 11.18
5/7/2023 1:30:00 PM 9.96 49.928 0.029 6.69 1.56 11.14
5/7/2023 1:45:00 PM 10.06 50.108 0.029 6.7 1.44 11.12
5/7/2023 2:00:00 PM 10.12 50.216 0.029 6.66 1.42 11.09
5/7/2023 2:15:00 PM 10.17 50.306 0.029 6.69 1.44 11.06
5/7/2023 2:30:00 PM 10.18 50.324 0.029 6.69 1.42 11.02
5/7/2023 2:45:00 PM 10.17 50.306 0.029 6.67 1.46 10.98
5/7/2023 3:00:00 PM 10.16 50.288 0.029 6.64 1.52 10.96
5/7/2023 3:15:00 PM 10.14 50.252 0.029 6.63 1.56 10.95
5/7/2023 3:30:00 PM 10.12 50.216 0.029 6.64 1.45 10.94
5/7/2023 3:45:00 PM 10.1 50.18 0.029 6.64 1.46 10.94
5/7/2023 4:00:00 PM 10.08 50.144 0.029 6.61 1.51 10.93
5/7/2023 4:15:00 PM 10.05 50.09 0.029 6.63 1.55 10.93
5/7/2023 4:30:00 PM 10.03 50.054 0.029 6.62 1.49 10.94
5/7/2023 4:45:00 PM 10.02 50.036 0.029 6.6 1.48 10.94
5/7/2023 5:00:00 PM 10 50 0.029 6.62 1.52 10.94
5/7/2023 5:15:00 PM 9.98 49.964 0.029 6.6 1.53 10.94
5/7/2023 5:30:00 PM 9.98 49.964 0.029 6.58 1.47 10.95
5/7/2023 5:45:00 PM 9.98 49.964 0.029 6.61 1.61 10.96
5/7/2023 6:00:00 PM 9.99 49.982 0.029 6.59 1.57 10.96
5/7/2023 6:15:00 PM 10 50 0.029 6.58 1.56 10.95
5/7/2023 6:30:00 PM 10 50 0.029 6.6 1.51 10.95
5/7/2023 6:45:00 PM 10 50 0.029 6.6 1.44 10.93
5/7/2023 7:00:00 PM 9.98 49.964 0.029 6.6 1.48 10.91
5/7/2023 7:15:00 PM 9.98 49.964 0.029 6.58 1.47 10.92
5/7/2023 7:30:00 PM 9.96 49.928 0.029 6.57 1.44 10.91
5/7/2023 7:45:00 PM 9.95 49.91 0.029 6.57 1.52 10.9
5/7/2023 8:00:00 PM 9.93 49.874 0.029 6.58 1.44 10.89
5/7/2023 8:15:00 PM 9.92 49.856 0.029 6.58 1.46 10.88
5/7/2023 8:30:00 PM 9.91 49.838 0.029 6.54 1.47 10.88
5/7/2023 8:45:00 PM 9.89 49.802 0.029 6.56 1.51 10.88
5/7/2023 9:00:00 PM 9.87 49.766 0.03 6.54 1.54 10.88
5/7/2023 9:15:00 PM 9.86 49.748 0.03 6.53 1.48 10.89
5/7/2023 9:30:00 PM 9.84 49.712 0.03 6.54 1.67 10.89
5/7/2023 9:45:00 PM 9.83 49.694 0.03 6.54 1.5 10.89
5/7/2023 10:00:00 PM 9.81 49.658 0.03 6.54 1.55 10.89
5/7/2023 10:15:00 PM 9.79 49.622 0.03 6.53 1.53 10.9
5/7/2023 10:30:00 PM 9.77 49.586 0.03 6.52 1.63 10.9
5/7/2023 10:45:00 PM 9.75 49.55 0.03 6.52 1.6 10.9
5/7/2023 11:00:00 PM 9.73 49.514 0.03 6.53 1.61 10.91
5/7/2023 11:15:00 PM 9.71 49.478 0.03 6.52 1.56 10.91
5/7/2023 11:30:00 PM 9.7 49.46 0.03 6.5 1.59 10.91
5/7/2023 11:45:00 PM 9.68 49.424 0.03 6.51 1.53 10.92
5/8/2023 12:00:00 AM 9.66 49.388 0.03 6.51 1.61 10.91
5/8/2023 12:15:00 AM 9.64 49.352 0.03 6.51 1.54 10.92
5/8/2023 12:30:00 AM 9.63 49.334 0.03 6.51 1.53 10.93
5/8/2023 12:45:00 AM 9.61 49.298 0.03 6.52 1.57 10.93
5/8/2023 1:00:00 AM 9.59 49.262 0.03 6.52 1.59 10.94
5/8/2023 1:15:00 AM 9.58 49.244 0.03 6.52 1.56 10.94
5/8/2023 1:30:00 AM 9.57 49.226 0.03 6.53 1.49 10.94
5/8/2023 1:45:00 AM 9.55 49.19 0.03 6.53 1.57 10.95
5/8/2023 2:00:00 AM 9.54 49.172 0.03 6.52 1.53 10.95
5/8/2023 2:15:00 AM 9.52 49.136 0.03 6.53 1.56 10.95
5/8/2023 2:30:00 AM 9.5 49.1 0.03 6.52 1.76 10.96
5/8/2023 2:45:00 AM 9.48 49.064 0.03 6.52 1.53 10.96
5/8/2023 3:00:00 AM 9.47 49.046 0.03 6.51 1.71 10.96
5/8/2023 3:15:00 AM 9.46 49.028 0.03 6.52 1.56 10.97
5/8/2023 3:30:00 AM 9.45 49.01 0.03 6.52 1.49 10.97
5/8/2023 3:45:00 AM 9.44 48.992 0.03 6.52 1.53 10.97
5/8/2023 4:00:00 AM 9.44 48.992 0.03 6.53 1.61 10.97
5/8/2023 4:15:00 AM 9.42 48.956 0.03 6.52 1.53 10.98
5/8/2023 4:30:00 AM 9.42 48.956 0.03 6.53 1.59 10.99
5/8/2023 4:45:00 AM 9.41 48.938 0.03 6.52 1.5 10.99
5/8/2023 5:00:00 AM 9.4 48.92 0.03 6.52 1.71 10.99
5/8/2023 5:15:00 AM 9.4 48.92 0.03 6.52 1.55 10.99
5/8/2023 5:30:00 AM 9.39 48.902 0.03 6.5 1.55 10.99
5/8/2023 5:45:00 AM 9.38 48.884 0.03 6.52 1.49 10.99
5/8/2023 6:00:00 AM 9.38 48.884 0.03 6.52 1.53 11
5/8/2023 6:15:00 AM 9.37 48.866 0.03 6.5 1.53 11.01
5/8/2023 6:30:00 AM 9.37 48.866 0.03 6.52 1.58 11.01
5/8/2023 6:45:00 AM 9.36 48.848 0.03 6.52 1.46 11.03
5/8/2023 7:00:00 AM 9.37 48.866 0.03 6.52 1.52 11.04
5/8/2023 7:15:00 AM 9.37 48.866 0.03 6.52 1.52 11.07
5/8/2023 7:30:00 AM 9.37 48.866 0.03 6.54 1.46 11.06
5/8/2023 7:45:00 AM 9.38 48.884 0.03 6.54 1.44 11.07
5/8/2023 8:00:00 AM 9.39 48.902 0.03 6.59 1.51 11.09
5/8/2023 8:15:00 AM 9.42 48.956 0.03 6.62 1.4 11.13
5/8/2023 8:30:00 AM 9.43 48.974 0.029 6.63 1.46 11.13
5/8/2023 8:45:00 AM 9.45 49.01 0.029 6.64 1.45 11.13
5/8/2023 9:00:00 AM 9.49 49.082 0.029 6.65 1.45 11.14
5/8/2023 9:15:00 AM 9.55 49.19 0.029 6.67 1.43 11.15
5/8/2023 9:30:00 AM 9.6 49.28 0.029 6.66 1.51 11.14
5/8/2023 9:45:00 AM 9.64 49.352 0.029 6.66 1.36 11.13
5/8/2023 10:00:00 AM 9.7 49.46 0.029 6.68 1.42 11.12
5/8/2023 10:15:00 AM 9.77 49.586 0.029 6.67 1.43 11.11
5/8/2023 10:30:00 AM 9.86 49.748 0.029 6.67 1.43 11.09
5/8/2023 10:45:00 AM 9.95 49.91 0.029 6.68 1.4 11.08
5/8/2023 11:00:00 AM 10.05 50.09 0.029 6.68 1.42 11.06
5/8/2023 11:15:00 AM 10.14 50.252 0.029 6.69 1.39 11.04
5/8/2023 11:30:00 AM 10.3 50.54 0.029 6.7 1.37 11.02
5/8/2023 11:45:00 AM 10.49 50.882 0.029 6.7 1.36 10.98
5/8/2023 12:00:00 PM 10.65 51.17 0.029 6.7 1.38 10.95
5/8/2023 12:15:00 PM 10.74 51.332 0.029 6.7 1.42 10.91
5/8/2023 12:30:00 PM 10.83 51.494 0.029 6.7 1.42 10.88
5/8/2023 12:45:00 PM 10.98 51.764 0.029 6.71 1.51 10.85
5/8/2023 1:00:00 PM 11.15 52.07 0.029 6.71 1.34 10.82
5/8/2023 1:15:00 PM 11.25 52.25 0.029 6.7 1.45 10.78
5/8/2023 1:30:00 PM 11.35 52.43 0.029 6.7 1.45 10.74
5/8/2023 1:45:00 PM 11.43 52.574 0.029 6.7 1.51 10.72
5/8/2023 2:00:00 PM 11.56 52.808 0.029 6.71 1.38 10.71
5/8/2023 2:15:00 PM 11.68 53.024 0.029 6.72 1.46 10.69
5/8/2023 2:30:00 PM 11.77 53.186 0.029 6.71 1.42 10.65
5/8/2023 2:45:00 PM 11.9 53.42 0.029 6.72 1.62 10.63
5/8/2023 3:00:00 PM 12.01 53.618 0.029 6.72 1.56 10.61
5/8/2023 3:15:00 PM 12.06 53.708 0.029 6.71 1.5 10.57
5/8/2023 3:30:00 PM 12.05 53.69 0.029 6.71 1.6 10.55
5/8/2023 3:45:00 PM 12.05 53.69 0.029 6.7 1.45 10.54
5/8/2023 4:00:00 PM 12.04 53.672 0.029 6.71 1.47 10.53
5/8/2023 4:15:00 PM 12.04 53.672 0.029 6.7 1.52 10.53
5/8/2023 4:30:00 PM 12.04 53.672 0.029 6.71 1.54 10.52
5/8/2023 4:45:00 PM 12.03 53.654 0.029 6.7 1.42 10.51
5/8/2023 5:00:00 PM 11.99 53.582 0.029 6.69 1.34 10.5
5/8/2023 5:15:00 PM 11.93 53.474 0.029 6.69 1.39 10.49
5/8/2023 5:30:00 PM 11.91 53.438 0.029 6.69 1.44 10.49
5/8/2023 5:45:00 PM 11.87 53.366 0.029 6.68 1.42 10.48
5/8/2023 6:00:00 PM 11.84 53.312 0.029 6.67 1.49 10.47
5/8/2023 6:15:00 PM 11.81 53.258 0.029 6.66 1.41 10.47
5/8/2023 6:30:00 PM 11.8 53.24 0.029 6.66 1.38 10.47
5/8/2023 6:45:00 PM 11.78 53.204 0.029 6.66 1.4 10.47
5/8/2023 7:00:00 PM 11.76 53.168 0.029 6.65 1.39 10.47
5/8/2023 7:15:00 PM 11.73 53.114 0.029 6.64 1.35 10.46
5/8/2023 7:30:00 PM 11.69 53.042 0.029 6.64 1.4 10.46
5/8/2023 7:45:00 PM 11.65 52.97 0.029 6.62 1.37 10.45
5/8/2023 8:00:00 PM 11.61 52.898 0.03 6.62 1.38 10.45
5/8/2023 8:15:00 PM 11.56 52.808 0.03 6.61 1.45 10.45
5/8/2023 8:30:00 PM 11.51 52.718 0.03 6.61 1.47 10.45
5/8/2023 8:45:00 PM 11.47 52.646 0.03 6.61 1.41 10.46
5/8/2023 9:00:00 PM 11.42 52.556 0.03 6.6 1.47 10.47
5/8/2023 9:15:00 PM 11.38 52.484 0.03 6.61 1.55 10.49
5/8/2023 9:30:00 PM 11.33 52.394 0.03 6.63 1.51 10.5
5/8/2023 9:45:00 PM 11.28 52.304 0.03 6.62 1.51 10.51
5/8/2023 10:00:00 PM 11.22 52.196 0.03 6.6 1.57 10.53
5/8/2023 10:15:00 PM 11.17 52.106 0.03 6.61 1.44 10.54
5/8/2023 10:30:00 PM 11.11 51.998 0.03 6.61 1.53 10.56
5/8/2023 10:45:00 PM 11.07 51.926 0.03 6.62 1.52 10.57
5/8/2023 11:00:00 PM 11.02 51.836 0.03 6.6 1.48 10.58
5/8/2023 11:15:00 PM 10.98 51.764 0.03 6.62 1.52 10.6
5/8/2023 11:30:00 PM 10.93 51.674 0.03 6.62 1.51 10.61
5/8/2023 11:45:00 PM 10.89 51.602 0.03 6.62 1.57 10.62
5/9/2023 12:00:00 AM 10.84 51.512 0.03 6.61 1.5 10.63
5/9/2023 12:15:00 AM 10.79 51.422 0.03 6.62 1.55 10.64
5/9/2023 12:30:00 AM 10.75 51.35 0.03 6.61 1.47 10.66
5/9/2023 12:45:00 AM 10.69 51.242 0.03 6.6 1.5 10.67
5/9/2023 1:00:00 AM 10.64 51.152 0.03 6.62 1.42 10.68
5/9/2023 1:15:00 AM 10.58 51.044 0.03 6.62 1.47 10.69
5/9/2023 1:30:00 AM 10.52 50.936 0.03 6.62 1.41 10.71
5/9/2023 1:45:00 AM 10.46 50.828 0.03 6.61 1.53 10.72
5/9/2023 2:00:00 AM 10.4 50.72 0.03 6.62 1.48 10.74
5/9/2023 2:15:00 AM 10.33 50.594 0.03 6.62 1.51 10.76
5/9/2023 2:30:00 AM 10.27 50.486 0.03 6.61 1.47 10.77
5/9/2023 2:45:00 AM 10.21 50.378 0.03 6.61 1.47 10.79
5/9/2023 3:00:00 AM 10.15 50.27 0.03 6.62 1.52 10.81
5/9/2023 3:15:00 AM 10.09 50.162 0.03 6.62 1.4 10.82
5/9/2023 3:30:00 AM 10.03 50.054 0.03 6.62 1.42 10.84
5/9/2023 3:45:00 AM 9.97 49.946 0.03 6.62 1.51 10.86
5/9/2023 4:00:00 AM 9.92 49.856 0.03 6.62 1.52 10.87
5/9/2023 4:15:00 AM 9.87 49.766 0.03 6.6 1.53 10.89
5/9/2023 4:30:00 AM 9.82 49.676 0.03 6.61 1.48 10.9
5/9/2023 4:45:00 AM 9.77 49.586 0.03 6.62 1.48 10.91
5/9/2023 5:00:00 AM 9.72 49.496 0.03 6.6 1.39 10.92
5/9/2023 5:15:00 AM 9.67 49.406 0.03 6.6 1.5 10.94
5/9/2023 5:30:00 AM 9.63 49.334 0.03 6.62 1.49 10.95
5/9/2023 5:45:00 AM 9.59 49.262 0.03 6.61 1.36 10.97
5/9/2023 6:00:00 AM 9.55 49.19 0.03 6.62 1.46 10.98
5/9/2023 6:15:00 AM 9.51 49.118 0.03 6.62 1.4 10.99
5/9/2023 6:30:00 AM 9.47 49.046 0.03 6.61 1.44 11
5/9/2023 6:45:00 AM 9.44 48.992 0.03 6.62 1.39 11.03
5/9/2023 7:00:00 AM 9.42 48.956 0.03 6.62 1.43 11.05
5/9/2023 7:15:00 AM 9.4 48.92 0.03 6.62 1.33 11.07
5/9/2023 7:30:00 AM 9.38 48.884 0.03 6.61 1.38 11.09
5/9/2023 7:45:00 AM 9.37 48.866 0.03 6.64 1.34 11.11
5/9/2023 8:00:00 AM 9.36 48.848 0.03 6.63 1.25 11.13
5/9/2023 8:15:00 AM 9.37 48.866 0.03 6.64 1.31 11.15
5/9/2023 8:30:00 AM 9.36 48.848 0.03 6.64 1.3 11.15
5/9/2023 8:45:00 AM 9.35 48.83 0.03 6.63 1.32 11.14
5/9/2023 9:00:00 AM 9.35 48.83 0.03 6.64 1.27 11.15
5/9/2023 9:15:00 AM 9.36 48.848 0.03 6.65 1.23 11.17
5/9/2023 9:30:00 AM 9.4 48.92 0.03 6.67 1.3 11.2
5/9/2023 9:45:00 AM 9.43 48.974 0.03 6.66 1.29 11.21
5/9/2023 10:00:00 AM 9.48 49.064 0.03 6.67 1.24 11.22
5/9/2023 10:15:00 AM 9.53 49.154 0.03 6.67 1.32 11.21
5/9/2023 10:30:00 AM 9.61 49.298 0.029 6.69 1.29 11.2
5/9/2023 10:45:00 AM 9.69 49.442 0.029 6.68 1.3 11.19
5/9/2023 11:00:00 AM 9.77 49.586 0.029 6.71 1.29 11.18
5/9/2023 11:15:00 AM 9.87 49.766 0.029 6.7 1.35 11.16
5/9/2023 11:30:00 AM 9.99 49.982 0.029 6.7 1.28 11.14
5/9/2023 11:45:00 AM 10.15 50.27 0.029 6.72 1.36 11.11
5/9/2023 12:00:00 PM 10.31 50.558 0.029 6.71 1.43 11.08
5/9/2023 12:15:00 PM 10.38 50.684 0.029 6.7 1.39 11.05
5/9/2023 12:30:00 PM 10.47 50.846 0.029 6.72 1.34 11.02
5/9/2023 12:45:00 PM 10.56 51.008 0.029 6.71 1.26 10.99
5/9/2023 1:00:00 PM 10.77 51.386 0.029 6.7 1.36 10.96
5/9/2023 1:15:00 PM 10.99 51.782 0.029 6.71 1.41 10.91
5/9/2023 1:30:00 PM 11.2 52.16 0.029 6.71 1.37 10.86
5/9/2023 1:45:00 PM 11.39 52.502 0.029 6.72 1.4 10.82
5/9/2023 2:00:00 PM 11.55 52.79 0.029 6.72 1.44 10.77
5/9/2023 2:15:00 PM 11.69 53.042 0.029 6.73 1.34 10.73
5/9/2023 2:30:00 PM 11.78 53.204 0.029 6.73 1.36 10.7
5/9/2023 2:45:00 PM 11.83 53.294 0.029 6.71 1.39 10.67
5/9/2023 3:00:00 PM 11.85 53.33 0.029 6.73 1.45 10.65
5/9/2023 3:15:00 PM 11.86 53.348 0.029 6.73 1.34 10.63
5/9/2023 3:30:00 PM 11.86 53.348 0.029 6.72 1.36 10.62
5/9/2023 3:45:00 PM 11.85 53.33 0.029 6.72 1.38 10.62
5/9/2023 4:00:00 PM 11.82 53.276 0.029 6.73 1.37 10.62
5/9/2023 4:15:00 PM 11.77 53.186 0.029 6.72 1.35 10.62
5/9/2023 4:30:00 PM 11.71 53.078 0.029 6.72 1.33 10.63
5/9/2023 4:45:00 PM 11.65 52.97 0.029 6.72 1.44 10.64
5/9/2023 5:00:00 PM 11.59 52.862 0.029 6.72 1.33 10.65
5/9/2023 5:15:00 PM 11.53 52.754 0.029 6.71 1.34 10.66
5/9/2023 5:30:00 PM 11.48 52.664 0.029 6.7 1.35 10.66
5/9/2023 5:45:00 PM 11.44 52.592 0.029 6.71 1.34 10.65
5/9/2023 6:00:00 PM 11.4 52.52 0.029 6.69 1.36 10.65
5/9/2023 6:15:00 PM 11.36 52.448 0.029 6.68 1.28 10.65
5/9/2023 6:30:00 PM 11.31 52.358 0.03 6.69 1.28 10.65
5/9/2023 6:45:00 PM 11.25 52.25 0.03 6.68 1.3 10.65
5/9/2023 7:00:00 PM 11.21 52.178 0.03 6.67 1.22 10.65
5/9/2023 7:15:00 PM 11.18 52.124 0.03 6.63 1.25 10.64
5/9/2023 7:30:00 PM 11.13 52.034 0.03 6.65 1.34 10.64
5/9/2023 7:45:00 PM 11.1 51.98 0.03 6.63 1.27 10.63
5/9/2023 8:00:00 PM 11.06 51.908 0.03 6.63 1.31 10.63
5/9/2023 8:15:00 PM 11.02 51.836 0.03 6.62 1.26 10.63
5/9/2023 8:30:00 PM 10.96 51.728 0.03 6.61 1.29 10.64
5/9/2023 8:45:00 PM 10.89 51.602 0.03 6.62 1.26 10.66
5/9/2023 9:00:00 PM 10.83 51.494 0.03 6.62 1.3 10.67
5/9/2023 9:15:00 PM 10.78 51.404 0.03 6.62 1.34 10.69
5/9/2023 9:30:00 PM 10.71 51.278 0.03 6.63 1.29 10.7
5/9/2023 9:45:00 PM 10.65 51.17 0.03 6.62 1.33 10.72
5/9/2023 10:00:00 PM 10.58 51.044 0.03 6.61 1.27 10.74
5/9/2023 10:15:00 PM 10.51 50.918 0.03 6.63 1.37 10.76
5/9/2023 10:30:00 PM 10.43 50.774 0.03 6.62 1.43 10.78
5/9/2023 10:45:00 PM 10.35 50.63 0.03 6.63 1.36 10.81
5/9/2023 11:00:00 PM 10.26 50.468 0.03 6.62 1.38 10.83
5/9/2023 11:15:00 PM 10.18 50.324 0.03 6.62 1.38 10.85
5/9/2023 11:30:00 PM 10.09 50.162 0.03 6.61 1.37 10.87
5/9/2023 11:45:00 PM 10.01 50.018 0.03 6.63 1.42 10.89
5/10/2023 12:00:00 AM 9.93 49.874 0.03 6.62 1.39 10.92
5/10/2023 12:15:00 AM 9.85 49.73 0.03 6.63 1.45 10.94
5/10/2023 12:30:00 AM 9.78 49.604 0.03 6.63 1.44 10.96
5/10/2023 12:45:00 AM 9.71 49.478 0.03 6.62 1.47 10.98
5/10/2023 1:00:00 AM 9.65 49.37 0.03 6.6 1.37 11
5/10/2023 1:15:00 AM 9.58 49.244 0.03 6.62 1.48 11.02
5/10/2023 1:30:00 AM 9.51 49.118 0.03 6.61 1.39 11.04
5/10/2023 1:45:00 AM 9.44 48.992 0.03 6.6 1.32 11.05
5/10/2023 2:00:00 AM 9.36 48.848 0.03 6.61 1.28 11.08
5/10/2023 2:15:00 AM 9.29 48.722 0.03 6.62 1.45 11.09
5/10/2023 2:30:00 AM 9.23 48.614 0.03 6.61 1.37 11.11
5/10/2023 2:45:00 AM 9.16 48.488 0.03 6.6 1.42 11.13
5/10/2023 3:00:00 AM 9.09 48.362 0.03 6.61 1.38 11.15
5/10/2023 3:15:00 AM 9.03 48.254 0.03 6.61 1.39 11.17
5/10/2023 3:30:00 AM 8.96 48.128 0.03 6.59 1.41 11.19
5/10/2023 3:45:00 AM 8.9 48.02 0.03 6.61 1.41 11.21
5/10/2023 4:00:00 AM 8.84 47.912 0.03 6.59 1.43 11.23
5/10/2023 4:15:00 AM 8.78 47.804 0.03 6.61 1.3 11.25
5/10/2023 4:30:00 AM 8.72 47.696 0.03 6.61 1.32 11.27
5/10/2023 4:45:00 AM 8.66 47.588 0.03 6.6 1.29 11.28
5/10/2023 5:00:00 AM 8.6 47.48 0.03 6.61 1.32 11.3
5/10/2023 5:15:00 AM 8.54 47.372 0.03 6.61 1.33 11.32
5/10/2023 5:30:00 AM 8.48 47.264 0.03 6.61 1.37 11.33
5/10/2023 5:45:00 AM 8.42 47.156 0.03 6.6 1.37 11.36
5/10/2023 6:00:00 AM 8.36 47.048 0.03 6.61 1.25 11.37
5/10/2023 6:15:00 AM 8.3 46.94 0.03 6.61 1.34 11.39
5/10/2023 6:30:00 AM 8.24 46.832 0.03 6.61 1.34 11.42
5/10/2023 6:45:00 AM 8.19 46.742 0.03 6.6 1.24 11.45
5/10/2023 7:00:00 AM 8.14 46.652 0.03 6.62 1.22 11.48
5/10/2023 7:15:00 AM 8.09 46.562 0.03 6.6 1.26 11.51
5/10/2023 7:30:00 AM 8.05 46.49 0.03 6.62 1.24 11.53
5/10/2023 7:45:00 AM 8.02 46.436 0.03 6.62 1.23 11.55
5/10/2023 8:00:00 AM 8.01 46.418 0.03 6.63 1.21 11.58
5/10/2023 8:15:00 AM 8.01 46.418 0.03 6.64 1.27 11.59
5/10/2023 8:30:00 AM 8.01 46.418 0.03 6.65 1.19 11.6
5/10/2023 8:45:00 AM 8.03 46.454 0.03 6.64 1.18 11.61
5/10/2023 9:00:00 AM 8.06 46.508 0.03 6.66 1.27 11.61
5/10/2023 9:15:00 AM 8.11 46.598 0.03 6.65 1.2 11.62
5/10/2023 9:30:00 AM 8.18 46.724 0.03 6.67 1.23 11.61
5/10/2023 9:45:00 AM 8.26 46.868 0.03 6.66 1.21 11.6
5/10/2023 10:00:00 AM 8.36 47.048 0.03 6.68 1.19 11.58
5/10/2023 10:15:00 AM 8.47 47.246 0.03 6.68 1.18 11.56
5/10/2023 10:30:00 AM 8.6 47.48 0.03 6.68 1.18 11.54
5/10/2023 10:45:00 AM 8.75 47.75 0.03 6.69 1.17 11.51
5/10/2023 11:00:00 AM 8.91 48.038 0.03 6.69 1.19 11.47
5/10/2023 11:15:00 AM 9.08 48.344 0.03 6.7 1.11 11.44
5/10/2023 11:30:00 AM 9.26 48.668 0.03 6.71 1.17 11.4
5/10/2023 11:45:00 AM 9.47 49.046 0.03 6.71 1.13 11.34
5/10/2023 12:00:00 PM 9.69 49.442 0.03 6.72 1.17 11.3
5/10/2023 12:15:00 PM 9.92 49.856 0.029 6.72 1.26 11.25
5/10/2023 12:30:00 PM 10.15 50.27 0.029 6.72 1.22 11.19
5/10/2023 12:45:00 PM 10.38 50.684 0.029 6.73 1.15 11.13
5/10/2023 1:00:00 PM 10.61 51.098 0.029 6.73 1.12 11.07
5/10/2023 1:15:00 PM 10.84 51.512 0.029 6.73 1.23 11.02
5/10/2023 1:30:00 PM 11.05 51.89 0.029 6.73 1.32 10.97
5/10/2023 1:45:00 PM 11.23 52.214 0.029 6.73 1.26 10.91
5/10/2023 2:00:00 PM 11.4 52.52 0.029 6.73 1.21 10.87
5/10/2023 2:15:00 PM 11.54 52.772 0.029 6.74 1.16 10.82
5/10/2023 2:30:00 PM 11.65 52.97 0.029 6.73 1.25 10.78
5/10/2023 2:45:00 PM 11.71 53.078 0.029 6.74 1.22 10.75
5/10/2023 3:00:00 PM 11.74 53.132 0.029 6.72 1.19 10.73
5/10/2023 3:15:00 PM 11.76 53.168 0.029 6.74 1.21 10.72
5/10/2023 3:30:00 PM 11.76 53.168 0.029 6.73 1.17 10.7
5/10/2023 3:45:00 PM 11.76 53.168 0.029 6.72 1.13 10.69
5/10/2023 4:00:00 PM 11.74 53.132 0.029 6.72 1.27 10.68
5/10/2023 4:15:00 PM 11.7 53.06 0.03 6.73 1.21 10.68
5/10/2023 4:30:00 PM 11.67 53.006 0.03 6.7 1.16 10.67
5/10/2023 4:45:00 PM 11.63 52.934 0.03 6.7 1.22 10.67
5/10/2023 5:00:00 PM 11.59 52.862 0.03 6.7 1.18 10.66
5/10/2023 5:15:00 PM 11.56 52.808 0.03 6.7 1.19 10.65
5/10/2023 5:30:00 PM 11.54 52.772 0.03 6.7 1.13 10.65
5/10/2023 5:45:00 PM 11.51 52.718 0.03 6.69 1.21 10.64
5/10/2023 6:00:00 PM 11.48 52.664 0.03 6.69 1.14 10.63
5/10/2023 6:15:00 PM 11.46 52.628 0.03 6.66 1.2 10.62
5/10/2023 6:30:00 PM 11.43 52.574 0.03 6.66 1.15 10.61
5/10/2023 6:45:00 PM 11.42 52.556 0.03 6.66 1.22 10.6
5/10/2023 7:00:00 PM 11.4 52.52 0.03 6.64 1.18 10.6
5/10/2023 7:15:00 PM 11.37 52.466 0.03 6.64 1.21 10.59
5/10/2023 7:30:00 PM 11.34 52.412 0.03 6.62 1.15 10.6
5/10/2023 7:45:00 PM 11.31 52.358 0.03 6.63 1.19 10.6
5/10/2023 8:00:00 PM 11.28 52.304 0.03 6.63 1.16 10.6
5/10/2023 8:15:00 PM 11.24 52.232 0.03 6.64 1.22 10.6
5/10/2023 8:30:00 PM 11.2 52.16 0.03 6.63 1.25 10.59
5/10/2023 8:45:00 PM 11.17 52.106 0.03 6.61 1.27 10.6
5/10/2023 9:00:00 PM 11.13 52.034 0.03 6.63 1.22 10.6
5/10/2023 9:15:00 PM 11.08 51.944 0.03 6.62 1.31 10.62
5/10/2023 9:30:00 PM 11.03 51.854 0.03 6.63 1.33 10.63
5/10/2023 9:45:00 PM 10.97 51.746 0.03 6.61 1.22 10.64
5/10/2023 10:00:00 PM 10.91 51.638 0.03 6.63 1.31 10.66
5/10/2023 10:15:00 PM 10.85 51.53 0.03 6.63 1.26 10.67
5/10/2023 10:30:00 PM 10.79 51.422 0.03 6.63 1.3 10.69
5/10/2023 10:45:00 PM 10.73 51.314 0.03 6.61 1.3 10.71
5/10/2023 11:00:00 PM 10.67 51.206 0.03 6.63 1.31 10.72
5/10/2023 11:15:00 PM 10.61 51.098 0.03 6.62 1.29 10.74
5/10/2023 11:30:00 PM 10.55 50.99 0.03 6.63 1.32 10.75
5/10/2023 11:45:00 PM 10.5 50.9 0.03 6.62 1.28 10.77
5/11/2023 12:00:00 AM 10.44 50.792 0.03 6.64 1.28 10.78
5/11/2023 12:15:00 AM 10.38 50.684 0.03 6.62 1.31 10.8
5/11/2023 12:30:00 AM 10.32 50.576 0.03 6.63 1.29 10.82
5/11/2023 12:45:00 AM 10.26 50.468 0.03 6.61 1.33 10.83
5/11/2023 1:00:00 AM 10.2 50.36 0.03 6.62 1.37 10.85
5/11/2023 1:15:00 AM 10.15 50.27 0.03 6.62 1.4 10.86
5/11/2023 1:30:00 AM 10.09 50.162 0.03 6.62 1.21 10.88
5/11/2023 1:45:00 AM 10.03 50.054 0.03 6.62 1.23 10.89
5/11/2023 2:00:00 AM 9.98 49.964 0.03 6.63 1.28 10.91
5/11/2023 2:15:00 AM 9.92 49.856 0.03 6.61 1.28 10.92
5/11/2023 2:30:00 AM 9.86 49.748 0.03 6.61 1.3 10.93
5/11/2023 2:45:00 AM 9.81 49.658 0.03 6.62 1.29 10.95
5/11/2023 3:00:00 AM 9.75 49.55 0.03 6.63 1.3 10.96
5/11/2023 3:15:00 AM 9.7 49.46 0.03 6.61 1.27 10.98
5/11/2023 3:30:00 AM 9.64 49.352 0.03 6.62 1.25 10.99
5/11/2023 3:45:00 AM 9.58 49.244 0.03 6.62 1.35 11.01
5/11/2023 4:00:00 AM 9.52 49.136 0.03 6.62 1.32 11.02
5/11/2023 4:15:00 AM 9.47 49.046 0.03 6.62 1.28 11.04
5/11/2023 4:30:00 AM 9.41 48.938 0.03 6.62 1.27 11.06
5/11/2023 4:45:00 AM 9.35 48.83 0.03 6.62 1.31 11.07
5/11/2023 5:00:00 AM 9.3 48.74 0.03 6.62 1.29 11.09
5/11/2023 5:15:00 AM 9.24 48.632 0.03 6.6 1.25 11.11
5/11/2023 5:30:00 AM 9.19 48.542 0.03 6.62 1.31 11.12
5/11/2023 5:45:00 AM 9.14 48.452 0.03 6.62 1.23 11.13
5/11/2023 6:00:00 AM 9.09 48.362 0.03 6.61 1.23 11.15
5/11/2023 6:15:00 AM 9.05 48.29 0.03 6.62 1.22 11.17
5/11/2023 6:30:00 AM 9.01 48.218 0.03 6.63 1.25 11.2
5/11/2023 6:45:00 AM 8.96 48.128 0.03 6.62 1.19 11.22
5/11/2023 7:00:00 AM 8.93 48.074 0.03 6.63 1.19 11.25
5/11/2023 7:15:00 AM 8.89 48.002 0.03 6.63 1.17 11.27
5/11/2023 7:30:00 AM 8.87 47.966 0.03 6.63 1.29 11.29
5/11/2023 7:45:00 AM 8.85 47.93 0.03 6.64 1.27 11.31
5/11/2023 8:00:00 AM 8.85 47.93 0.03 6.65 1.24 11.33
5/11/2023 8:15:00 AM 8.86 47.948 0.03 6.65 1.17 11.34
5/11/2023 8:30:00 AM 8.87 47.966 0.03 6.66 1.21 11.36
5/11/2023 8:45:00 AM 8.9 48.02 0.03 6.65 1.15 11.36
5/11/2023 9:00:00 AM 8.95 48.11 0.03 6.66 1.19 11.37
5/11/2023 9:15:00 AM 9 48.2 0.03 6.68 1.17 11.37
5/11/2023 9:30:00 AM 9.06 48.308 0.03 6.68 1.22 11.36
5/11/2023 9:45:00 AM 9.14 48.452 0.03 6.68 1.22 11.35
5/11/2023 10:00:00 AM 9.22 48.596 0.03 6.69 1.15 11.34
5/11/2023 10:15:00 AM 9.31 48.758 0.03 6.69 1.09 11.33
5/11/2023 10:30:00 AM 9.42 48.956 0.03 6.7 1.19 11.31
5/11/2023 10:45:00 AM 9.54 49.172 0.03 6.7 1.17 11.29
5/11/2023 11:00:00 AM 9.67 49.406 0.03 6.71 1.15 11.26
5/11/2023 11:15:00 AM 9.81 49.658 0.03 6.71 1.13 11.22
5/11/2023 11:30:00 AM 9.99 49.982 0.03 6.71 1.13 11.19
5/11/2023 11:45:00 AM 10.18 50.324 0.03 6.71 1.15 11.14
5/11/2023 12:00:00 PM 10.39 50.702 0.03 6.73 1.16 11.1
5/11/2023 12:15:00 PM 10.6 51.08 0.03 6.73 1.1 11.06
5/11/2023 12:30:00 PM 10.81 51.458 0.03 6.73 1.23 11.01
5/11/2023 12:45:00 PM 11.02 51.836 0.03 6.72 1.23 10.97
5/11/2023 1:00:00 PM 11.22 52.196 0.03 6.74 1.23 10.92
5/11/2023 1:15:00 PM 11.44 52.592 0.03 6.74 1.24 10.87
5/11/2023 1:30:00 PM 11.63 52.934 0.03 6.74 1.15 10.82
5/11/2023 1:45:00 PM 11.78 53.204 0.03 6.74 1.09 10.77
5/11/2023 2:00:00 PM 11.9 53.42 0.03 6.74 1.23 10.73
5/11/2023 2:15:00 PM 11.98 53.564 0.03 6.74 1.13 10.7
5/11/2023 2:30:00 PM 12.03 53.654 0.03 6.74 1.12 10.68
5/11/2023 2:45:00 PM 12.09 53.762 0.03 6.74 1.12 10.66
5/11/2023 3:00:00 PM 12.15 53.87 0.03 6.74 1.19 10.63
5/11/2023 3:15:00 PM 12.21 53.978 0.03 6.74 1.1 10.61
5/11/2023 3:30:00 PM 12.24 54.032 0.03 6.74 1.18 10.58
5/11/2023 3:45:00 PM 12.27 54.086 0.03 6.73 1.23 10.56
5/11/2023 4:00:00 PM 12.3 54.14 0.03 6.73 1.09 10.54
5/11/2023 4:15:00 PM 12.29 54.122 0.03 6.73 1.18 10.53
5/11/2023 4:30:00 PM 12.29 54.122 0.03 6.72 1.24 10.51
5/11/2023 4:45:00 PM 12.26 54.068 0.03 6.72 1.19 10.51
5/11/2023 5:00:00 PM 12.24 54.032 0.03 6.72 1.11 10.5
5/11/2023 5:15:00 PM 12.21 53.978 0.03 6.71 1.17 10.49
5/11/2023 5:30:00 PM 12.16 53.888 0.03 6.68 1.17 10.49
5/11/2023 5:45:00 PM 12.13 53.834 0.03 6.68 1.16 10.49
5/11/2023 6:00:00 PM 12.12 53.816 0.03 6.67 1.21 10.48
5/11/2023 6:15:00 PM 12.12 53.816 0.03 6.66 1.21 10.47
5/11/2023 6:30:00 PM 12.11 53.798 0.03 6.67 1.2 10.46
5/11/2023 6:45:00 PM 12.1 53.78 0.03 6.65 1.2 10.45
5/11/2023 7:00:00 PM 12.08 53.744 0.03 6.65 1.15 10.44
5/11/2023 7:15:00 PM 12.06 53.708 0.03 6.64 1.18 10.43
5/11/2023 7:30:00 PM 12.03 53.654 0.03 6.64 1.15 10.42
5/11/2023 7:45:00 PM 11.99 53.582 0.03 6.63 1.68 10.42
5/11/2023 8:00:00 PM 11.96 53.528 0.03 6.63 1.15 10.41
5/11/2023 8:15:00 PM 11.93 53.474 0.03 6.6 1.28 10.41
5/11/2023 8:30:00 PM 11.91 53.438 0.03 6.61 1.17 10.4
5/11/2023 8:45:00 PM 11.88 53.384 0.03 6.61 1.27 10.4
5/11/2023 9:00:00 PM 11.84 53.312 0.03 6.62 1.3 10.41
5/11/2023 9:15:00 PM 11.8 53.24 0.03 6.62 1.3 10.42
5/11/2023 9:30:00 PM 11.75 53.15 0.03 6.61 1.25 10.43
5/11/2023 9:45:00 PM 11.7 53.06 0.03 6.62 1.29 10.45
5/11/2023 10:00:00 PM 11.65 52.97 0.03 6.63 1.41 10.46
5/11/2023 10:15:00 PM 11.6 52.88 0.03 6.62 1.47 10.47
5/11/2023 10:30:00 PM 11.55 52.79 0.03 6.6 1.51 10.49
5/11/2023 10:45:00 PM 11.5 52.7 0.03 6.62 1.47 10.5
5/11/2023 11:00:00 PM 11.44 52.592 0.03 6.62 1.4 10.51
5/11/2023 11:15:00 PM 11.39 52.502 0.03 6.64 1.57 10.53
5/11/2023 11:30:00 PM 11.34 52.412 0.03 6.6 1.51 10.54
5/11/2023 11:45:00 PM 11.29 52.322 0.03 6.63 1.57 10.55
5/12/2023 12:00:00 AM 11.24 52.232 0.03 6.62 1.5 10.56
5/12/2023 12:15:00 AM 11.19 52.142 0.03 6.63 1.53 10.58
5/12/2023 12:30:00 AM 11.14 52.052 0.03 6.63 1.47 10.59
5/12/2023 12:45:00 AM 11.09 51.962 0.03 6.62 1.49 10.6
5/12/2023 1:00:00 AM 11.04 51.872 0.03 6.62 1.5 10.61
5/12/2023 1:15:00 AM 10.99 51.782 0.03 6.62 1.34 10.62
5/12/2023 1:30:00 AM 10.94 51.692 0.03 6.62 1.47 10.64
5/12/2023 1:45:00 AM 10.89 51.602 0.03 6.62 1.45 10.65
5/12/2023 2:00:00 AM 10.84 51.512 0.03 6.62 1.44 10.66
5/12/2023 2:15:00 AM 10.79 51.422 0.03 6.62 1.48 10.67
5/12/2023 2:30:00 AM 10.74 51.332 0.03 6.6 1.33 10.69
5/12/2023 2:45:00 AM 10.69 51.242 0.03 6.62 1.31 10.7
5/12/2023 3:00:00 AM 10.64 51.152 0.03 6.62 1.41 10.71
5/12/2023 3:15:00 AM 10.59 51.062 0.03 6.61 1.4 10.73
5/12/2023 3:30:00 AM 10.54 50.972 0.03 6.62 1.39 10.74
5/12/2023 3:45:00 AM 10.49 50.882 0.03 6.62 1.36 10.75
5/12/2023 4:00:00 AM 10.45 50.81 0.03 6.61 1.4 10.76
5/12/2023 4:15:00 AM 10.4 50.72 0.03 6.6 1.33 10.77
5/12/2023 4:30:00 AM 10.36 50.648 0.03 6.62 1.38 10.78
5/12/2023 4:45:00 AM 10.31 50.558 0.03 6.62 1.4 10.8
5/12/2023 5:00:00 AM 10.27 50.486 0.03 6.62 1.38 10.81
5/12/2023 5:15:00 AM 10.23 50.414 0.03 6.6 1.38 10.82
5/12/2023 5:30:00 AM 10.19 50.342 0.03 6.62 1.38 10.83
5/12/2023 5:45:00 AM 10.15 50.27 0.03 6.63 1.38 10.84
5/12/2023 6:00:00 AM 10.11 50.198 0.03 6.63 1.4 10.86
5/12/2023 6:15:00 AM 10.07 50.126 0.03 6.64 1.34 10.88
5/12/2023 6:30:00 AM 10.03 50.054 0.03 6.62 1.34 10.89
5/12/2023 6:45:00 AM 10 50 0.03 6.64 1.34 10.91
5/12/2023 7:00:00 AM 9.97 49.946 0.03 6.64 1.29 10.94
5/12/2023 7:15:00 AM 9.95 49.91 0.03 6.64 1.27 10.96
5/12/2023 7:30:00 AM 9.94 49.892 0.03 6.64 1.35 10.99
5/12/2023 7:45:00 AM 9.94 49.892 0.03 6.66 1.31 11.01
5/12/2023 8:00:00 AM 9.95 49.91 0.03 6.65 1.33 11.02
5/12/2023 8:15:00 AM 9.97 49.946 0.03 6.68 1.38 11.03
5/12/2023 8:30:00 AM 10 50 0.03 6.66 1.23 11.04
5/12/2023 8:45:00 AM 10.03 50.054 0.03 6.68 1.22 11.04
5/12/2023 9:00:00 AM 10.07 50.126 0.03 6.67 1.46 11.05
5/12/2023 9:15:00 AM 10.12 50.216 0.03 6.67 1.32 11.05
5/12/2023 9:30:00 AM 10.18 50.324 0.03 6.68 1.29 11.05
5/12/2023 9:45:00 AM 10.25 50.45 0.03 6.7 1.28 11.05
5/12/2023 10:00:00 AM 10.34 50.612 0.03 6.74 1.22 11.04
5/12/2023 10:15:00 AM 10.42 50.756 0.03 6.73 1.32 11.03
5/12/2023 10:30:00 AM 10.49 50.882 0.03 6.7 1.36 11.02
5/12/2023 10:45:00 AM 10.58 51.044 0.03 6.71 1.33 11
5/12/2023 11:00:00 AM 10.67 51.206 0.03 6.72 1.35 10.99
5/12/2023 11:15:00 AM 10.77 51.386 0.03 6.72 1.38 10.97
5/12/2023 11:30:00 AM 10.87 51.566 0.03 6.73 1.38 10.95
5/12/2023 11:45:00 AM 11 51.8 0.03 6.72 1.35 10.92
5/12/2023 12:00:00 PM 11.15 52.07 0.03 6.73 1.36 10.9
5/12/2023 12:15:00 PM 11.34 52.412 0.03 6.74 1.36 10.86
5/12/2023 12:30:00 PM 11.53 52.754 0.03 6.74 1.38 10.82
5/12/2023 12:45:00 PM 11.73 53.114 0.03 6.74 2.14 10.78
5/12/2023 1:00:00 PM 11.95 53.51 0.03 6.75 1.38 10.73
5/12/2023 1:15:00 PM 12.18 53.924 0.03 6.75 1.33 10.68
5/12/2023 1:30:00 PM 12.39 54.302 0.03 6.74 1.39 10.63
5/12/2023 1:45:00 PM 12.55 54.59 0.03 6.76 1.35 10.59
5/12/2023 2:00:00 PM 12.63 54.734 0.03 6.74 1.41 10.54
5/12/2023 2:15:00 PM 12.65 54.77 0.03 6.77 1.25 10.51
5/12/2023 2:30:00 PM 12.74 54.932 0.03 6.76 1.19 10.5
5/12/2023 2:45:00 PM 12.77 54.986 0.03 6.78 1.31 10.48
5/12/2023 3:00:00 PM 12.8 55.04 0.03 6.79 2.4 10.46
5/12/2023 3:15:00 PM 12.83 55.094 0.03 6.77 1.21 10.44
5/12/2023 3:30:00 PM 12.87 55.166 0.03 6.77 1.23 10.42
5/12/2023 3:45:00 PM 12.89 55.202 0.03 6.77 1.27 10.41
5/12/2023 4:00:00 PM 12.87 55.166 0.03 6.74 1.24 10.39
5/12/2023 4:15:00 PM 12.87 55.166 0.03 6.73 1.13 10.38
5/12/2023 4:30:00 PM 12.86 55.148 0.03 6.76 1.29 10.37
5/12/2023 4:45:00 PM 12.85 55.13 0.03 6.74 1.26 10.36
5/12/2023 5:00:00 PM 12.84 55.112 0.03 6.75 1.09 10.36
5/12/2023 5:15:00 PM 12.82 55.076 0.03 6.72 1.12 10.35
5/12/2023 5:30:00 PM 12.78 55.004 0.03 6.72 1.08 10.33
5/12/2023 5:45:00 PM 12.74 54.932 0.03 6.71 1.66 10.33
5/12/2023 6:00:00 PM 12.69 54.842 0.03 6.68 1.14 10.31
5/12/2023 6:15:00 PM 12.66 54.788 0.03 6.67 1.1 10.3
5/12/2023 6:30:00 PM 12.62 54.716 0.03 6.66 1.12 10.3
5/12/2023 6:45:00 PM 12.59 54.662 0.03 6.66 1.12 10.29
5/12/2023 7:00:00 PM 12.57 54.626 0.03 6.65 1.1 10.29
5/12/2023 7:15:00 PM 12.55 54.59 0.03 6.66 1.21 10.29
5/12/2023 7:30:00 PM 12.51 54.518 0.03 6.65 1.11 10.28
5/12/2023 7:45:00 PM 12.48 54.464 0.031 6.63 1.12 10.28
5/12/2023 8:00:00 PM 12.43 54.374 0.031 6.63 1.13 10.27
5/12/2023 8:15:00 PM 12.38 54.284 0.031 6.63 1.12 10.27
5/12/2023 8:30:00 PM 12.33 54.194 0.031 6.62 1.19 10.28
5/12/2023 8:45:00 PM 12.28 54.104 0.031 6.6 1.17 10.28
5/12/2023 9:00:00 PM 12.23 54.014 0.031 6.61 1.28 10.29
5/12/2023 9:15:00 PM 12.2 53.96 0.031 6.61 1.29 10.3
5/12/2023 9:30:00 PM 12.17 53.906 0.031 6.6 1.24 10.3
5/12/2023 9:45:00 PM 12.15 53.87 0.031 6.62 1.29 10.31
5/12/2023 10:00:00 PM 12.13 53.834 0.031 6.6 1.43 10.31
5/12/2023 10:15:00 PM 12.11 53.798 0.031 6.6 1.3 10.32
5/12/2023 10:30:00 PM 12.09 53.762 0.031 6.62 1.28 10.32
5/12/2023 10:45:00 PM 12.06 53.708 0.031 6.61 1.26 10.33
5/12/2023 11:00:00 PM 12.03 53.654 0.031 6.61 1.25 10.33
5/12/2023 11:15:00 PM 12 53.6 0.031 6.6 1.28 10.34
5/12/2023 11:30:00 PM 11.97 53.546 0.031 6.61 1.23 10.35
5/12/2023 11:45:00 PM 11.93 53.474 0.031 6.63 1.32 10.36
5/13/2023 12:00:00 AM 11.9 53.42 0.031 6.62 1.31 10.37
5/13/2023 12:15:00 AM 11.87 53.366 0.031 6.59 1.32 10.37
5/13/2023 12:30:00 AM 11.84 53.312 0.031 6.63 1.27 10.38
5/13/2023 12:45:00 AM 11.81 53.258 0.031 6.63 1.34 10.39
5/13/2023 1:00:00 AM 11.78 53.204 0.031 6.61 1.34 10.4
5/13/2023 1:15:00 AM 11.75 53.15 0.031 6.59 1.34 10.4
5/13/2023 1:30:00 AM 11.71 53.078 0.031 6.58 1.3 10.41
5/13/2023 1:45:00 AM 11.68 53.024 0.031 6.59 1.33 10.42
5/13/2023 2:00:00 AM 11.64 52.952 0.031 6.64 1.3 10.43
5/13/2023 2:15:00 AM 11.61 52.898 0.031 6.62 1.27 10.44
5/13/2023 2:30:00 AM 11.58 52.844 0.031 6.64 1.3 10.44
5/13/2023 2:45:00 AM 11.55 52.79 0.031 6.61 1.34 10.45
5/13/2023 3:00:00 AM 11.52 52.736 0.031 6.61 1.46 10.46
5/13/2023 3:15:00 AM 11.49 52.682 0.031 6.62 1.26 10.47
5/13/2023 3:30:00 AM 11.47 52.646 0.031 6.62 1.3 10.47
5/13/2023 3:45:00 AM 11.45 52.61 0.031 6.61 1.22 10.48
5/13/2023 4:00:00 AM 11.42 52.556 0.031 6.62 1.4 10.48
5/13/2023 4:15:00 AM 11.4 52.52 0.031 6.59 1.36 10.49
5/13/2023 4:30:00 AM 11.37 52.466 0.031 6.61 1.37 10.5
5/13/2023 4:45:00 AM 11.34 52.412 0.031 6.6 1.38 10.51
5/13/2023 5:00:00 AM 11.31 52.358 0.031 6.61 1.4 10.52
5/13/2023 5:15:00 AM 11.27 52.286 0.031 6.62 1.38 10.53
5/13/2023 5:30:00 AM 11.23 52.214 0.031 6.6 1.34 10.54
5/13/2023 5:45:00 AM 11.2 52.16 0.031 6.63 1.43 10.55
5/13/2023 6:00:00 AM 11.16 52.088 0.031 6.62 1.38 10.56
5/13/2023 6:15:00 AM 11.13 52.034 0.031 6.61 1.33 10.58
5/13/2023 6:30:00 AM 11.1 51.98 0.031 6.63 1.36 10.6
5/13/2023 6:45:00 AM 11.08 51.944 0.031 6.63 1.31 10.62
5/13/2023 7:00:00 AM 11.06 51.908 0.031 6.64 1.23 10.64
5/13/2023 7:15:00 AM 11.05 51.89 0.031 6.65 1.26 10.66
5/13/2023 7:30:00 AM 11.04 51.872 0.031 6.65 1.25 10.68
5/13/2023 7:45:00 AM 11.03 51.854 0.031 6.64 1.3 10.7
5/13/2023 8:00:00 AM 11.03 51.854 0.031 6.66 1.29 10.71
5/13/2023 8:15:00 AM 11.04 51.872 0.031 6.64 1.23 10.73
5/13/2023 8:30:00 AM 11.05 51.89 0.031 6.67 1.28 10.74
5/13/2023 8:45:00 AM 11.07 51.926 0.03 6.66 1.24 10.75
5/13/2023 9:00:00 AM 11.09 51.962 0.03 6.67 1.25 10.76
5/13/2023 9:15:00 AM 11.12 52.016 0.03 6.68 1.21 10.77
5/13/2023 9:30:00 AM 11.15 52.07 0.03 6.68 1.23 10.78
5/13/2023 9:45:00 AM 11.2 52.16 0.03 6.69 1.22 10.78
5/13/2023 10:00:00 AM 11.24 52.232 0.03 6.7 1.22 10.77
5/13/2023 10:15:00 AM 11.28 52.304 0.03 6.69 1.24 10.75
5/13/2023 10:30:00 AM 11.31 52.358 0.03 6.7 1.29 10.75
5/13/2023 10:45:00 AM 11.35 52.43 0.03 6.71 1.27 10.73
5/13/2023 11:00:00 AM 11.4 52.52 0.03 6.7 1.23 10.73
5/13/2023 11:15:00 AM 11.46 52.628 0.03 6.72 1.27 10.73
5/13/2023 11:30:00 AM 11.53 52.754 0.03 6.73 1.19 10.73
5/13/2023 11:45:00 AM 11.61 52.898 0.03 6.74 1.21 10.73
5/13/2023 12:00:00 PM 11.68 53.024 0.03 6.74 1.29 10.71
5/13/2023 12:15:00 PM 11.74 53.132 0.03 6.74 1.22 10.7
5/13/2023 12:30:00 PM 11.81 53.258 0.03 6.75 1.27 10.69
5/13/2023 12:45:00 PM 11.86 53.348 0.03 6.75 1.27 10.68
5/13/2023 1:00:00 PM 11.95 53.51 0.03 6.76 1.23 10.67
5/13/2023 1:15:00 PM 12.01 53.618 0.03 6.77 1.23 10.66
5/13/2023 1:30:00 PM 12.05 53.69 0.03 6.76 1.18 10.63
5/13/2023 1:45:00 PM 12.16 53.888 0.03 6.77 1.31 10.63
5/13/2023 2:00:00 PM 12.22 53.996 0.03 6.77 1.08 10.61
5/13/2023 2:15:00 PM 12.28 54.104 0.03 6.77 1.1 10.58
5/13/2023 2:30:00 PM 12.41 54.338 0.03 6.76 1.1 10.56
5/13/2023 2:45:00 PM 12.48 54.464 0.03 6.77 1.11 10.54
5/13/2023 3:00:00 PM 12.53 54.554 0.03 6.76 1.1 10.51
5/13/2023 3:15:00 PM 12.59 54.662 0.03 6.76 1.07 10.48
5/13/2023 3:30:00 PM 12.64 54.752 0.03 6.77 1.1 10.46
5/13/2023 3:45:00 PM 12.67 54.806 0.03 6.76 1.11 10.44
5/13/2023 4:00:00 PM 12.7 54.86 0.03 6.76 1.12 10.42
5/13/2023 4:15:00 PM 12.71 54.878 0.03 6.76 1.11 10.4
5/13/2023 4:30:00 PM 12.72 54.896 0.03 6.74 1.08 10.4
5/13/2023 4:45:00 PM 12.72 54.896 0.03 6.75 1.13 10.38
5/13/2023 5:00:00 PM 12.72 54.896 0.03 6.74 1.12 10.37
5/13/2023 5:15:00 PM 12.7 54.86 0.03 6.74 1.07 10.37
5/13/2023 5:30:00 PM 12.68 54.824 0.03 6.73 1.11 10.36
5/13/2023 5:45:00 PM 12.66 54.788 0.03 6.71 1.09 10.35
5/13/2023 6:00:00 PM 12.64 54.752 0.03 6.7 1.1 10.34
5/13/2023 6:15:00 PM 12.63 54.734 0.03 6.7 1.08 10.31
5/13/2023 6:30:00 PM 12.61 54.698 0.03 6.7 1.13 10.29
5/13/2023 6:45:00 PM 12.6 54.68 0.03 6.7 1.12 10.28
5/13/2023 7:00:00 PM 12.58 54.644 0.031 6.69 1.17 10.27
5/13/2023 7:15:00 PM 12.55 54.59 0.031 6.66 1.12 10.26
5/13/2023 7:30:00 PM 12.53 54.554 0.031 6.69 1.1 10.26
5/13/2023 7:45:00 PM 12.5 54.5 0.031 6.67 1.13 10.26
5/13/2023 8:00:00 PM 12.47 54.446 0.031 6.67 1.17 10.26
5/13/2023 8:15:00 PM 12.44 54.392 0.031 6.66 1.13 10.26
5/13/2023 8:30:00 PM 12.41 54.338 0.031 6.66 1.13 10.26
5/13/2023 8:45:00 PM 12.37 54.266 0.031 6.65 1.14 10.27
5/13/2023 9:00:00 PM 12.33 54.194 0.031 6.66 1.19 10.27
5/13/2023 9:15:00 PM 12.3 54.14 0.031 6.65 1.21 10.28
5/13/2023 9:30:00 PM 12.27 54.086 0.031 6.65 1.23 10.29
5/13/2023 9:45:00 PM 12.23 54.014 0.031 6.65 1.24 10.3
5/13/2023 10:00:00 PM 12.18 53.924 0.031 6.65 1.23 10.31
5/13/2023 10:15:00 PM 12.12 53.816 0.031 6.67 1.24 10.33
5/13/2023 10:30:00 PM 12.05 53.69 0.031 6.66 1.21 10.35
5/13/2023 10:45:00 PM 11.99 53.582 0.031 6.65 1.26 10.36
5/13/2023 11:00:00 PM 11.92 53.456 0.031 6.64 1.26 10.38
5/13/2023 11:15:00 PM 11.86 53.348 0.031 6.66 1.31 10.4
5/13/2023 11:30:00 PM 11.8 53.24 0.031 6.65 1.29 10.41
5/13/2023 11:45:00 PM 11.73 53.114 0.031 6.66 1.3 10.43
5/14/2023 12:00:00 AM 11.67 53.006 0.031 6.65 1.38 10.44
5/14/2023 12:15:00 AM 11.6 52.88 0.031 6.66 1.24 10.46
5/14/2023 12:30:00 AM 11.52 52.736 0.031 6.64 1.29 10.48
5/14/2023 12:45:00 AM 11.44 52.592 0.031 6.66 1.27 10.5
5/14/2023 1:00:00 AM 11.36 52.448 0.031 6.64 1.32 10.52
5/14/2023 1:15:00 AM 11.28 52.304 0.031 6.63 1.26 10.54
5/14/2023 1:30:00 AM 11.2 52.16 0.031 6.65 1.27 10.56
5/14/2023 1:45:00 AM 11.12 52.016 0.031 6.65 1.3 10.58
5/14/2023 2:00:00 AM 11.04 51.872 0.031 6.63 1.33 10.6
5/14/2023 2:15:00 AM 10.97 51.746 0.031 6.64 1.29 10.62
5/14/2023 2:30:00 AM 10.9 51.62 0.031 6.64 1.28 10.64
5/14/2023 2:45:00 AM 10.83 51.494 0.031 6.63 1.23 10.65
5/14/2023 3:00:00 AM 10.76 51.368 0.031 6.64 1.23 10.67
5/14/2023 3:15:00 AM 10.69 51.242 0.031 6.64 1.23 10.69
5/14/2023 3:30:00 AM 10.63 51.134 0.031 6.64 1.18 10.71
5/14/2023 3:45:00 AM 10.57 51.026 0.031 6.64 1.21 10.72
5/14/2023 4:00:00 AM 10.5 50.9 0.031 6.64 1.18 10.74
5/14/2023 4:15:00 AM 10.45 50.81 0.031 6.64 1.26 10.76
5/14/2023 4:30:00 AM 10.39 50.702 0.031 6.64 1.24 10.77
5/14/2023 4:45:00 AM 10.33 50.594 0.031 6.65 1.22 10.79
5/14/2023 5:00:00 AM 10.28 50.504 0.031 6.64 1.21 10.81
5/14/2023 5:15:00 AM 10.24 50.432 0.031 6.63 1.17 10.82
5/14/2023 5:30:00 AM 10.19 50.342 0.031 6.64 1.2 10.84
5/14/2023 5:45:00 AM 10.14 50.252 0.031 6.63 1.19 10.85
5/14/2023 6:00:00 AM 10.09 50.162 0.031 6.64 1.16 10.87
5/14/2023 6:15:00 AM 10.05 50.09 0.031 6.64 1.21 10.89
5/14/2023 6:30:00 AM 10.01 50.018 0.031 6.64 1.2 10.92
5/14/2023 6:45:00 AM 9.98 49.964 0.031 6.65 1.11 10.95
5/14/2023 7:00:00 AM 9.96 49.928 0.031 6.65 1.12 10.97
5/14/2023 7:15:00 AM 9.94 49.892 0.031 6.65 1.2 10.99
5/14/2023 7:30:00 AM 9.94 49.892 0.031 6.67 1.14 11.01
5/14/2023 7:45:00 AM 9.94 49.892 0.031 6.67 1.13 11.03
5/14/2023 8:00:00 AM 9.95 49.91 0.031 6.68 1.11 11.05
5/14/2023 8:15:00 AM 9.98 49.964 0.031 6.68 1.14 11.05
5/14/2023 8:30:00 AM 10.02 50.036 0.031 6.68 1.21 11.05
5/14/2023 8:45:00 AM 10.06 50.108 0.031 6.68 1.14 11.05
5/14/2023 9:00:00 AM 10.1 50.18 0.031 6.69 1.06 11.04
5/14/2023 9:15:00 AM 10.15 50.27 0.031 6.7 1.03 11.03
5/14/2023 9:30:00 AM 10.2 50.36 0.031 6.69 1.09 11.02
5/14/2023 9:45:00 AM 10.24 50.432 0.031 6.71 1.12 11.02
5/14/2023 10:00:00 AM 10.3 50.54 0.03 6.7 1.07 11.01
5/14/2023 10:15:00 AM 10.37 50.666 0.03 6.72 1.1 11.01
5/14/2023 10:30:00 AM 10.44 50.792 0.03 6.72 1.1 11.01
5/14/2023 10:45:00 AM 10.51 50.918 0.03 6.73 1.09 11.01
5/14/2023 11:00:00 AM 10.6 51.08 0.03 6.73 1.13 10.99
5/14/2023 11:15:00 AM 10.69 51.242 0.03 6.74 1.03 10.97
5/14/2023 11:30:00 AM 10.8 51.44 0.03 6.74 1.07 10.95
5/14/2023 11:45:00 AM 10.93 51.674 0.03 6.75 1.09 10.92
5/14/2023 12:00:00 PM 11.07 51.926 0.03 6.75 1.1 10.9
5/14/2023 12:15:00 PM 11.23 52.214 0.03 6.75 1.1 10.88
5/14/2023 12:30:00 PM 11.4 52.52 0.03 6.75 1.06 10.85
5/14/2023 12:45:00 PM 11.56 52.808 0.03 6.75 1.05 10.82
5/14/2023 1:00:00 PM 11.72 53.096 0.03 6.74 1.09 10.79
5/14/2023 1:15:00 PM 11.89 53.402 0.03 6.76 1.08 10.75
5/14/2023 1:30:00 PM 12.04 53.672 0.03 6.76 1.08 10.71
5/14/2023 1:45:00 PM 12.18 53.924 0.03 6.75 1.07 10.68
5/14/2023 2:00:00 PM 12.29 54.122 0.03 6.77 1.07 10.65
5/14/2023 2:15:00 PM 12.38 54.284 0.03 6.76 1.06 10.61
5/14/2023 2:30:00 PM 12.44 54.392 0.03 6.75 1.08 10.58
5/14/2023 2:45:00 PM 12.47 54.446 0.03 6.77 1.11 10.56
5/14/2023 3:00:00 PM 12.49 54.482 0.03 6.76 1.04 10.54
5/14/2023 3:15:00 PM 12.49 54.482 0.03 6.76 1.09 10.52
5/14/2023 3:30:00 PM 12.5 54.5 0.03 6.76 1.09 10.5
5/14/2023 3:45:00 PM 12.5 54.5 0.03 6.75 1.15 10.48
5/14/2023 4:00:00 PM 12.49 54.482 0.03 6.76 1.12 10.47
5/14/2023 4:15:00 PM 12.46 54.428 0.03 6.74 1.07 10.46
5/14/2023 4:30:00 PM 12.41 54.338 0.03 6.74 1.11 10.48
5/14/2023 4:45:00 PM 12.35 54.23 0.03 6.74 1.07 10.48
5/14/2023 5:00:00 PM 12.29 54.122 0.03 6.73 1.11 10.49
5/14/2023 5:15:00 PM 12.23 54.014 0.031 6.74 1.12 10.49
5/14/2023 5:30:00 PM 12.17 53.906 0.031 6.73 1.06 10.5
5/14/2023 5:45:00 PM 12.13 53.834 0.031 6.73 1.13 10.51
5/14/2023 6:00:00 PM 12.05 53.69 0.031 6.73 1.07 10.52
5/14/2023 6:15:00 PM 11.99 53.582 0.031 6.72 1.07 10.52
5/14/2023 6:30:00 PM 11.94 53.492 0.031 6.72 1.06 10.51
5/14/2023 6:45:00 PM 11.88 53.384 0.031 6.71 1.14 10.51
5/14/2023 7:00:00 PM 11.83 53.294 0.031 6.7 1.1 10.52
5/14/2023 7:15:00 PM 11.77 53.186 0.031 6.7 1.1 10.52
5/14/2023 7:30:00 PM 11.72 53.096 0.031 6.7 1.03 10.52
5/14/2023 7:45:00 PM 11.69 53.042 0.031 6.68 1.14 10.52
5/14/2023 8:00:00 PM 11.65 52.97 0.031 6.68 1.12 10.51
5/14/2023 8:15:00 PM 11.6 52.88 0.031 6.68 1.17 10.51
5/14/2023 8:30:00 PM 11.56 52.808 0.031 6.68 1.09 10.51
5/14/2023 8:45:00 PM 11.5 52.7 0.031 6.67 1.11 10.52
5/14/2023 9:00:00 PM 11.44 52.592 0.031 6.68 1.16 10.53
5/14/2023 9:15:00 PM 11.39 52.502 0.031 6.68 1.1 10.55
5/14/2023 9:30:00 PM 11.35 52.43 0.031 6.67 1.14 10.56
5/14/2023 9:45:00 PM 11.3 52.34 0.031 6.68 1.15 10.57
5/14/2023 10:00:00 PM 11.25 52.25 0.031 6.68 1.16 10.59
5/14/2023 10:15:00 PM 11.18 52.124 0.031 6.67 1.16 10.6
5/14/2023 10:30:00 PM 11.12 52.016 0.031 6.67 1.18 10.62
5/14/2023 10:45:00 PM 11.05 51.89 0.031 6.67 1.2 10.64
5/14/2023 11:00:00 PM 10.99 51.782 0.031 6.67 1.34 10.66
5/14/2023 11:15:00 PM 10.92 51.656 0.031 6.67 1.3 10.67
5/14/2023 11:30:00 PM 10.86 51.548 0.031 6.67 1.36 10.69
5/14/2023 11:45:00 PM 10.8 51.44 0.031 6.67 1.33 10.7
5/15/2023 12:00:00 AM 10.73 51.314 0.031 6.67 1.34 10.72
5/15/2023 12:15:00 AM 10.66 51.188 0.031 6.66 1.32 10.74
5/15/2023 12:30:00 AM 10.59 51.062 0.031 6.66 1.3 10.76
5/15/2023 12:45:00 AM 10.52 50.936 0.031 6.66 1.29 10.77
5/15/2023 1:00:00 AM 10.45 50.81 0.031 6.66 1.33 10.79
5/15/2023 1:15:00 AM 10.39 50.702 0.031 6.67 1.35 10.8
5/15/2023 1:30:00 AM 10.33 50.594 0.031 6.66 1.34 10.82
5/15/2023 1:45:00 AM 10.27 50.486 0.031 6.66 1.35 10.83
5/15/2023 2:00:00 AM 10.21 50.378 0.031 6.65 1.31 10.85
5/15/2023 2:15:00 AM 10.15 50.27 0.031 6.64 1.3 10.86
5/15/2023 2:30:00 AM 10.08 50.144 0.031 6.66 1.32 10.88
5/15/2023 2:45:00 AM 10.01 50.018 0.031 6.66 1.31 10.9
5/15/2023 3:00:00 AM 9.93 49.874 0.031 6.65 1.3 10.92
5/15/2023 3:15:00 AM 9.86 49.748 0.031 6.64 1.34 10.94
5/15/2023 3:30:00 AM 9.79 49.622 0.031 6.66 1.28 10.96
5/15/2023 3:45:00 AM 9.72 49.496 0.031 6.65 1.31 10.98
5/15/2023 4:00:00 AM 9.65 49.37 0.031 6.65 1.31 11
5/15/2023 4:15:00 AM 9.59 49.262 0.031 6.65 1.39 11.01
5/15/2023 4:30:00 AM 9.53 49.154 0.031 6.64 1.28 11.03
5/15/2023 4:45:00 AM 9.47 49.046 0.031 6.65 1.37 11.04
5/15/2023 5:00:00 AM 9.41 48.938 0.031 6.64 1.3 11.06
5/15/2023 5:15:00 AM 9.34 48.812 0.031 6.63 1.35 11.08
5/15/2023 5:30:00 AM 9.28 48.704 0.031 6.65 1.28 11.1
5/15/2023 5:45:00 AM 9.21 48.578 0.031 6.64 1.29 11.12
5/15/2023 6:00:00 AM 9.15 48.47 0.031 6.64 1.25 11.14
5/15/2023 6:15:00 AM 9.08 48.344 0.031 6.66 1.27 11.17
5/15/2023 6:30:00 AM 9.02 48.236 0.031 6.64 1.27 11.2
5/15/2023 6:45:00 AM 8.97 48.146 0.031 6.66 1.24 11.23
5/15/2023 7:00:00 AM 8.91 48.038 0.031 6.66 1.2 11.25
5/15/2023 7:15:00 AM 8.86 47.948 0.031 6.66 1.21 11.28
5/15/2023 7:30:00 AM 8.82 47.876 0.031 6.66 1.18 11.31
5/15/2023 7:45:00 AM 8.8 47.84 0.031 6.67 1.18 11.33
5/15/2023 8:00:00 AM 8.78 47.804 0.031 6.68 1.19 11.34
5/15/2023 8:15:00 AM 8.78 47.804 0.031 6.68 1.2 11.36
5/15/2023 8:30:00 AM 8.8 47.84 0.031 6.69 1.17 11.36
5/15/2023 8:45:00 AM 8.82 47.876 0.031 6.69 1.14 11.37
5/15/2023 9:00:00 AM 8.86 47.948 0.031 6.7 1.19 11.37
5/15/2023 9:15:00 AM 8.91 48.038 0.031 6.69 1.16 11.37
5/15/2023 9:30:00 AM 8.97 48.146 0.031 6.71 1.19 11.37
5/15/2023 9:45:00 AM 9.04 48.272 0.031 6.71 1.2 11.37
5/15/2023 10:00:00 AM 9.12 48.416 0.031 6.72 1.1 11.36
5/15/2023 10:15:00 AM 9.22 48.596 0.031 6.73 1.19 11.35
5/15/2023 10:30:00 AM 9.32 48.776 0.031 6.73 1.16 11.33
5/15/2023 10:45:00 AM 9.44 48.992 0.031 6.74 1.14 11.32
5/15/2023 11:00:00 AM 9.56 49.208 0.031 6.73 1.14 11.29
5/15/2023 11:15:00 AM 9.7 49.46 0.03 6.74 1.15 11.26
5/15/2023 11:30:00 AM 9.85 49.73 0.03 6.74 1.2 11.23
5/15/2023 11:45:00 AM 10.01 50.018 0.03 6.75 1.17 11.2
5/15/2023 12:00:00 PM 10.2 50.36 0.03 6.75 1.14 11.16
5/15/2023 12:15:00 PM 10.37 50.666 0.03 6.75 1.17 11.13
5/15/2023 12:30:00 PM 10.56 51.008 0.03 6.76 1.15 11.09
5/15/2023 12:45:00 PM 10.76 51.368 0.03 6.77 1.17 11.05
5/15/2023 1:00:00 PM 10.97 51.746 0.03 6.75 1.12 11
5/15/2023 1:15:00 PM 11.18 52.124 0.03 6.77 1.19 10.95
5/15/2023 1:30:00 PM 11.37 52.466 0.03 6.77 1.12 10.9
5/15/2023 1:45:00 PM 11.54 52.772 0.03 6.78 1.14 10.85
5/15/2023 2:00:00 PM 11.68 53.024 0.03 6.77 1.13 10.81
5/15/2023 2:15:00 PM 11.79 53.222 0.03 6.76 1.15 10.76
5/15/2023 2:30:00 PM 11.89 53.402 0.03 6.78 1.13 10.73
5/15/2023 2:45:00 PM 11.95 53.51 0.03 6.78 1.13 10.7
5/15/2023 3:00:00 PM 11.99 53.582 0.03 6.77 1.15 10.67
5/15/2023 3:15:00 PM 12.02 53.636 0.03 6.77 1.12 10.65
5/15/2023 3:30:00 PM 12.05 53.69 0.03 6.77 1.12 10.62
5/15/2023 3:45:00 PM 12.07 53.726 0.03 6.75 1.1 10.61
5/15/2023 4:00:00 PM 12.08 53.744 0.03 6.77 1.16 10.59
5/15/2023 4:15:00 PM 12.07 53.726 0.03 6.77 1.18 10.57
5/15/2023 4:30:00 PM 12.06 53.708 0.03 6.76 1.15 10.56
5/15/2023 4:45:00 PM 12.04 53.672 0.03 6.75 1.14 10.55
5/15/2023 5:00:00 PM 12.01 53.618 0.03 6.75 1.13 10.54
5/15/2023 5:15:00 PM 11.98 53.564 0.031 6.75 1.16 10.54
5/15/2023 5:30:00 PM 11.94 53.492 0.031 6.75 1.17 10.52
5/15/2023 5:45:00 PM 11.9 53.42 0.031 6.74 1.13 10.52
5/15/2023 6:00:00 PM 11.86 53.348 0.031 6.72 1.17 10.5
5/15/2023 6:15:00 PM 11.83 53.294 0.031 6.72 1.16 10.49
5/15/2023 6:30:00 PM 11.79 53.222 0.031 6.71 1.15 10.48
5/15/2023 6:45:00 PM 11.75 53.15 0.031 6.7 1.18 10.47
5/15/2023 7:00:00 PM 11.72 53.096 0.031 6.69 1.19 10.46
5/15/2023 7:15:00 PM 11.68 53.024 0.031 6.69 1.19 10.45
5/15/2023 7:30:00 PM 11.65 52.97 0.031 6.68 1.16 10.45
5/15/2023 7:45:00 PM 11.6 52.88 0.031 6.68 1.19 10.45
5/15/2023 8:00:00 PM 11.56 52.808 0.031 6.68 1.18 10.45
5/15/2023 8:15:00 PM 11.52 52.736 0.031 6.68 1.17 10.45
5/15/2023 8:30:00 PM 11.47 52.646 0.031 6.68 1.14 10.45
5/15/2023 8:45:00 PM 11.43 52.574 0.031 6.66 1.21 10.46
5/15/2023 9:00:00 PM 11.38 52.484 0.031 6.68 1.2 10.46
5/15/2023 9:15:00 PM 11.32 52.376 0.031 6.68 1.27 10.48
5/15/2023 9:30:00 PM 11.26 52.268 0.031 6.68 1.3 10.49
5/15/2023 9:45:00 PM 11.19 52.142 0.031 6.68 1.23 10.5
5/15/2023 10:00:00 PM 11.13 52.034 0.031 6.68 1.25 10.52
5/15/2023 10:15:00 PM 11.07 51.926 0.031 6.67 1.19 10.53
5/15/2023 10:30:00 PM 11.01 51.818 0.031 6.67 1.26 10.55
5/15/2023 10:45:00 PM 10.95 51.71 0.031 6.67 1.25 10.56
5/15/2023 11:00:00 PM 10.89 51.602 0.031 6.67 1.22 10.57
5/15/2023 11:15:00 PM 10.83 51.494 0.031 6.67 1.26 10.59
5/15/2023 11:30:00 PM 10.77 51.386 0.031 6.68 1.29 10.6
5/15/2023 11:45:00 PM 10.71 51.278 0.031 6.67 1.23 10.61
5/16/2023 12:00:00 AM 10.65 51.17 0.031 6.66 1.33 10.63
5/16/2023 12:15:00 AM 10.59 51.062 0.031 6.66 1.23 10.64
5/16/2023 12:30:00 AM 10.53 50.954 0.031 6.66 1.33 10.65
5/16/2023 12:45:00 AM 10.46 50.828 0.031 6.65 1.3 10.67
5/16/2023 1:00:00 AM 10.4 50.72 0.031 6.65 1.28 10.68
5/16/2023 1:15:00 AM 10.33 50.594 0.031 6.65 1.26 10.7
5/16/2023 1:30:00 AM 10.26 50.468 0.031 6.65 1.21 10.72
5/16/2023 1:45:00 AM 10.19 50.342 0.031 6.65 1.24 10.74
5/16/2023 2:00:00 AM 10.12 50.216 0.031 6.64 1.27 10.75
5/16/2023 2:15:00 AM 10.04 50.072 0.031 6.66 1.27 10.77
5/16/2023 2:30:00 AM 9.97 49.946 0.031 6.66 1.23 10.79
5/16/2023 2:45:00 AM 9.9 49.82 0.031 6.65 1.19 10.81
5/16/2023 3:00:00 AM 9.82 49.676 0.031 6.65 1.22 10.82
5/16/2023 3:15:00 AM 9.75 49.55 0.031 6.64 1.24 10.84
5/16/2023 3:30:00 AM 9.68 49.424 0.031 6.65 1.26 10.86
5/16/2023 3:45:00 AM 9.61 49.298 0.031 6.65 1.22 10.88
5/16/2023 4:00:00 AM 9.54 49.172 0.031 6.66 1.22 10.9
5/16/2023 4:15:00 AM 9.47 49.046 0.031 6.66 1.22 10.91
5/16/2023 4:30:00 AM 9.4 48.92 0.031 6.67 1.22 10.93
5/16/2023 4:45:00 AM 9.34 48.812 0.031 6.66 1.23 10.94
5/16/2023 5:00:00 AM 9.28 48.704 0.031 6.66 1.42 10.96
5/16/2023 5:15:00 AM 9.22 48.596 0.031 6.65 1.4 10.97
5/16/2023 5:30:00 AM 9.16 48.488 0.031 6.65 1.46 10.99
5/16/2023 5:45:00 AM 9.1 48.38 0.031 6.66 1.38 11
5/16/2023 6:00:00 AM 9.04 48.272 0.031 6.65 1.4 11.02
5/16/2023 6:15:00 AM 8.98 48.164 0.031 6.66 1.37 11.04
5/16/2023 6:30:00 AM 8.93 48.074 0.031 6.66 1.36 11.07
5/16/2023 6:45:00 AM 8.88 47.984 0.031 6.66 1.43 11.09
5/16/2023 7:00:00 AM 8.83 47.894 0.031 6.66 1.34 11.11
5/16/2023 7:15:00 AM 8.79 47.822 0.031 6.67 1.11 11.13
5/16/2023 7:30:00 AM 8.76 47.768 0.031 6.68 1.13 11.16
5/16/2023 7:45:00 AM 8.74 47.732 0.031 6.67 1.05 11.17
5/16/2023 8:00:00 AM 8.73 47.714 0.031 6.68 1.12 11.18
5/16/2023 8:15:00 AM 8.74 47.732 0.031 6.68 1.09 11.2
5/16/2023 8:30:00 AM 8.75 47.75 0.031 6.69 1.14 11.21
5/16/2023 8:45:00 AM 8.78 47.804 0.031 6.68 1.09 11.21
5/16/2023 9:00:00 AM 8.82 47.876 0.031 6.7 1.07 11.21
5/16/2023 9:15:00 AM 8.87 47.966 0.031 6.71 1.17 11.21
5/16/2023 9:30:00 AM 8.94 48.092 0.031 6.71 1.1 11.2
5/16/2023 9:45:00 AM 9.02 48.236 0.031 6.7 1.08 11.19
5/16/2023 10:00:00 AM 9.11 48.398 0.031 6.72 1.06 11.18
5/16/2023 10:15:00 AM 9.22 48.596 0.031 6.73 1.08 11.16
5/16/2023 10:30:00 AM 9.33 48.794 0.031 6.71 1.04 11.14
5/16/2023 10:45:00 AM 9.47 49.046 0.031 6.74 1.07 11.12
5/16/2023 11:00:00 AM 9.62 49.316 0.031 6.75 1.03 11.1
5/16/2023 11:15:00 AM 9.78 49.604 0.031 6.74 1.04 11.07
5/16/2023 11:30:00 AM 9.95 49.91 0.031 6.75 1.08 11.04
5/16/2023 11:45:00 AM 10.13 50.234 0.031 6.76 1.08 11.01
5/16/2023 12:00:00 PM 10.26 50.468 0.031 6.77 1.15 10.98
5/16/2023 12:15:00 PM 10.44 50.792 0.03 6.78 1.06 10.94
5/16/2023 12:30:00 PM 10.63 51.134 0.03 6.78 1.02 10.91
5/16/2023 12:45:00 PM 10.74 51.332 0.03 6.78 1.02 10.87
5/16/2023 1:00:00 PM 10.84 51.512 0.03 6.78 1.02 10.83
5/16/2023 1:15:00 PM 10.91 51.638 0.03 6.78 1.19 10.79
5/16/2023 1:30:00 PM 11.15 52.07 0.03 6.79 1.01 10.76
5/16/2023 1:45:00 PM 11.29 52.322 0.03 6.79 1.05 10.73
5/16/2023 2:00:00 PM 11.33 52.394 0.03 6.79 1.02 10.69
5/16/2023 2:15:00 PM 11.5 52.7 0.03 6.79 1.1 10.67
5/16/2023 2:30:00 PM 11.6 52.88 0.03 6.78 1.06 10.63
5/16/2023 2:45:00 PM 11.64 52.952 0.03 6.8 1.06 10.6
5/16/2023 3:00:00 PM 11.7 53.06 0.03 6.79 1.09 10.57
5/16/2023 3:15:00 PM 11.76 53.168 0.03 6.78 1.01 10.54
5/16/2023 3:30:00 PM 11.8 53.24 0.03 6.79 1.13 10.52
5/16/2023 3:45:00 PM 11.85 53.33 0.03 6.77 1.06 10.49
5/16/2023 4:00:00 PM 11.87 53.366 0.03 6.76 1.05 10.48
5/16/2023 4:15:00 PM 11.9 53.42 0.03 6.78 1.03 10.45
5/16/2023 4:30:00 PM 11.93 53.474 0.031 6.78 1.05 10.44
5/16/2023 4:45:00 PM 11.96 53.528 0.031 6.77 1.02 10.42
5/16/2023 5:00:00 PM 11.98 53.564 0.031 6.77 1.02 10.41
5/16/2023 5:15:00 PM 11.98 53.564 0.031 6.78 1.09 10.4
5/16/2023 5:30:00 PM 11.98 53.564 0.031 6.76 1.08 10.39
5/16/2023 5:45:00 PM 11.96 53.528 0.031 6.75 1.63 10.38
5/16/2023 6:00:00 PM 11.94 53.492 0.031 6.76 1.18 10.35
5/16/2023 6:15:00 PM 11.92 53.456 0.031 6.75 1.08 10.33
5/16/2023 6:30:00 PM 11.92 53.456 0.031 6.75 1.09 10.31
5/16/2023 6:45:00 PM 11.92 53.456 0.031 6.74 1.06 10.31
5/16/2023 7:00:00 PM 11.92 53.456 0.031 6.74 1.03 10.3
5/16/2023 7:15:00 PM 11.9 53.42 0.031 6.73 1.11 10.28
5/16/2023 7:30:00 PM 11.86 53.348 0.031 6.7 1.04 10.27
5/16/2023 7:45:00 PM 11.81 53.258 0.031 6.7 1.05 10.26
5/16/2023 8:00:00 PM 11.76 53.168 0.031 6.69 1.02 10.26
5/16/2023 8:15:00 PM 11.71 53.078 0.031 6.69 1.02 10.26
5/16/2023 8:30:00 PM 11.66 52.988 0.031 6.7 1.02 10.26
5/16/2023 8:45:00 PM 11.62 52.916 0.031 6.68 1.06 10.26
5/16/2023 9:00:00 PM 11.58 52.844 0.031 6.69 1.1 10.26
5/16/2023 9:15:00 PM 11.53 52.754 0.031 6.68 1.12 10.27
5/16/2023 9:30:00 PM 11.49 52.682 0.031 6.69 1.12 10.28
5/16/2023 9:45:00 PM 11.44 52.592 0.031 6.67 1.09 10.29
5/16/2023 10:00:00 PM 11.39 52.502 0.031 6.67 1.12 10.31
5/16/2023 10:15:00 PM 11.34 52.412 0.031 6.68 1.22 10.32
5/16/2023 10:30:00 PM 11.29 52.322 0.031 6.68 1.13 10.33
5/16/2023 10:45:00 PM 11.24 52.232 0.031 6.68 1.09 10.34
5/16/2023 11:00:00 PM 11.18 52.124 0.031 6.66 1.15 10.35
5/16/2023 11:15:00 PM 11.13 52.034 0.031 6.68 1.21 10.36
5/16/2023 11:30:00 PM 11.08 51.944 0.031 6.68 1.19 10.38
5/16/2023 11:45:00 PM 11.03 51.854 0.031 6.67 1.08 10.39
5/17/2023 12:00:00 AM 10.97 51.746 0.031 6.67 1.14 10.41
5/17/2023 12:15:00 AM 10.92 51.656 0.031 6.68 1.14 10.42
5/17/2023 12:30:00 AM 10.86 51.548 0.031 6.67 1.16 10.43
5/17/2023 12:45:00 AM 10.8 51.44 0.031 6.68 1.11 10.45
5/17/2023 1:00:00 AM 10.74 51.332 0.031 6.68 1.15 10.46
5/17/2023 1:15:00 AM 10.68 51.224 0.031 6.68 1.13 10.49
5/17/2023 1:30:00 AM 10.62 51.116 0.031 6.67 1.15 10.5
5/17/2023 1:45:00 AM 10.57 51.026 0.031 6.67 1.11 10.52
5/17/2023 2:00:00 AM 10.54 50.972 0.031 6.68 1.16 10.53
5/17/2023 2:15:00 AM 10.5 50.9 0.031 6.68 1.11 10.54
5/17/2023 2:30:00 AM 10.47 50.846 0.031 6.69 1.09 10.55
5/17/2023 2:45:00 AM 10.44 50.792 0.031 6.69 1.24 10.56
5/17/2023 3:00:00 AM 10.41 50.738 0.031 6.69 1.22 10.57
5/17/2023 3:15:00 AM 10.37 50.666 0.031 6.69 1.2 10.59
5/17/2023 3:30:00 AM 10.34 50.612 0.031 6.69 1.21 10.59
5/17/2023 3:45:00 AM 10.3 50.54 0.031 6.69 1.18 10.61
5/17/2023 4:00:00 AM 10.26 50.468 0.031 6.67 1.19 10.62
5/17/2023 4:15:00 AM 10.23 50.414 0.031 6.69 1.12 10.63
5/17/2023 4:30:00 AM 10.18 50.324 0.031 6.69 1.18 10.64
5/17/2023 4:45:00 AM 10.13 50.234 0.031 6.67 1.19 10.65
5/17/2023 5:00:00 AM 10.1 50.18 0.031 6.68 1.24 10.67
5/17/2023 5:15:00 AM 10.06 50.108 0.031 6.69 1.16 10.68
5/17/2023 5:30:00 AM 10.02 50.036 0.031 6.68 1.2 10.69
5/17/2023 5:45:00 AM 9.99 49.982 0.031 6.68 1.16 10.7
5/17/2023 6:00:00 AM 9.95 49.91 0.031 6.68 1.14 10.72
5/17/2023 6:15:00 AM 9.92 49.856 0.031 6.68 1.15 10.73
5/17/2023 6:30:00 AM 9.89 49.802 0.031 6.68 1.17 10.75
5/17/2023 6:45:00 AM 9.86 49.748 0.031 6.69 1.15 10.78
5/17/2023 7:00:00 AM 9.84 49.712 0.031 6.7 1.16 10.81
5/17/2023 7:15:00 AM 9.81 49.658 0.031 6.71 1.14 10.84
5/17/2023 7:30:00 AM 9.78 49.604 0.031 6.71 1.12 10.87
5/17/2023 7:45:00 AM 9.76 49.568 0.031 6.72 1.13 10.89
5/17/2023 8:00:00 AM 9.71 49.478 0.031 6.7 1.1 10.9
5/17/2023 8:15:00 AM 9.67 49.406 0.031 6.71 1.12 10.91
5/17/2023 8:30:00 AM 9.63 49.334 0.031 6.7 1.11 10.92
5/17/2023 8:45:00 AM 9.61 49.298 0.031 6.71 1.07 10.94
5/17/2023 9:00:00 AM 9.59 49.262 0.031 6.71 1.06 10.95
5/17/2023 9:15:00 AM 9.59 49.262 0.031 6.73 1.18 10.97
5/17/2023 9:30:00 AM 9.57 49.226 0.031 6.71 1.1 10.99
5/17/2023 9:45:00 AM 9.57 49.226 0.031 6.71 1.1 11
5/17/2023 10:00:00 AM 9.57 49.226 0.031 6.73 1.12 11.02
5/17/2023 10:15:00 AM 9.58 49.244 0.031 6.75 1.09 11.03
5/17/2023 10:30:00 AM 9.61 49.298 0.031 6.74 1.09 11.03
5/17/2023 10:45:00 AM 9.65 49.37 0.031 6.74 1.06 11.04
5/17/2023 11:00:00 AM 9.69 49.442 0.031 6.76 1.07 11.04
5/17/2023 11:15:00 AM 9.76 49.568 0.031 6.76 1.07 11.04
5/17/2023 11:30:00 AM 9.85 49.73 0.031 6.74 1.07 11.03
5/17/2023 11:45:00 AM 9.94 49.892 0.031 6.76 1.05 11.02
5/17/2023 12:00:00 PM 10.05 50.09 0.031 6.76 1.02 11.01
5/17/2023 12:15:00 PM 10.17 50.306 0.031 6.76 1.11 11
5/17/2023 12:30:00 PM 10.3 50.54 0.031 6.77 1.04 10.98
5/17/2023 12:45:00 PM 10.46 50.828 0.031 6.76 1.04 10.96
5/17/2023 1:00:00 PM 10.62 51.116 0.031 6.77 1.03 10.93
5/17/2023 1:15:00 PM 10.77 51.386 0.031 6.77 1.01 10.9
5/17/2023 1:30:00 PM 10.9 51.62 0.031 6.77 1.02 10.87
5/17/2023 1:45:00 PM 11.02 51.836 0.031 6.76 1.06 10.83
5/17/2023 2:00:00 PM 11.11 51.998 0.031 6.78 1.01 10.8
5/17/2023 2:15:00 PM 11.19 52.142 0.031 6.77 1.04 10.77
5/17/2023 2:30:00 PM 11.22 52.196 0.031 6.77 1 10.74
5/17/2023 2:45:00 PM 11.24 52.232 0.031 6.77 1.01 10.71
5/17/2023 3:00:00 PM 11.25 52.25 0.031 6.76 1.15 10.69
5/17/2023 3:15:00 PM 11.25 52.25 0.031 6.76 1.05 10.67
5/17/2023 3:30:00 PM 11.25 52.25 0.031 6.77 1.08 10.67
5/17/2023 3:45:00 PM 11.27 52.286 0.031 6.77 1.11 10.66
5/17/2023 4:00:00 PM 11.25 52.25 0.031 6.77 1.03 10.66
5/17/2023 4:15:00 PM 11.22 52.196 0.031 6.77 1.03 10.66
5/17/2023 4:30:00 PM 11.2 52.16 0.031 6.76 1.06 10.66
5/17/2023 4:45:00 PM 11.17 52.106 0.031 6.77 1.1 10.66
5/17/2023 5:00:00 PM 11.13 52.034 0.031 6.76 1.03 10.66
5/17/2023 5:15:00 PM 11.08 51.944 0.031 6.77 1.03 10.67
5/17/2023 5:30:00 PM 11.02 51.836 0.031 6.75 1.07 10.68
5/17/2023 5:45:00 PM 10.96 51.728 0.031 6.74 1.06 10.68
5/17/2023 6:00:00 PM 10.9 51.62 0.031 6.75 1.01 10.69
5/17/2023 6:15:00 PM 10.83 51.494 0.031 6.74 1.08 10.7
5/17/2023 6:30:00 PM 10.77 51.386 0.031 6.74 1.15 10.7
5/17/2023 6:45:00 PM 10.71 51.278 0.031 6.73 1.04 10.7
5/17/2023 7:00:00 PM 10.65 51.17 0.031 6.73 1.13 10.7
5/17/2023 7:15:00 PM 10.6 51.08 0.031 6.73 1.03 10.7
5/17/2023 7:30:00 PM 10.55 50.99 0.031 6.72 1.08 10.7
5/17/2023 7:45:00 PM 10.49 50.882 0.031 6.71 1.03 10.7
5/17/2023 8:00:00 PM 10.44 50.792 0.031 6.71 1.08 10.7
5/17/2023 8:15:00 PM 10.38 50.684 0.031 6.71 1.08 10.7
5/17/2023 8:30:00 PM 10.32 50.576 0.031 6.71 1.12 10.71
5/17/2023 8:45:00 PM 10.27 50.486 0.031 6.69 1.11 10.71
5/17/2023 9:00:00 PM 10.22 50.396 0.031 6.69 1.12 10.72
5/17/2023 9:15:00 PM 10.17 50.306 0.031 6.68 1.11 10.74
5/17/2023 9:30:00 PM 10.11 50.198 0.031 6.69 1.11 10.76
5/17/2023 9:45:00 PM 10.05 50.09 0.031 6.7 1.15 10.77
5/17/2023 10:00:00 PM 9.99 49.982 0.031 6.7 1.06 10.79
5/17/2023 10:15:00 PM 9.93 49.874 0.031 6.69 1.1 10.81
5/17/2023 10:30:00 PM 9.86 49.748 0.031 6.69 1.11 10.83
5/17/2023 10:45:00 PM 9.79 49.622 0.031 6.69 1.12 10.85
5/17/2023 11:00:00 PM 9.71 49.478 0.031 6.68 1.16 10.87
5/17/2023 11:15:00 PM 9.63 49.334 0.031 6.69 1.19 10.9
5/17/2023 11:30:00 PM 9.55 49.19 0.031 6.69 1.15 10.92
5/17/2023 11:45:00 PM 9.47 49.046 0.031 6.68 1.16 10.94
5/18/2023 12:00:00 AM 9.39 48.902 0.031 6.69 1.09 10.96
5/18/2023 12:15:00 AM 9.31 48.758 0.031 6.69 1.12 10.98
5/18/2023 12:30:00 AM 9.24 48.632 0.031 6.67 1.24 11.01
5/18/2023 12:45:00 AM 9.16 48.488 0.031 6.68 1.17 11.03
5/18/2023 1:00:00 AM 9.08 48.344 0.031 6.68 1.15 11.05
5/18/2023 1:15:00 AM 9.01 48.218 0.031 6.67 1.49 11.07
5/18/2023 1:30:00 AM 8.93 48.074 0.031 6.67 1.33 11.09
5/18/2023 1:45:00 AM 8.85 47.93 0.031 6.68 1.2 11.12
5/18/2023 2:00:00 AM 8.78 47.804 0.031 6.68 1.25 11.14
5/18/2023 2:15:00 AM 8.71 47.678 0.031 6.67 1.22 11.16
5/18/2023 2:30:00 AM 8.64 47.552 0.031 6.68 1.22 11.18
5/18/2023 2:45:00 AM 8.57 47.426 0.031 6.68 1.22 11.2
5/18/2023 3:00:00 AM 8.5 47.3 0.031 6.69 1.15 11.22
5/18/2023 3:15:00 AM 8.43 47.174 0.031 6.66 1.16 11.24
5/18/2023 3:30:00 AM 8.37 47.066 0.031 6.67 1.21 11.26
5/18/2023 3:45:00 AM 8.29 46.922 0.031 6.68 1.14 11.29
5/18/2023 4:00:00 AM 8.23 46.814 0.031 6.67 1.18 11.31
5/18/2023 4:15:00 AM 8.16 46.688 0.031 6.68 1.14 11.33
5/18/2023 4:30:00 AM 8.1 46.58 0.031 6.67 1.21 11.35
5/18/2023 4:45:00 AM 8.04 46.472 0.031 6.67 1.21 11.37
5/18/2023 5:00:00 AM 7.98 46.364 0.031 6.66 1.22 11.39
5/18/2023 5:15:00 AM 7.92 46.256 0.031 6.67 1.2 11.4
5/18/2023 5:30:00 AM 7.86 46.148 0.031 6.66 1.17 11.42
5/18/2023 5:45:00 AM 7.81 46.058 0.031 6.67 1.17 11.44
5/18/2023 6:00:00 AM 7.75 45.95 0.031 6.67 1.11 11.46
5/18/2023 6:15:00 AM 7.7 45.86 0.031 6.67 1.12 11.49
5/18/2023 6:30:00 AM 7.66 45.788 0.031 6.68 1.18 11.52
5/18/2023 6:45:00 AM 7.61 45.698 0.031 6.69 1.12 11.55
5/18/2023 7:00:00 AM 7.57 45.626 0.031 6.67 1.13 11.58
5/18/2023 7:15:00 AM 7.53 45.554 0.031 6.69 1.11 11.61
5/18/2023 7:30:00 AM 7.5 45.5 0.031 6.69 1.16 11.64
5/18/2023 7:45:00 AM 7.48 45.464 0.031 6.7 1.11 11.66
5/18/2023 8:00:00 AM 7.46 45.428 0.031 6.7 1.14 11.68
5/18/2023 8:15:00 AM 7.46 45.428 0.031 6.71 1.09 11.7
5/18/2023 8:30:00 AM 7.46 45.428 0.031 6.71 1.08 11.71
5/18/2023 8:45:00 AM 7.48 45.464 0.031 6.72 1.07 11.72
5/18/2023 9:00:00 AM 7.5 45.5 0.031 6.72 1.1 11.73
5/18/2023 9:15:00 AM 7.54 45.572 0.031 6.73 1.07 11.73
5/18/2023 9:30:00 AM 7.59 45.662 0.031 6.72 1.05 11.73
5/18/2023 9:45:00 AM 7.65 45.77 0.031 6.73 1.06 11.72
5/18/2023 10:00:00 AM 7.73 45.914 0.031 6.73 1.03 11.71
5/18/2023 10:15:00 AM 7.81 46.058 0.031 6.74 1.05 11.7
5/18/2023 10:30:00 AM 7.9 46.22 0.031 6.74 1.03 11.68
5/18/2023 10:45:00 AM 8 46.4 0.031 6.75 1.02 11.66
5/18/2023 11:00:00 AM 8.11 46.598 0.031 6.76 1 11.64
5/18/2023 11:15:00 AM 8.23 46.814 0.031 6.75 1.04 11.62
5/18/2023 11:30:00 AM 8.38 47.084 0.031 6.75 1.05 11.59
5/18/2023 11:45:00 AM 8.55 47.39 0.031 6.75 1.04 11.56
5/18/2023 12:00:00 PM 8.72 47.696 0.031 6.76 1.05 11.53
5/18/2023 12:15:00 PM 8.92 48.056 0.031 6.77 1.09 11.49
5/18/2023 12:30:00 PM 9.12 48.416 0.031 6.79 1.03 11.45
5/18/2023 12:45:00 PM 9.34 48.812 0.031 6.77 1.03 11.41
5/18/2023 1:00:00 PM 9.55 49.19 0.031 6.78 1.01 11.37
5/18/2023 1:15:00 PM 9.76 49.568 0.031 6.77 1.04 11.32
5/18/2023 1:30:00 PM 9.95 49.91 0.031 6.78 1.02 11.27
5/18/2023 1:45:00 PM 10.12 50.216 0.031 6.78 1.09 11.22
5/18/2023 2:00:00 PM 10.27 50.486 0.031 6.78 1.23 11.17
5/18/2023 2:15:00 PM 10.39 50.702 0.031 6.78 1.03 11.12
5/18/2023 2:30:00 PM 10.47 50.846 0.031 6.78 1.04 11.08
5/18/2023 2:45:00 PM 10.54 50.972 0.031 6.78 1.06 11.04
5/18/2023 3:00:00 PM 10.58 51.044 0.031 6.77 1.05 11.01
5/18/2023 3:15:00 PM 10.62 51.116 0.031 6.77 1.09 10.98
5/18/2023 3:30:00 PM 10.66 51.188 0.031 6.76 1.08 10.95
5/18/2023 3:45:00 PM 10.68 51.224 0.031 6.76 1.02 10.93
5/18/2023 4:00:00 PM 10.7 51.26 0.031 6.76 1.02 10.91
5/18/2023 4:15:00 PM 10.71 51.278 0.031 6.75 1.08 10.89
5/18/2023 4:30:00 PM 10.72 51.296 0.031 6.75 1.08 10.88
5/18/2023 4:45:00 PM 10.71 51.278 0.031 6.74 1.06 10.86
5/18/2023 5:00:00 PM 10.69 51.242 0.031 6.74 1.12 10.85
5/18/2023 5:15:00 PM 10.67 51.206 0.031 6.76 1.07 10.84
5/18/2023 5:30:00 PM 10.64 51.152 0.031 6.75 1.04 10.84
5/18/2023 5:45:00 PM 10.61 51.098 0.031 6.75 1.46 10.84
5/18/2023 6:00:00 PM 10.57 51.026 0.031 6.73 1.04 10.83
5/18/2023 6:15:00 PM 10.53 50.954 0.031 6.73 1.01 10.83
5/18/2023 6:30:00 PM 10.49 50.882 0.031 6.74 1.03 10.83
5/18/2023 6:45:00 PM 10.46 50.828 0.031 6.72 1.07 10.83
5/18/2023 7:00:00 PM 10.42 50.756 0.031 6.71 1.15 10.83

These are provisional data and have not been subject to a quality assurance process, but rather are the raw data reported by the instrument.
H: value is above sensor operating range
L: value is below sensor operating range
Offline: station is not reporting data
NC: parameter is not collected at site

Data Availability & Limitations

Uncertainty and potential for error can be associated with environmental monitoring data. Provisional data have not been subject to a quality assurance process, but rather are the raw data reported by the instrument. Data users are cautioned to consider carefully the provisional nature of the information before using it for decisions that concern personal or public safety or the conduct of business that involves substantial monetary or operational consequences.

Approved data are currently available by request by emailing: [email protected]. Approved data have been subject to a quality assurance process to correct for equipment or fouling drift. Data recorded during equipment malfunctions have been removed.

View Historical Stations that have been discontinued.